<?xml version="1.0" encoding="UTF-8" standalone="no" ?>
<gpx xmlns="http://www.topografix.com/GPX/1/1" xmlns:xsi="http://www.w3.org/2001/XMLSchema-instance" xsi:schemaLocation="http://www.topografix.com/GPX/1/1 http://www.topografix.com/GPX/1/1/gpx.xsd" version="1.1" creator="VisuGPX - https://www.visugpx.com">
  <metadata>
    <name>vtt mouflonman</name>
    <desc><![CDATA[trace vtt mouflonman édition 2.0 tracé par monseigneur Philippe BESSE]]></desc>
  </metadata>
  <trk>
    <name><![CDATA[9070160-VTT Gaëlle]]></name>
    <trkseg>
      <trkpt lat="47.29429" lon="4.93807">
        <ele>478</ele>
        <time>2018-09-23T14:19:17Z</time>
      </trkpt>
      <trkpt lat="47.29408" lon="4.93792">
        <ele>479</ele>
        <time>2018-09-23T14:20:17Z</time>
      </trkpt>
      <trkpt lat="47.294" lon="4.93785">
        <ele>479</ele>
        <time>2018-09-23T14:21:17Z</time>
      </trkpt>
      <trkpt lat="47.29397" lon="4.93778">
        <ele>480</ele>
        <time>2018-09-23T14:22:17Z</time>
      </trkpt>
      <trkpt lat="47.29389" lon="4.93749">
        <ele>481</ele>
        <time>2018-09-23T14:23:17Z</time>
      </trkpt>
      <trkpt lat="47.29388" lon="4.93734">
        <ele>483</ele>
        <time>2018-09-23T14:24:17Z</time>
      </trkpt>
      <trkpt lat="47.29389" lon="4.93731">
        <ele>483</ele>
        <time>2018-09-23T14:25:17Z</time>
      </trkpt>
      <trkpt lat="47.29394" lon="4.93723">
        <ele>484</ele>
        <time>2018-09-23T14:26:17Z</time>
      </trkpt>
      <trkpt lat="47.29399" lon="4.9372">
        <ele>484</ele>
        <time>2018-09-23T14:27:17Z</time>
      </trkpt>
      <trkpt lat="47.29402" lon="4.9372">
        <ele>484</ele>
        <time>2018-09-23T14:28:17Z</time>
      </trkpt>
      <trkpt lat="47.29445" lon="4.93717">
        <ele>485</ele>
        <time>2018-09-23T14:29:17Z</time>
      </trkpt>
      <trkpt lat="47.29485" lon="4.93713">
        <ele>485</ele>
        <time>2018-09-23T14:30:17Z</time>
      </trkpt>
      <trkpt lat="47.2951" lon="4.93712">
        <ele>485</ele>
        <time>2018-09-23T14:31:17Z</time>
      </trkpt>
      <trkpt lat="47.29547" lon="4.93709">
        <ele>487</ele>
        <time>2018-09-23T14:32:17Z</time>
      </trkpt>
      <trkpt lat="47.29581" lon="4.93707">
        <ele>489</ele>
        <time>2018-09-23T14:33:17Z</time>
      </trkpt>
      <trkpt lat="47.29598" lon="4.93706">
        <ele>490</ele>
        <time>2018-09-23T14:34:17Z</time>
      </trkpt>
      <trkpt lat="47.29607" lon="4.9371">
        <ele>489</ele>
        <time>2018-09-23T14:35:17Z</time>
      </trkpt>
      <trkpt lat="47.29627" lon="4.93726">
        <ele>487</ele>
        <time>2018-09-23T14:36:17Z</time>
      </trkpt>
      <trkpt lat="47.29637" lon="4.93723">
        <ele>488</ele>
        <time>2018-09-23T14:37:17Z</time>
      </trkpt>
      <trkpt lat="47.29647" lon="4.93712">
        <ele>490</ele>
        <time>2018-09-23T14:38:17Z</time>
      </trkpt>
      <trkpt lat="47.29654" lon="4.93705">
        <ele>491</ele>
        <time>2018-09-23T14:39:17Z</time>
      </trkpt>
      <trkpt lat="47.2966" lon="4.93701">
        <ele>492</ele>
        <time>2018-09-23T14:40:17Z</time>
      </trkpt>
      <trkpt lat="47.29665" lon="4.93698">
        <ele>493</ele>
        <time>2018-09-23T14:41:17Z</time>
      </trkpt>
      <trkpt lat="47.29669" lon="4.93698">
        <ele>493</ele>
        <time>2018-09-23T14:42:17Z</time>
      </trkpt>
      <trkpt lat="47.29678" lon="4.93697">
        <ele>493</ele>
        <time>2018-09-23T14:43:17Z</time>
      </trkpt>
      <trkpt lat="47.29703" lon="4.93692">
        <ele>492</ele>
        <time>2018-09-23T14:44:17Z</time>
      </trkpt>
      <trkpt lat="47.29712" lon="4.93689">
        <ele>492</ele>
        <time>2018-09-23T14:45:17Z</time>
      </trkpt>
      <trkpt lat="47.2973" lon="4.9368">
        <ele>493</ele>
        <time>2018-09-23T14:46:17Z</time>
      </trkpt>
      <trkpt lat="47.29736" lon="4.93677">
        <ele>493</ele>
        <time>2018-09-23T14:47:17Z</time>
      </trkpt>
      <trkpt lat="47.29753" lon="4.93666">
        <ele>494</ele>
        <time>2018-09-23T14:48:17Z</time>
      </trkpt>
      <trkpt lat="47.29768" lon="4.93652">
        <ele>494</ele>
        <time>2018-09-23T14:49:17Z</time>
      </trkpt>
      <trkpt lat="47.29799" lon="4.9361">
        <ele>498</ele>
        <time>2018-09-23T14:50:17Z</time>
      </trkpt>
      <trkpt lat="47.29808" lon="4.93598">
        <ele>498</ele>
        <time>2018-09-23T14:51:17Z</time>
      </trkpt>
      <trkpt lat="47.29826" lon="4.93577">
        <ele>499</ele>
        <time>2018-09-23T14:52:17Z</time>
      </trkpt>
      <trkpt lat="47.29848" lon="4.93551">
        <ele>501</ele>
        <time>2018-09-23T14:53:17Z</time>
      </trkpt>
      <trkpt lat="47.29861" lon="4.93537">
        <ele>501</ele>
        <time>2018-09-23T14:54:17Z</time>
      </trkpt>
      <trkpt lat="47.2987" lon="4.93528">
        <ele>500</ele>
        <time>2018-09-23T14:55:17Z</time>
      </trkpt>
      <trkpt lat="47.29893" lon="4.93507">
        <ele>498</ele>
        <time>2018-09-23T14:56:17Z</time>
      </trkpt>
      <trkpt lat="47.29916" lon="4.93484">
        <ele>495</ele>
        <time>2018-09-23T14:57:17Z</time>
      </trkpt>
      <trkpt lat="47.29921" lon="4.93478">
        <ele>495</ele>
        <time>2018-09-23T14:58:17Z</time>
      </trkpt>
      <trkpt lat="47.2993" lon="4.93467">
        <ele>495</ele>
        <time>2018-09-23T14:59:17Z</time>
      </trkpt>
      <trkpt lat="47.29935" lon="4.93458">
        <ele>496</ele>
        <time>2018-09-23T15:00:17Z</time>
      </trkpt>
      <trkpt lat="47.29944" lon="4.93437">
        <ele>497</ele>
        <time>2018-09-23T15:01:17Z</time>
      </trkpt>
      <trkpt lat="47.29946" lon="4.93431">
        <ele>497</ele>
        <time>2018-09-23T15:02:17Z</time>
      </trkpt>
      <trkpt lat="47.29951" lon="4.93415">
        <ele>498</ele>
        <time>2018-09-23T15:03:17Z</time>
      </trkpt>
      <trkpt lat="47.29959" lon="4.93388">
        <ele>498</ele>
        <time>2018-09-23T15:04:17Z</time>
      </trkpt>
      <trkpt lat="47.29968" lon="4.93363">
        <ele>498</ele>
        <time>2018-09-23T15:05:17Z</time>
      </trkpt>
      <trkpt lat="47.29977" lon="4.93328">
        <ele>498</ele>
        <time>2018-09-23T15:06:17Z</time>
      </trkpt>
      <trkpt lat="47.29983" lon="4.93301">
        <ele>497</ele>
        <time>2018-09-23T15:07:17Z</time>
      </trkpt>
      <trkpt lat="47.29989" lon="4.93239">
        <ele>498</ele>
        <time>2018-09-23T15:08:17Z</time>
      </trkpt>
      <trkpt lat="47.2999" lon="4.93227">
        <ele>498</ele>
        <time>2018-09-23T15:09:17Z</time>
      </trkpt>
      <trkpt lat="47.29991" lon="4.93214">
        <ele>499</ele>
        <time>2018-09-23T15:10:17Z</time>
      </trkpt>
      <trkpt lat="47.29994" lon="4.93185">
        <ele>499</ele>
        <time>2018-09-23T15:11:17Z</time>
      </trkpt>
      <trkpt lat="47.3" lon="4.93156">
        <ele>500</ele>
        <time>2018-09-23T15:12:17Z</time>
      </trkpt>
      <trkpt lat="47.30021" lon="4.93113">
        <ele>502</ele>
        <time>2018-09-23T15:13:17Z</time>
      </trkpt>
      <trkpt lat="47.30024" lon="4.93107">
        <ele>502</ele>
        <time>2018-09-23T15:14:17Z</time>
      </trkpt>
      <trkpt lat="47.30032" lon="4.93087">
        <ele>502</ele>
        <time>2018-09-23T15:15:17Z</time>
      </trkpt>
      <trkpt lat="47.30039" lon="4.93067">
        <ele>503</ele>
        <time>2018-09-23T15:16:17Z</time>
      </trkpt>
      <trkpt lat="47.30043" lon="4.93049">
        <ele>505</ele>
        <time>2018-09-23T15:17:17Z</time>
      </trkpt>
      <trkpt lat="47.30046" lon="4.93038">
        <ele>505</ele>
        <time>2018-09-23T15:18:17Z</time>
      </trkpt>
      <trkpt lat="47.30064" lon="4.92973">
        <ele>504</ele>
        <time>2018-09-23T15:19:17Z</time>
      </trkpt>
      <trkpt lat="47.30065" lon="4.92966">
        <ele>504</ele>
        <time>2018-09-23T15:20:17Z</time>
      </trkpt>
      <trkpt lat="47.30068" lon="4.92943">
        <ele>503</ele>
        <time>2018-09-23T15:21:17Z</time>
      </trkpt>
      <trkpt lat="47.30068" lon="4.92929">
        <ele>503</ele>
        <time>2018-09-23T15:22:17Z</time>
      </trkpt>
      <trkpt lat="47.30063" lon="4.92878">
        <ele>502</ele>
        <time>2018-09-23T15:23:17Z</time>
      </trkpt>
      <trkpt lat="47.30056" lon="4.9282">
        <ele>500</ele>
        <time>2018-09-23T15:24:17Z</time>
      </trkpt>
      <trkpt lat="47.30047" lon="4.92763">
        <ele>500</ele>
        <time>2018-09-23T15:25:17Z</time>
      </trkpt>
      <trkpt lat="47.30044" lon="4.92745">
        <ele>500</ele>
        <time>2018-09-23T15:26:17Z</time>
      </trkpt>
      <trkpt lat="47.30034" lon="4.92704">
        <ele>500</ele>
        <time>2018-09-23T15:27:17Z</time>
      </trkpt>
      <trkpt lat="47.30031" lon="4.92694">
        <ele>500</ele>
        <time>2018-09-23T15:28:17Z</time>
      </trkpt>
      <trkpt lat="47.30024" lon="4.92668">
        <ele>499</ele>
        <time>2018-09-23T15:29:17Z</time>
      </trkpt>
      <trkpt lat="47.30023" lon="4.92659">
        <ele>499</ele>
        <time>2018-09-23T15:30:17Z</time>
      </trkpt>
      <trkpt lat="47.30028" lon="4.92652">
        <ele>497</ele>
        <time>2018-09-23T15:31:17Z</time>
      </trkpt>
      <trkpt lat="47.30034" lon="4.92651">
        <ele>495</ele>
        <time>2018-09-23T15:32:17Z</time>
      </trkpt>
      <trkpt lat="47.30049" lon="4.92651">
        <ele>490</ele>
        <time>2018-09-23T15:33:17Z</time>
      </trkpt>
      <trkpt lat="47.30058" lon="4.9265">
        <ele>488</ele>
        <time>2018-09-23T15:34:17Z</time>
      </trkpt>
      <trkpt lat="47.30065" lon="4.92647">
        <ele>485</ele>
        <time>2018-09-23T15:35:17Z</time>
      </trkpt>
      <trkpt lat="47.30099" lon="4.92628">
        <ele>476</ele>
        <time>2018-09-23T15:36:17Z</time>
      </trkpt>
      <trkpt lat="47.30112" lon="4.92619">
        <ele>474</ele>
        <time>2018-09-23T15:37:17Z</time>
      </trkpt>
      <trkpt lat="47.30118" lon="4.92617">
        <ele>473</ele>
        <time>2018-09-23T15:38:17Z</time>
      </trkpt>
      <trkpt lat="47.30129" lon="4.92611">
        <ele>470</ele>
        <time>2018-09-23T15:39:17Z</time>
      </trkpt>
      <trkpt lat="47.30138" lon="4.92594">
        <ele>468</ele>
        <time>2018-09-23T15:40:17Z</time>
      </trkpt>
      <trkpt lat="47.30145" lon="4.92588">
        <ele>466</ele>
        <time>2018-09-23T15:41:17Z</time>
      </trkpt>
      <trkpt lat="47.30151" lon="4.92588">
        <ele>465</ele>
        <time>2018-09-23T15:42:17Z</time>
      </trkpt>
      <trkpt lat="47.30161" lon="4.92593">
        <ele>464</ele>
        <time>2018-09-23T15:43:17Z</time>
      </trkpt>
      <trkpt lat="47.30175" lon="4.926">
        <ele>462</ele>
        <time>2018-09-23T15:44:17Z</time>
      </trkpt>
      <trkpt lat="47.3018" lon="4.92601">
        <ele>461</ele>
        <time>2018-09-23T15:45:17Z</time>
      </trkpt>
      <trkpt lat="47.30195" lon="4.92604">
        <ele>458</ele>
        <time>2018-09-23T15:46:17Z</time>
      </trkpt>
      <trkpt lat="47.30211" lon="4.92612">
        <ele>456</ele>
        <time>2018-09-23T15:47:17Z</time>
      </trkpt>
      <trkpt lat="47.30216" lon="4.92614">
        <ele>455</ele>
        <time>2018-09-23T15:48:17Z</time>
      </trkpt>
      <trkpt lat="47.30222" lon="4.92613">
        <ele>454</ele>
        <time>2018-09-23T15:49:17Z</time>
      </trkpt>
      <trkpt lat="47.30228" lon="4.92611">
        <ele>453</ele>
        <time>2018-09-23T15:50:17Z</time>
      </trkpt>
      <trkpt lat="47.3025" lon="4.92596">
        <ele>448</ele>
        <time>2018-09-23T15:51:17Z</time>
      </trkpt>
      <trkpt lat="47.30258" lon="4.9259">
        <ele>446</ele>
        <time>2018-09-23T15:52:17Z</time>
      </trkpt>
      <trkpt lat="47.30271" lon="4.92577">
        <ele>443</ele>
        <time>2018-09-23T15:53:17Z</time>
      </trkpt>
      <trkpt lat="47.30277" lon="4.9257">
        <ele>442</ele>
        <time>2018-09-23T15:54:17Z</time>
      </trkpt>
      <trkpt lat="47.30284" lon="4.9256">
        <ele>441</ele>
        <time>2018-09-23T15:55:17Z</time>
      </trkpt>
      <trkpt lat="47.30289" lon="4.92553">
        <ele>440</ele>
        <time>2018-09-23T15:56:17Z</time>
      </trkpt>
      <trkpt lat="47.30297" lon="4.92544">
        <ele>439</ele>
        <time>2018-09-23T15:57:17Z</time>
      </trkpt>
      <trkpt lat="47.30309" lon="4.9253">
        <ele>438</ele>
        <time>2018-09-23T15:58:17Z</time>
      </trkpt>
      <trkpt lat="47.30337" lon="4.92494">
        <ele>436</ele>
        <time>2018-09-23T15:59:17Z</time>
      </trkpt>
      <trkpt lat="47.30352" lon="4.9247">
        <ele>435</ele>
        <time>2018-09-23T16:00:17Z</time>
      </trkpt>
      <trkpt lat="47.3036" lon="4.92454">
        <ele>435</ele>
        <time>2018-09-23T16:01:17Z</time>
      </trkpt>
      <trkpt lat="47.3038" lon="4.92406">
        <ele>434</ele>
        <time>2018-09-23T16:02:17Z</time>
      </trkpt>
      <trkpt lat="47.30387" lon="4.92384">
        <ele>433</ele>
        <time>2018-09-23T16:03:17Z</time>
      </trkpt>
      <trkpt lat="47.3039" lon="4.92372">
        <ele>432</ele>
        <time>2018-09-23T16:04:17Z</time>
      </trkpt>
      <trkpt lat="47.30394" lon="4.92348">
        <ele>431</ele>
        <time>2018-09-23T16:05:17Z</time>
      </trkpt>
      <trkpt lat="47.30397" lon="4.92336">
        <ele>430</ele>
        <time>2018-09-23T16:06:17Z</time>
      </trkpt>
      <trkpt lat="47.30413" lon="4.92291">
        <ele>429</ele>
        <time>2018-09-23T16:07:17Z</time>
      </trkpt>
      <trkpt lat="47.30416" lon="4.92286">
        <ele>429</ele>
        <time>2018-09-23T16:08:17Z</time>
      </trkpt>
      <trkpt lat="47.30424" lon="4.92288">
        <ele>429</ele>
        <time>2018-09-23T16:09:17Z</time>
      </trkpt>
      <trkpt lat="47.30432" lon="4.92295">
        <ele>429</ele>
        <time>2018-09-23T16:10:17Z</time>
      </trkpt>
      <trkpt lat="47.30443" lon="4.92302">
        <ele>429</ele>
        <time>2018-09-23T16:11:17Z</time>
      </trkpt>
      <trkpt lat="47.30461" lon="4.92316">
        <ele>428</ele>
        <time>2018-09-23T16:12:17Z</time>
      </trkpt>
      <trkpt lat="47.30496" lon="4.92344">
        <ele>427</ele>
        <time>2018-09-23T16:13:17Z</time>
      </trkpt>
      <trkpt lat="47.30508" lon="4.92358">
        <ele>427</ele>
        <time>2018-09-23T16:14:17Z</time>
      </trkpt>
      <trkpt lat="47.30555" lon="4.92421">
        <ele>426</ele>
        <time>2018-09-23T16:15:17Z</time>
      </trkpt>
      <trkpt lat="47.3056" lon="4.9243">
        <ele>426</ele>
        <time>2018-09-23T16:16:17Z</time>
      </trkpt>
      <trkpt lat="47.30565" lon="4.92439">
        <ele>426</ele>
        <time>2018-09-23T16:17:17Z</time>
      </trkpt>
      <trkpt lat="47.30572" lon="4.9246">
        <ele>426</ele>
        <time>2018-09-23T16:18:17Z</time>
      </trkpt>
      <trkpt lat="47.30576" lon="4.9247">
        <ele>425</ele>
        <time>2018-09-23T16:19:17Z</time>
      </trkpt>
      <trkpt lat="47.30581" lon="4.92479">
        <ele>425</ele>
        <time>2018-09-23T16:20:17Z</time>
      </trkpt>
      <trkpt lat="47.3059" lon="4.92494">
        <ele>424</ele>
        <time>2018-09-23T16:21:17Z</time>
      </trkpt>
      <trkpt lat="47.30602" lon="4.92515">
        <ele>422</ele>
        <time>2018-09-23T16:22:17Z</time>
      </trkpt>
      <trkpt lat="47.30609" lon="4.92523">
        <ele>421</ele>
        <time>2018-09-23T16:23:17Z</time>
      </trkpt>
      <trkpt lat="47.30611" lon="4.92525">
        <ele>421</ele>
        <time>2018-09-23T16:24:17Z</time>
      </trkpt>
      <trkpt lat="47.30614" lon="4.92524">
        <ele>421</ele>
        <time>2018-09-23T16:25:17Z</time>
      </trkpt>
      <trkpt lat="47.30621" lon="4.92525">
        <ele>420</ele>
        <time>2018-09-23T16:26:17Z</time>
      </trkpt>
      <trkpt lat="47.30626" lon="4.92536">
        <ele>419</ele>
        <time>2018-09-23T16:27:17Z</time>
      </trkpt>
      <trkpt lat="47.30629" lon="4.92545">
        <ele>418</ele>
        <time>2018-09-23T16:28:17Z</time>
      </trkpt>
      <trkpt lat="47.30633" lon="4.92549">
        <ele>417</ele>
        <time>2018-09-23T16:29:17Z</time>
      </trkpt>
      <trkpt lat="47.30635" lon="4.92553">
        <ele>416</ele>
        <time>2018-09-23T16:30:17Z</time>
      </trkpt>
      <trkpt lat="47.30638" lon="4.92565">
        <ele>415</ele>
        <time>2018-09-23T16:31:17Z</time>
      </trkpt>
      <trkpt lat="47.3064" lon="4.9257">
        <ele>414</ele>
        <time>2018-09-23T16:32:17Z</time>
      </trkpt>
      <trkpt lat="47.30643" lon="4.92574">
        <ele>414</ele>
        <time>2018-09-23T16:33:17Z</time>
      </trkpt>
      <trkpt lat="47.30647" lon="4.92578">
        <ele>413</ele>
        <time>2018-09-23T16:34:17Z</time>
      </trkpt>
      <trkpt lat="47.30651" lon="4.92583">
        <ele>412</ele>
        <time>2018-09-23T16:35:17Z</time>
      </trkpt>
      <trkpt lat="47.30659" lon="4.92598">
        <ele>409</ele>
        <time>2018-09-23T16:36:17Z</time>
      </trkpt>
      <trkpt lat="47.30664" lon="4.92606">
        <ele>408</ele>
        <time>2018-09-23T16:37:17Z</time>
      </trkpt>
      <trkpt lat="47.30669" lon="4.92613">
        <ele>406</ele>
        <time>2018-09-23T16:38:17Z</time>
      </trkpt>
      <trkpt lat="47.30675" lon="4.92619">
        <ele>404</ele>
        <time>2018-09-23T16:39:17Z</time>
      </trkpt>
      <trkpt lat="47.3068" lon="4.92624">
        <ele>403</ele>
        <time>2018-09-23T16:40:17Z</time>
      </trkpt>
      <trkpt lat="47.30685" lon="4.92631">
        <ele>401</ele>
        <time>2018-09-23T16:41:17Z</time>
      </trkpt>
      <trkpt lat="47.30689" lon="4.92638">
        <ele>400</ele>
        <time>2018-09-23T16:42:17Z</time>
      </trkpt>
      <trkpt lat="47.30705" lon="4.92659">
        <ele>394</ele>
        <time>2018-09-23T16:43:17Z</time>
      </trkpt>
      <trkpt lat="47.30712" lon="4.92669">
        <ele>391</ele>
        <time>2018-09-23T16:44:17Z</time>
      </trkpt>
      <trkpt lat="47.30721" lon="4.92677">
        <ele>390</ele>
        <time>2018-09-23T16:45:17Z</time>
      </trkpt>
      <trkpt lat="47.30724" lon="4.9268">
        <ele>389</ele>
        <time>2018-09-23T16:46:17Z</time>
      </trkpt>
      <trkpt lat="47.30727" lon="4.9268">
        <ele>389</ele>
        <time>2018-09-23T16:47:17Z</time>
      </trkpt>
      <trkpt lat="47.30734" lon="4.92673">
        <ele>387</ele>
        <time>2018-09-23T16:48:17Z</time>
      </trkpt>
      <trkpt lat="47.30739" lon="4.9267">
        <ele>386</ele>
        <time>2018-09-23T16:49:17Z</time>
      </trkpt>
      <trkpt lat="47.30744" lon="4.92667">
        <ele>385</ele>
        <time>2018-09-23T16:50:17Z</time>
      </trkpt>
      <trkpt lat="47.30765" lon="4.9265">
        <ele>385</ele>
        <time>2018-09-23T16:51:17Z</time>
      </trkpt>
      <trkpt lat="47.3078" lon="4.92638">
        <ele>385</ele>
        <time>2018-09-23T16:52:17Z</time>
      </trkpt>
      <trkpt lat="47.30802" lon="4.92617">
        <ele>383</ele>
        <time>2018-09-23T16:53:17Z</time>
      </trkpt>
      <trkpt lat="47.3081" lon="4.9261">
        <ele>382</ele>
        <time>2018-09-23T16:54:17Z</time>
      </trkpt>
      <trkpt lat="47.3082" lon="4.92599">
        <ele>380</ele>
        <time>2018-09-23T16:55:17Z</time>
      </trkpt>
      <trkpt lat="47.30824" lon="4.92595">
        <ele>379</ele>
        <time>2018-09-23T16:56:17Z</time>
      </trkpt>
      <trkpt lat="47.30838" lon="4.92584">
        <ele>375</ele>
        <time>2018-09-23T16:57:17Z</time>
      </trkpt>
      <trkpt lat="47.30844" lon="4.92578">
        <ele>375</ele>
        <time>2018-09-23T16:58:17Z</time>
      </trkpt>
      <trkpt lat="47.3086" lon="4.92558">
        <ele>376</ele>
        <time>2018-09-23T16:59:17Z</time>
      </trkpt>
      <trkpt lat="47.30867" lon="4.92553">
        <ele>375</ele>
        <time>2018-09-23T17:00:17Z</time>
      </trkpt>
      <trkpt lat="47.30875" lon="4.92551">
        <ele>374</ele>
        <time>2018-09-23T17:01:17Z</time>
      </trkpt>
      <trkpt lat="47.30879" lon="4.92552">
        <ele>373</ele>
        <time>2018-09-23T17:02:17Z</time>
      </trkpt>
      <trkpt lat="47.30884" lon="4.92554">
        <ele>372</ele>
        <time>2018-09-23T17:03:17Z</time>
      </trkpt>
      <trkpt lat="47.30891" lon="4.92557">
        <ele>370</ele>
        <time>2018-09-23T17:04:17Z</time>
      </trkpt>
      <trkpt lat="47.30904" lon="4.92554">
        <ele>368</ele>
        <time>2018-09-23T17:05:17Z</time>
      </trkpt>
      <trkpt lat="47.30909" lon="4.9255">
        <ele>367</ele>
        <time>2018-09-23T17:06:17Z</time>
      </trkpt>
      <trkpt lat="47.30914" lon="4.92534">
        <ele>366</ele>
        <time>2018-09-23T17:07:17Z</time>
      </trkpt>
      <trkpt lat="47.30919" lon="4.92504">
        <ele>365</ele>
        <time>2018-09-23T17:08:17Z</time>
      </trkpt>
      <trkpt lat="47.30924" lon="4.92486">
        <ele>366</ele>
        <time>2018-09-23T17:09:17Z</time>
      </trkpt>
      <trkpt lat="47.30927" lon="4.92478">
        <ele>366</ele>
        <time>2018-09-23T17:10:17Z</time>
      </trkpt>
      <trkpt lat="47.3094" lon="4.92456">
        <ele>365</ele>
        <time>2018-09-23T17:11:17Z</time>
      </trkpt>
      <trkpt lat="47.30944" lon="4.92449">
        <ele>365</ele>
        <time>2018-09-23T17:12:17Z</time>
      </trkpt>
      <trkpt lat="47.30948" lon="4.92444">
        <ele>364</ele>
        <time>2018-09-23T17:13:17Z</time>
      </trkpt>
      <trkpt lat="47.30963" lon="4.92431">
        <ele>360</ele>
        <time>2018-09-23T17:14:17Z</time>
      </trkpt>
      <trkpt lat="47.30968" lon="4.92426">
        <ele>359</ele>
        <time>2018-09-23T17:15:17Z</time>
      </trkpt>
      <trkpt lat="47.3098" lon="4.92417">
        <ele>355</ele>
        <time>2018-09-23T17:16:17Z</time>
      </trkpt>
      <trkpt lat="47.30987" lon="4.92412">
        <ele>352</ele>
        <time>2018-09-23T17:17:17Z</time>
      </trkpt>
      <trkpt lat="47.31003" lon="4.92398">
        <ele>348</ele>
        <time>2018-09-23T17:18:17Z</time>
      </trkpt>
      <trkpt lat="47.31006" lon="4.92392">
        <ele>348</ele>
        <time>2018-09-23T17:19:17Z</time>
      </trkpt>
      <trkpt lat="47.31009" lon="4.92368">
        <ele>347</ele>
        <time>2018-09-23T17:20:17Z</time>
      </trkpt>
      <trkpt lat="47.3101" lon="4.92358">
        <ele>346</ele>
        <time>2018-09-23T17:21:17Z</time>
      </trkpt>
      <trkpt lat="47.31015" lon="4.92337">
        <ele>345</ele>
        <time>2018-09-23T17:22:17Z</time>
      </trkpt>
      <trkpt lat="47.31018" lon="4.92327">
        <ele>345</ele>
        <time>2018-09-23T17:23:17Z</time>
      </trkpt>
      <trkpt lat="47.31035" lon="4.92285">
        <ele>344</ele>
        <time>2018-09-23T17:24:17Z</time>
      </trkpt>
      <trkpt lat="47.31038" lon="4.92277">
        <ele>344</ele>
        <time>2018-09-23T17:25:17Z</time>
      </trkpt>
      <trkpt lat="47.31052" lon="4.92247">
        <ele>342</ele>
        <time>2018-09-23T17:26:17Z</time>
      </trkpt>
      <trkpt lat="47.31056" lon="4.9224">
        <ele>341</ele>
        <time>2018-09-23T17:27:17Z</time>
      </trkpt>
      <trkpt lat="47.31063" lon="4.92214">
        <ele>339</ele>
        <time>2018-09-23T17:28:17Z</time>
      </trkpt>
      <trkpt lat="47.31065" lon="4.92206">
        <ele>339</ele>
        <time>2018-09-23T17:29:17Z</time>
      </trkpt>
      <trkpt lat="47.31075" lon="4.92181">
        <ele>336</ele>
        <time>2018-09-23T17:30:17Z</time>
      </trkpt>
      <trkpt lat="47.31084" lon="4.92163">
        <ele>333</ele>
        <time>2018-09-23T17:31:17Z</time>
      </trkpt>
      <trkpt lat="47.31108" lon="4.92126">
        <ele>335</ele>
        <time>2018-09-23T17:32:17Z</time>
      </trkpt>
      <trkpt lat="47.31138" lon="4.92088">
        <ele>331</ele>
        <time>2018-09-23T17:33:17Z</time>
      </trkpt>
      <trkpt lat="47.31143" lon="4.9208">
        <ele>330</ele>
        <time>2018-09-23T17:34:17Z</time>
      </trkpt>
      <trkpt lat="47.31148" lon="4.92074">
        <ele>330</ele>
        <time>2018-09-23T17:35:17Z</time>
      </trkpt>
      <trkpt lat="47.31153" lon="4.92069">
        <ele>330</ele>
        <time>2018-09-23T17:36:17Z</time>
      </trkpt>
      <trkpt lat="47.31158" lon="4.92064">
        <ele>330</ele>
        <time>2018-09-23T17:37:17Z</time>
      </trkpt>
      <trkpt lat="47.31163" lon="4.92058">
        <ele>329</ele>
        <time>2018-09-23T17:38:17Z</time>
      </trkpt>
      <trkpt lat="47.31172" lon="4.92046">
        <ele>329</ele>
        <time>2018-09-23T17:39:17Z</time>
      </trkpt>
      <trkpt lat="47.31178" lon="4.92042">
        <ele>328</ele>
        <time>2018-09-23T17:40:17Z</time>
      </trkpt>
      <trkpt lat="47.31189" lon="4.92035">
        <ele>326</ele>
        <time>2018-09-23T17:41:17Z</time>
      </trkpt>
      <trkpt lat="47.31195" lon="4.92031">
        <ele>325</ele>
        <time>2018-09-23T17:42:17Z</time>
      </trkpt>
      <trkpt lat="47.31208" lon="4.92022">
        <ele>322</ele>
        <time>2018-09-23T17:43:17Z</time>
      </trkpt>
      <trkpt lat="47.31215" lon="4.92016">
        <ele>320</ele>
        <time>2018-09-23T17:44:17Z</time>
      </trkpt>
      <trkpt lat="47.31228" lon="4.92003">
        <ele>315</ele>
        <time>2018-09-23T17:45:17Z</time>
      </trkpt>
      <trkpt lat="47.31234" lon="4.91995">
        <ele>313</ele>
        <time>2018-09-23T17:46:17Z</time>
      </trkpt>
      <trkpt lat="47.3124" lon="4.91989">
        <ele>311</ele>
        <time>2018-09-23T17:47:17Z</time>
      </trkpt>
      <trkpt lat="47.31248" lon="4.91983">
        <ele>309</ele>
        <time>2018-09-23T17:48:17Z</time>
      </trkpt>
      <trkpt lat="47.31263" lon="4.91968">
        <ele>311</ele>
        <time>2018-09-23T17:49:17Z</time>
      </trkpt>
      <trkpt lat="47.31269" lon="4.91958">
        <ele>312</ele>
        <time>2018-09-23T17:50:17Z</time>
      </trkpt>
      <trkpt lat="47.31274" lon="4.91947">
        <ele>312</ele>
        <time>2018-09-23T17:51:17Z</time>
      </trkpt>
      <trkpt lat="47.31295" lon="4.91874">
        <ele>310</ele>
        <time>2018-09-23T17:52:17Z</time>
      </trkpt>
      <trkpt lat="47.31303" lon="4.91837">
        <ele>308</ele>
        <time>2018-09-23T17:53:17Z</time>
      </trkpt>
      <trkpt lat="47.31304" lon="4.91825">
        <ele>308</ele>
        <time>2018-09-23T17:54:17Z</time>
      </trkpt>
      <trkpt lat="47.31301" lon="4.91773">
        <ele>307</ele>
        <time>2018-09-23T17:55:17Z</time>
      </trkpt>
      <trkpt lat="47.31301" lon="4.9176">
        <ele>307</ele>
        <time>2018-09-23T17:56:17Z</time>
      </trkpt>
      <trkpt lat="47.31302" lon="4.91734">
        <ele>306</ele>
        <time>2018-09-23T17:57:17Z</time>
      </trkpt>
      <trkpt lat="47.31307" lon="4.9171">
        <ele>304</ele>
        <time>2018-09-23T17:58:17Z</time>
      </trkpt>
      <trkpt lat="47.31317" lon="4.91675">
        <ele>301</ele>
        <time>2018-09-23T17:59:17Z</time>
      </trkpt>
      <trkpt lat="47.31321" lon="4.91665">
        <ele>300</ele>
        <time>2018-09-23T18:00:17Z</time>
      </trkpt>
      <trkpt lat="47.31334" lon="4.91635">
        <ele>296</ele>
        <time>2018-09-23T18:01:17Z</time>
      </trkpt>
      <trkpt lat="47.31349" lon="4.91612">
        <ele>295</ele>
        <time>2018-09-23T18:02:17Z</time>
      </trkpt>
      <trkpt lat="47.3136" lon="4.91598">
        <ele>294</ele>
        <time>2018-09-23T18:03:17Z</time>
      </trkpt>
      <trkpt lat="47.31377" lon="4.9158">
        <ele>293</ele>
        <time>2018-09-23T18:04:17Z</time>
      </trkpt>
      <trkpt lat="47.31388" lon="4.91566">
        <ele>292</ele>
        <time>2018-09-23T18:05:17Z</time>
      </trkpt>
      <trkpt lat="47.31392" lon="4.91558">
        <ele>291</ele>
        <time>2018-09-23T18:06:17Z</time>
      </trkpt>
      <trkpt lat="47.31395" lon="4.9155">
        <ele>290</ele>
        <time>2018-09-23T18:07:17Z</time>
      </trkpt>
      <trkpt lat="47.31398" lon="4.91537">
        <ele>288</ele>
        <time>2018-09-23T18:08:17Z</time>
      </trkpt>
      <trkpt lat="47.31398" lon="4.91534">
        <ele>288</ele>
        <time>2018-09-23T18:09:17Z</time>
      </trkpt>
      <trkpt lat="47.3139" lon="4.91529">
        <ele>286</ele>
        <time>2018-09-23T18:10:17Z</time>
      </trkpt>
      <trkpt lat="47.31387" lon="4.91527">
        <ele>286</ele>
        <time>2018-09-23T18:11:17Z</time>
      </trkpt>
      <trkpt lat="47.31382" lon="4.91521">
        <ele>285</ele>
        <time>2018-09-23T18:12:17Z</time>
      </trkpt>
      <trkpt lat="47.31378" lon="4.91512">
        <ele>283</ele>
        <time>2018-09-23T18:13:17Z</time>
      </trkpt>
      <trkpt lat="47.31374" lon="4.91508">
        <ele>283</ele>
        <time>2018-09-23T18:14:17Z</time>
      </trkpt>
      <trkpt lat="47.31364" lon="4.91505">
        <ele>282</ele>
        <time>2018-09-23T18:15:17Z</time>
      </trkpt>
      <trkpt lat="47.31353" lon="4.91499">
        <ele>280</ele>
        <time>2018-09-23T18:16:17Z</time>
      </trkpt>
      <trkpt lat="47.31321" lon="4.91495">
        <ele>280</ele>
        <time>2018-09-23T18:17:17Z</time>
      </trkpt>
      <trkpt lat="47.31304" lon="4.91493">
        <ele>281</ele>
        <time>2018-09-23T18:18:17Z</time>
      </trkpt>
      <trkpt lat="47.31297" lon="4.91496">
        <ele>282</ele>
        <time>2018-09-23T18:19:17Z</time>
      </trkpt>
      <trkpt lat="47.31283" lon="4.91503">
        <ele>285</ele>
        <time>2018-09-23T18:20:17Z</time>
      </trkpt>
      <trkpt lat="47.31279" lon="4.91502">
        <ele>285</ele>
        <time>2018-09-23T18:21:17Z</time>
      </trkpt>
      <trkpt lat="47.31271" lon="4.91502">
        <ele>286</ele>
        <time>2018-09-23T18:22:17Z</time>
      </trkpt>
      <trkpt lat="47.31264" lon="4.91498">
        <ele>286</ele>
        <time>2018-09-23T18:23:17Z</time>
      </trkpt>
      <trkpt lat="47.31252" lon="4.91496">
        <ele>287</ele>
        <time>2018-09-23T18:24:17Z</time>
      </trkpt>
      <trkpt lat="47.31247" lon="4.91497">
        <ele>288</ele>
        <time>2018-09-23T18:25:17Z</time>
      </trkpt>
      <trkpt lat="47.31236" lon="4.91496">
        <ele>290</ele>
        <time>2018-09-23T18:26:17Z</time>
      </trkpt>
      <trkpt lat="47.31231" lon="4.91495">
        <ele>291</ele>
        <time>2018-09-23T18:27:17Z</time>
      </trkpt>
      <trkpt lat="47.31225" lon="4.91492">
        <ele>291</ele>
        <time>2018-09-23T18:28:17Z</time>
      </trkpt>
      <trkpt lat="47.31221" lon="4.91489">
        <ele>291</ele>
        <time>2018-09-23T18:29:17Z</time>
      </trkpt>
      <trkpt lat="47.31219" lon="4.91486">
        <ele>291</ele>
        <time>2018-09-23T18:30:17Z</time>
      </trkpt>
      <trkpt lat="47.31216" lon="4.91483">
        <ele>291</ele>
        <time>2018-09-23T18:31:17Z</time>
      </trkpt>
      <trkpt lat="47.31209" lon="4.91479">
        <ele>292</ele>
        <time>2018-09-23T18:32:17Z</time>
      </trkpt>
      <trkpt lat="47.31197" lon="4.91471">
        <ele>292</ele>
        <time>2018-09-23T18:33:17Z</time>
      </trkpt>
      <trkpt lat="47.31188" lon="4.91457">
        <ele>291</ele>
        <time>2018-09-23T18:34:17Z</time>
      </trkpt>
      <trkpt lat="47.31176" lon="4.91451">
        <ele>292</ele>
        <time>2018-09-23T18:35:17Z</time>
      </trkpt>
      <trkpt lat="47.31172" lon="4.91451">
        <ele>293</ele>
        <time>2018-09-23T18:36:17Z</time>
      </trkpt>
      <trkpt lat="47.31168" lon="4.91451">
        <ele>293</ele>
        <time>2018-09-23T18:37:17Z</time>
      </trkpt>
      <trkpt lat="47.3116" lon="4.91449">
        <ele>294</ele>
        <time>2018-09-23T18:38:17Z</time>
      </trkpt>
      <trkpt lat="47.31156" lon="4.91448">
        <ele>294</ele>
        <time>2018-09-23T18:39:17Z</time>
      </trkpt>
      <trkpt lat="47.31154" lon="4.91447">
        <ele>294</ele>
        <time>2018-09-23T18:40:17Z</time>
      </trkpt>
      <trkpt lat="47.31146" lon="4.9144">
        <ele>293</ele>
        <time>2018-09-23T18:41:17Z</time>
      </trkpt>
      <trkpt lat="47.31129" lon="4.91432">
        <ele>294</ele>
        <time>2018-09-23T18:42:17Z</time>
      </trkpt>
      <trkpt lat="47.31126" lon="4.91431">
        <ele>294</ele>
        <time>2018-09-23T18:43:17Z</time>
      </trkpt>
      <trkpt lat="47.31114" lon="4.91428">
        <ele>295</ele>
        <time>2018-09-23T18:44:17Z</time>
      </trkpt>
      <trkpt lat="47.31103" lon="4.91427">
        <ele>297</ele>
        <time>2018-09-23T18:45:17Z</time>
      </trkpt>
      <trkpt lat="47.31095" lon="4.91425">
        <ele>297</ele>
        <time>2018-09-23T18:46:17Z</time>
      </trkpt>
      <trkpt lat="47.31093" lon="4.91421">
        <ele>297</ele>
        <time>2018-09-23T18:47:17Z</time>
      </trkpt>
      <trkpt lat="47.31087" lon="4.91414">
        <ele>297</ele>
        <time>2018-09-23T18:48:17Z</time>
      </trkpt>
      <trkpt lat="47.31081" lon="4.91401">
        <ele>296</ele>
        <time>2018-09-23T18:49:17Z</time>
      </trkpt>
      <trkpt lat="47.31077" lon="4.91388">
        <ele>295</ele>
        <time>2018-09-23T18:50:17Z</time>
      </trkpt>
      <trkpt lat="47.31076" lon="4.91387">
        <ele>296</ele>
        <time>2018-09-23T18:51:17Z</time>
      </trkpt>
      <trkpt lat="47.31074" lon="4.91385">
        <ele>296</ele>
        <time>2018-09-23T18:52:17Z</time>
      </trkpt>
      <trkpt lat="47.3106" lon="4.91376">
        <ele>296</ele>
        <time>2018-09-23T18:53:17Z</time>
      </trkpt>
      <trkpt lat="47.31055" lon="4.91372">
        <ele>297</ele>
        <time>2018-09-23T18:54:17Z</time>
      </trkpt>
      <trkpt lat="47.31043" lon="4.91358">
        <ele>297</ele>
        <time>2018-09-23T18:55:17Z</time>
      </trkpt>
      <trkpt lat="47.31036" lon="4.91345">
        <ele>296</ele>
        <time>2018-09-23T18:56:17Z</time>
      </trkpt>
      <trkpt lat="47.31033" lon="4.91341">
        <ele>296</ele>
        <time>2018-09-23T18:57:17Z</time>
      </trkpt>
      <trkpt lat="47.31029" lon="4.91338">
        <ele>296</ele>
        <time>2018-09-23T18:58:17Z</time>
      </trkpt>
      <trkpt lat="47.31016" lon="4.91327">
        <ele>296</ele>
        <time>2018-09-23T18:59:17Z</time>
      </trkpt>
      <trkpt lat="47.31007" lon="4.91313">
        <ele>295</ele>
        <time>2018-09-23T19:00:17Z</time>
      </trkpt>
      <trkpt lat="47.31005" lon="4.91308">
        <ele>294</ele>
        <time>2018-09-23T19:01:17Z</time>
      </trkpt>
      <trkpt lat="47.30999" lon="4.91299">
        <ele>293</ele>
        <time>2018-09-23T19:02:17Z</time>
      </trkpt>
      <trkpt lat="47.30996" lon="4.91294">
        <ele>293</ele>
        <time>2018-09-23T19:03:17Z</time>
      </trkpt>
      <trkpt lat="47.30992" lon="4.91292">
        <ele>293</ele>
        <time>2018-09-23T19:04:17Z</time>
      </trkpt>
      <trkpt lat="47.30985" lon="4.91288">
        <ele>292</ele>
        <time>2018-09-23T19:05:17Z</time>
      </trkpt>
      <trkpt lat="47.30978" lon="4.91285">
        <ele>292</ele>
        <time>2018-09-23T19:06:17Z</time>
      </trkpt>
      <trkpt lat="47.30971" lon="4.91283">
        <ele>293</ele>
        <time>2018-09-23T19:07:17Z</time>
      </trkpt>
      <trkpt lat="47.30964" lon="4.91284">
        <ele>293</ele>
        <time>2018-09-23T19:08:17Z</time>
      </trkpt>
      <trkpt lat="47.3095" lon="4.91286">
        <ele>295</ele>
        <time>2018-09-23T19:09:17Z</time>
      </trkpt>
      <trkpt lat="47.30938" lon="4.91286">
        <ele>295</ele>
        <time>2018-09-23T19:10:17Z</time>
      </trkpt>
      <trkpt lat="47.30925" lon="4.91289">
        <ele>297</ele>
        <time>2018-09-23T19:11:17Z</time>
      </trkpt>
      <trkpt lat="47.30914" lon="4.91284">
        <ele>297</ele>
        <time>2018-09-23T19:12:17Z</time>
      </trkpt>
      <trkpt lat="47.30904" lon="4.91279">
        <ele>296</ele>
        <time>2018-09-23T19:13:17Z</time>
      </trkpt>
      <trkpt lat="47.30892" lon="4.91285">
        <ele>298</ele>
        <time>2018-09-23T19:14:17Z</time>
      </trkpt>
      <trkpt lat="47.30876" lon="4.91288">
        <ele>299</ele>
        <time>2018-09-23T19:15:17Z</time>
      </trkpt>
      <trkpt lat="47.30872" lon="4.91287">
        <ele>299</ele>
        <time>2018-09-23T19:16:17Z</time>
      </trkpt>
      <trkpt lat="47.30863" lon="4.91286">
        <ele>299</ele>
        <time>2018-09-23T19:17:17Z</time>
      </trkpt>
      <trkpt lat="47.3086" lon="4.91287">
        <ele>299</ele>
        <time>2018-09-23T19:18:17Z</time>
      </trkpt>
      <trkpt lat="47.30851" lon="4.91291">
        <ele>300</ele>
        <time>2018-09-23T19:19:17Z</time>
      </trkpt>
      <trkpt lat="47.30847" lon="4.91293">
        <ele>300</ele>
        <time>2018-09-23T19:20:17Z</time>
      </trkpt>
      <trkpt lat="47.30835" lon="4.91295">
        <ele>301</ele>
        <time>2018-09-23T19:21:17Z</time>
      </trkpt>
      <trkpt lat="47.30825" lon="4.91294">
        <ele>301</ele>
        <time>2018-09-23T19:22:17Z</time>
      </trkpt>
      <trkpt lat="47.30811" lon="4.91296">
        <ele>302</ele>
        <time>2018-09-23T19:23:17Z</time>
      </trkpt>
      <trkpt lat="47.30799" lon="4.91301">
        <ele>303</ele>
        <time>2018-09-23T19:24:17Z</time>
      </trkpt>
      <trkpt lat="47.30786" lon="4.91302">
        <ele>303</ele>
        <time>2018-09-23T19:25:17Z</time>
      </trkpt>
      <trkpt lat="47.30782" lon="4.91301">
        <ele>303</ele>
        <time>2018-09-23T19:26:17Z</time>
      </trkpt>
      <trkpt lat="47.30767" lon="4.91295">
        <ele>302</ele>
        <time>2018-09-23T19:27:17Z</time>
      </trkpt>
      <trkpt lat="47.30754" lon="4.91288">
        <ele>301</ele>
        <time>2018-09-23T19:28:17Z</time>
      </trkpt>
      <trkpt lat="47.30738" lon="4.91286">
        <ele>302</ele>
        <time>2018-09-23T19:29:17Z</time>
      </trkpt>
      <trkpt lat="47.30724" lon="4.91283">
        <ele>302</ele>
        <time>2018-09-23T19:30:17Z</time>
      </trkpt>
      <trkpt lat="47.30717" lon="4.9128">
        <ele>302</ele>
        <time>2018-09-23T19:31:17Z</time>
      </trkpt>
      <trkpt lat="47.30712" lon="4.91275">
        <ele>302</ele>
        <time>2018-09-23T19:32:17Z</time>
      </trkpt>
      <trkpt lat="47.30706" lon="4.9127">
        <ele>301</ele>
        <time>2018-09-23T19:33:17Z</time>
      </trkpt>
      <trkpt lat="47.30702" lon="4.91268">
        <ele>301</ele>
        <time>2018-09-23T19:34:17Z</time>
      </trkpt>
      <trkpt lat="47.30691" lon="4.91261">
        <ele>301</ele>
        <time>2018-09-23T19:35:17Z</time>
      </trkpt>
      <trkpt lat="47.30672" lon="4.91254">
        <ele>302</ele>
        <time>2018-09-23T19:36:17Z</time>
      </trkpt>
      <trkpt lat="47.30661" lon="4.9125">
        <ele>302</ele>
        <time>2018-09-23T19:37:17Z</time>
      </trkpt>
      <trkpt lat="47.30658" lon="4.91248">
        <ele>302</ele>
        <time>2018-09-23T19:38:17Z</time>
      </trkpt>
      <trkpt lat="47.30652" lon="4.91242">
        <ele>302</ele>
        <time>2018-09-23T19:39:17Z</time>
      </trkpt>
      <trkpt lat="47.30647" lon="4.91241">
        <ele>302</ele>
        <time>2018-09-23T19:40:17Z</time>
      </trkpt>
      <trkpt lat="47.3064" lon="4.91238">
        <ele>302</ele>
        <time>2018-09-23T19:41:17Z</time>
      </trkpt>
      <trkpt lat="47.30634" lon="4.91234">
        <ele>302</ele>
        <time>2018-09-23T19:42:17Z</time>
      </trkpt>
      <trkpt lat="47.30622" lon="4.91234">
        <ele>302</ele>
        <time>2018-09-23T19:43:17Z</time>
      </trkpt>
      <trkpt lat="47.3061" lon="4.91237">
        <ele>302</ele>
        <time>2018-09-23T19:44:17Z</time>
      </trkpt>
      <trkpt lat="47.30605" lon="4.91242">
        <ele>301</ele>
        <time>2018-09-23T19:45:17Z</time>
      </trkpt>
      <trkpt lat="47.30604" lon="4.91246">
        <ele>301</ele>
        <time>2018-09-23T19:46:17Z</time>
      </trkpt>
      <trkpt lat="47.30604" lon="4.91265">
        <ele>302</ele>
        <time>2018-09-23T19:47:17Z</time>
      </trkpt>
      <trkpt lat="47.30604" lon="4.91271">
        <ele>302</ele>
        <time>2018-09-23T19:48:17Z</time>
      </trkpt>
      <trkpt lat="47.30609" lon="4.91279">
        <ele>303</ele>
        <time>2018-09-23T19:49:17Z</time>
      </trkpt>
      <trkpt lat="47.30611" lon="4.91284">
        <ele>303</ele>
        <time>2018-09-23T19:50:17Z</time>
      </trkpt>
      <trkpt lat="47.30614" lon="4.91289">
        <ele>303</ele>
        <time>2018-09-23T19:51:17Z</time>
      </trkpt>
      <trkpt lat="47.30616" lon="4.91295">
        <ele>304</ele>
        <time>2018-09-23T19:52:17Z</time>
      </trkpt>
      <trkpt lat="47.30616" lon="4.91299">
        <ele>304</ele>
        <time>2018-09-23T19:53:17Z</time>
      </trkpt>
      <trkpt lat="47.30617" lon="4.9131">
        <ele>305</ele>
        <time>2018-09-23T19:54:17Z</time>
      </trkpt>
      <trkpt lat="47.30622" lon="4.9133">
        <ele>306</ele>
        <time>2018-09-23T19:55:17Z</time>
      </trkpt>
      <trkpt lat="47.30623" lon="4.91337">
        <ele>307</ele>
        <time>2018-09-23T19:56:17Z</time>
      </trkpt>
      <trkpt lat="47.30623" lon="4.91359">
        <ele>309</ele>
        <time>2018-09-23T19:57:17Z</time>
      </trkpt>
      <trkpt lat="47.30617" lon="4.91379">
        <ele>310</ele>
        <time>2018-09-23T19:58:17Z</time>
      </trkpt>
      <trkpt lat="47.30613" lon="4.91392">
        <ele>311</ele>
        <time>2018-09-23T19:59:17Z</time>
      </trkpt>
      <trkpt lat="47.30605" lon="4.91405">
        <ele>311</ele>
        <time>2018-09-23T20:00:17Z</time>
      </trkpt>
      <trkpt lat="47.30588" lon="4.91428">
        <ele>310</ele>
        <time>2018-09-23T20:01:17Z</time>
      </trkpt>
      <trkpt lat="47.30584" lon="4.91432">
        <ele>310</ele>
        <time>2018-09-23T20:02:17Z</time>
      </trkpt>
      <trkpt lat="47.30579" lon="4.91435">
        <ele>310</ele>
        <time>2018-09-23T20:03:17Z</time>
      </trkpt>
      <trkpt lat="47.30559" lon="4.91447">
        <ele>312</ele>
        <time>2018-09-23T20:04:17Z</time>
      </trkpt>
      <trkpt lat="47.30554" lon="4.91449">
        <ele>312</ele>
        <time>2018-09-23T20:05:17Z</time>
      </trkpt>
      <trkpt lat="47.30541" lon="4.9145">
        <ele>312</ele>
        <time>2018-09-23T20:06:17Z</time>
      </trkpt>
      <trkpt lat="47.30525" lon="4.91458">
        <ele>313</ele>
        <time>2018-09-23T20:07:17Z</time>
      </trkpt>
      <trkpt lat="47.30523" lon="4.91462">
        <ele>313</ele>
        <time>2018-09-23T20:08:17Z</time>
      </trkpt>
      <trkpt lat="47.30518" lon="4.91473">
        <ele>313</ele>
        <time>2018-09-23T20:09:17Z</time>
      </trkpt>
      <trkpt lat="47.30512" lon="4.91476">
        <ele>313</ele>
        <time>2018-09-23T20:10:17Z</time>
      </trkpt>
      <trkpt lat="47.30504" lon="4.91475">
        <ele>313</ele>
        <time>2018-09-23T20:11:17Z</time>
      </trkpt>
      <trkpt lat="47.30499" lon="4.91476">
        <ele>312</ele>
        <time>2018-09-23T20:12:17Z</time>
      </trkpt>
      <trkpt lat="47.30489" lon="4.91478">
        <ele>312</ele>
        <time>2018-09-23T20:13:17Z</time>
      </trkpt>
      <trkpt lat="47.30475" lon="4.91478">
        <ele>312</ele>
        <time>2018-09-23T20:14:17Z</time>
      </trkpt>
      <trkpt lat="47.30464" lon="4.9148">
        <ele>312</ele>
        <time>2018-09-23T20:15:17Z</time>
      </trkpt>
      <trkpt lat="47.30444" lon="4.91487">
        <ele>311</ele>
        <time>2018-09-23T20:16:17Z</time>
      </trkpt>
      <trkpt lat="47.30433" lon="4.9149">
        <ele>311</ele>
        <time>2018-09-23T20:17:17Z</time>
      </trkpt>
      <trkpt lat="47.30429" lon="4.9149">
        <ele>311</ele>
        <time>2018-09-23T20:18:17Z</time>
      </trkpt>
      <trkpt lat="47.30416" lon="4.91492">
        <ele>310</ele>
        <time>2018-09-23T20:19:17Z</time>
      </trkpt>
      <trkpt lat="47.30404" lon="4.91498">
        <ele>311</ele>
        <time>2018-09-23T20:20:17Z</time>
      </trkpt>
      <trkpt lat="47.30392" lon="4.91502">
        <ele>312</ele>
        <time>2018-09-23T20:21:17Z</time>
      </trkpt>
      <trkpt lat="47.30379" lon="4.91506">
        <ele>313</ele>
        <time>2018-09-23T20:22:17Z</time>
      </trkpt>
      <trkpt lat="47.30375" lon="4.91506">
        <ele>313</ele>
        <time>2018-09-23T20:23:17Z</time>
      </trkpt>
      <trkpt lat="47.30362" lon="4.91509">
        <ele>314</ele>
        <time>2018-09-23T20:24:17Z</time>
      </trkpt>
      <trkpt lat="47.30349" lon="4.91515">
        <ele>315</ele>
        <time>2018-09-23T20:25:17Z</time>
      </trkpt>
      <trkpt lat="47.30333" lon="4.9152">
        <ele>316</ele>
        <time>2018-09-23T20:26:17Z</time>
      </trkpt>
      <trkpt lat="47.30329" lon="4.91521">
        <ele>316</ele>
        <time>2018-09-23T20:27:17Z</time>
      </trkpt>
      <trkpt lat="47.30318" lon="4.91528">
        <ele>316</ele>
        <time>2018-09-23T20:28:17Z</time>
      </trkpt>
      <trkpt lat="47.30303" lon="4.91534">
        <ele>316</ele>
        <time>2018-09-23T20:29:17Z</time>
      </trkpt>
      <trkpt lat="47.30296" lon="4.91538">
        <ele>316</ele>
        <time>2018-09-23T20:30:17Z</time>
      </trkpt>
      <trkpt lat="47.30263" lon="4.91546">
        <ele>315</ele>
        <time>2018-09-23T20:31:17Z</time>
      </trkpt>
      <trkpt lat="47.30252" lon="4.91549">
        <ele>315</ele>
        <time>2018-09-23T20:32:17Z</time>
      </trkpt>
      <trkpt lat="47.30245" lon="4.9155">
        <ele>315</ele>
        <time>2018-09-23T20:33:17Z</time>
      </trkpt>
      <trkpt lat="47.30229" lon="4.91552">
        <ele>315</ele>
        <time>2018-09-23T20:34:17Z</time>
      </trkpt>
      <trkpt lat="47.30222" lon="4.91551">
        <ele>315</ele>
        <time>2018-09-23T20:35:17Z</time>
      </trkpt>
      <trkpt lat="47.30205" lon="4.91553">
        <ele>316</ele>
        <time>2018-09-23T20:36:17Z</time>
      </trkpt>
      <trkpt lat="47.30188" lon="4.91549">
        <ele>317</ele>
        <time>2018-09-23T20:37:17Z</time>
      </trkpt>
      <trkpt lat="47.30173" lon="4.91547">
        <ele>317</ele>
        <time>2018-09-23T20:38:17Z</time>
      </trkpt>
      <trkpt lat="47.30158" lon="4.91548">
        <ele>318</ele>
        <time>2018-09-23T20:39:17Z</time>
      </trkpt>
      <trkpt lat="47.30154" lon="4.91548">
        <ele>318</ele>
        <time>2018-09-23T20:40:17Z</time>
      </trkpt>
      <trkpt lat="47.30144" lon="4.91549">
        <ele>318</ele>
        <time>2018-09-23T20:41:17Z</time>
      </trkpt>
      <trkpt lat="47.30138" lon="4.91548">
        <ele>318</ele>
        <time>2018-09-23T20:42:17Z</time>
      </trkpt>
      <trkpt lat="47.30127" lon="4.91546">
        <ele>319</ele>
        <time>2018-09-23T20:43:17Z</time>
      </trkpt>
      <trkpt lat="47.30105" lon="4.9154">
        <ele>319</ele>
        <time>2018-09-23T20:44:17Z</time>
      </trkpt>
      <trkpt lat="47.30085" lon="4.91537">
        <ele>319</ele>
        <time>2018-09-23T20:45:17Z</time>
      </trkpt>
      <trkpt lat="47.30059" lon="4.91531">
        <ele>320</ele>
        <time>2018-09-23T20:46:17Z</time>
      </trkpt>
      <trkpt lat="47.30041" lon="4.91526">
        <ele>320</ele>
        <time>2018-09-23T20:47:17Z</time>
      </trkpt>
      <trkpt lat="47.30027" lon="4.91523">
        <ele>320</ele>
        <time>2018-09-23T20:48:17Z</time>
      </trkpt>
      <trkpt lat="47.30022" lon="4.91522">
        <ele>319</ele>
        <time>2018-09-23T20:49:17Z</time>
      </trkpt>
      <trkpt lat="47.30013" lon="4.91518">
        <ele>319</ele>
        <time>2018-09-23T20:50:17Z</time>
      </trkpt>
      <trkpt lat="47.30005" lon="4.91514">
        <ele>318</ele>
        <time>2018-09-23T20:51:17Z</time>
      </trkpt>
      <trkpt lat="47.29991" lon="4.91508">
        <ele>318</ele>
        <time>2018-09-23T20:52:17Z</time>
      </trkpt>
      <trkpt lat="47.29976" lon="4.915">
        <ele>318</ele>
        <time>2018-09-23T20:53:17Z</time>
      </trkpt>
      <trkpt lat="47.29969" lon="4.91496">
        <ele>319</ele>
        <time>2018-09-23T20:54:17Z</time>
      </trkpt>
      <trkpt lat="47.2996" lon="4.91495">
        <ele>320</ele>
        <time>2018-09-23T20:55:17Z</time>
      </trkpt>
      <trkpt lat="47.29951" lon="4.9149">
        <ele>321</ele>
        <time>2018-09-23T20:56:17Z</time>
      </trkpt>
      <trkpt lat="47.29943" lon="4.91483">
        <ele>322</ele>
        <time>2018-09-23T20:57:17Z</time>
      </trkpt>
      <trkpt lat="47.29931" lon="4.91475">
        <ele>322</ele>
        <time>2018-09-23T20:58:17Z</time>
      </trkpt>
      <trkpt lat="47.29926" lon="4.91471">
        <ele>322</ele>
        <time>2018-09-23T20:59:17Z</time>
      </trkpt>
      <trkpt lat="47.29918" lon="4.91465">
        <ele>322</ele>
        <time>2018-09-23T21:00:17Z</time>
      </trkpt>
      <trkpt lat="47.29908" lon="4.91463">
        <ele>323</ele>
        <time>2018-09-23T21:01:17Z</time>
      </trkpt>
      <trkpt lat="47.299" lon="4.9146">
        <ele>323</ele>
        <time>2018-09-23T21:02:17Z</time>
      </trkpt>
      <trkpt lat="47.29886" lon="4.91454">
        <ele>323</ele>
        <time>2018-09-23T21:03:17Z</time>
      </trkpt>
      <trkpt lat="47.29872" lon="4.91449">
        <ele>323</ele>
        <time>2018-09-23T21:04:17Z</time>
      </trkpt>
      <trkpt lat="47.29868" lon="4.91447">
        <ele>323</ele>
        <time>2018-09-23T21:05:17Z</time>
      </trkpt>
      <trkpt lat="47.29859" lon="4.91447">
        <ele>324</ele>
        <time>2018-09-23T21:06:17Z</time>
      </trkpt>
      <trkpt lat="47.29855" lon="4.91445">
        <ele>324</ele>
        <time>2018-09-23T21:07:17Z</time>
      </trkpt>
      <trkpt lat="47.29842" lon="4.91439">
        <ele>323</ele>
        <time>2018-09-23T21:08:17Z</time>
      </trkpt>
      <trkpt lat="47.29837" lon="4.91436">
        <ele>323</ele>
        <time>2018-09-23T21:09:17Z</time>
      </trkpt>
      <trkpt lat="47.29821" lon="4.91431">
        <ele>324</ele>
        <time>2018-09-23T21:10:17Z</time>
      </trkpt>
      <trkpt lat="47.2981" lon="4.91427">
        <ele>324</ele>
        <time>2018-09-23T21:11:17Z</time>
      </trkpt>
      <trkpt lat="47.29782" lon="4.91407">
        <ele>327</ele>
        <time>2018-09-23T21:12:17Z</time>
      </trkpt>
      <trkpt lat="47.29769" lon="4.91398">
        <ele>328</ele>
        <time>2018-09-23T21:13:17Z</time>
      </trkpt>
      <trkpt lat="47.29748" lon="4.91381">
        <ele>330</ele>
        <time>2018-09-23T21:14:17Z</time>
      </trkpt>
      <trkpt lat="47.2973" lon="4.91367">
        <ele>330</ele>
        <time>2018-09-23T21:15:17Z</time>
      </trkpt>
      <trkpt lat="47.29726" lon="4.91365">
        <ele>330</ele>
        <time>2018-09-23T21:16:17Z</time>
      </trkpt>
      <trkpt lat="47.29704" lon="4.91353">
        <ele>330</ele>
        <time>2018-09-23T21:17:17Z</time>
      </trkpt>
      <trkpt lat="47.29693" lon="4.91346">
        <ele>329</ele>
        <time>2018-09-23T21:18:17Z</time>
      </trkpt>
      <trkpt lat="47.29684" lon="4.91338">
        <ele>328</ele>
        <time>2018-09-23T21:19:17Z</time>
      </trkpt>
      <trkpt lat="47.29679" lon="4.91326">
        <ele>329</ele>
        <time>2018-09-23T21:20:17Z</time>
      </trkpt>
      <trkpt lat="47.29671" lon="4.91308">
        <ele>331</ele>
        <time>2018-09-23T21:21:17Z</time>
      </trkpt>
      <trkpt lat="47.2966" lon="4.91299">
        <ele>332</ele>
        <time>2018-09-23T21:22:17Z</time>
      </trkpt>
      <trkpt lat="47.29659" lon="4.91298">
        <ele>332</ele>
        <time>2018-09-23T21:23:17Z</time>
      </trkpt>
      <trkpt lat="47.29646" lon="4.91299">
        <ele>332</ele>
        <time>2018-09-23T21:24:17Z</time>
      </trkpt>
      <trkpt lat="47.29642" lon="4.91299">
        <ele>332</ele>
        <time>2018-09-23T21:25:17Z</time>
      </trkpt>
      <trkpt lat="47.29628" lon="4.91293">
        <ele>333</ele>
        <time>2018-09-23T21:26:17Z</time>
      </trkpt>
      <trkpt lat="47.29626" lon="4.91293">
        <ele>333</ele>
        <time>2018-09-23T21:27:17Z</time>
      </trkpt>
      <trkpt lat="47.29623" lon="4.91292">
        <ele>333</ele>
        <time>2018-09-23T21:28:17Z</time>
      </trkpt>
      <trkpt lat="47.29621" lon="4.91288">
        <ele>334</ele>
        <time>2018-09-23T21:29:17Z</time>
      </trkpt>
      <trkpt lat="47.29604" lon="4.91286">
        <ele>334</ele>
        <time>2018-09-23T21:30:17Z</time>
      </trkpt>
      <trkpt lat="47.29597" lon="4.91283">
        <ele>334</ele>
        <time>2018-09-23T21:31:17Z</time>
      </trkpt>
      <trkpt lat="47.29594" lon="4.91283">
        <ele>334</ele>
        <time>2018-09-23T21:32:17Z</time>
      </trkpt>
      <trkpt lat="47.29588" lon="4.91288">
        <ele>334</ele>
        <time>2018-09-23T21:33:17Z</time>
      </trkpt>
      <trkpt lat="47.29573" lon="4.91286">
        <ele>334</ele>
        <time>2018-09-23T21:34:17Z</time>
      </trkpt>
      <trkpt lat="47.29564" lon="4.91284">
        <ele>335</ele>
        <time>2018-09-23T21:35:17Z</time>
      </trkpt>
      <trkpt lat="47.29543" lon="4.91273">
        <ele>335</ele>
        <time>2018-09-23T21:36:17Z</time>
      </trkpt>
      <trkpt lat="47.29529" lon="4.91264">
        <ele>334</ele>
        <time>2018-09-23T21:37:17Z</time>
      </trkpt>
      <trkpt lat="47.29501" lon="4.91258">
        <ele>334</ele>
        <time>2018-09-23T21:38:17Z</time>
      </trkpt>
      <trkpt lat="47.29488" lon="4.91256">
        <ele>334</ele>
        <time>2018-09-23T21:39:17Z</time>
      </trkpt>
      <trkpt lat="47.29464" lon="4.91255">
        <ele>334</ele>
        <time>2018-09-23T21:40:17Z</time>
      </trkpt>
      <trkpt lat="47.29446" lon="4.91253">
        <ele>335</ele>
        <time>2018-09-23T21:41:17Z</time>
      </trkpt>
      <trkpt lat="47.29438" lon="4.91251">
        <ele>335</ele>
        <time>2018-09-23T21:42:17Z</time>
      </trkpt>
      <trkpt lat="47.2943" lon="4.91243">
        <ele>336</ele>
        <time>2018-09-23T21:43:17Z</time>
      </trkpt>
      <trkpt lat="47.29425" lon="4.9124">
        <ele>337</ele>
        <time>2018-09-23T21:44:17Z</time>
      </trkpt>
      <trkpt lat="47.29423" lon="4.91241">
        <ele>337</ele>
        <time>2018-09-23T21:45:17Z</time>
      </trkpt>
      <trkpt lat="47.29416" lon="4.91244">
        <ele>336</ele>
        <time>2018-09-23T21:46:17Z</time>
      </trkpt>
      <trkpt lat="47.29398" lon="4.91242">
        <ele>338</ele>
        <time>2018-09-23T21:47:17Z</time>
      </trkpt>
      <trkpt lat="47.29387" lon="4.91241">
        <ele>338</ele>
        <time>2018-09-23T21:48:17Z</time>
      </trkpt>
      <trkpt lat="47.29383" lon="4.91239">
        <ele>339</ele>
        <time>2018-09-23T21:49:17Z</time>
      </trkpt>
      <trkpt lat="47.29379" lon="4.91236">
        <ele>340</ele>
        <time>2018-09-23T21:50:17Z</time>
      </trkpt>
      <trkpt lat="47.29376" lon="4.91236">
        <ele>340</ele>
        <time>2018-09-23T21:51:17Z</time>
      </trkpt>
      <trkpt lat="47.29368" lon="4.91235">
        <ele>340</ele>
        <time>2018-09-23T21:52:17Z</time>
      </trkpt>
      <trkpt lat="47.29347" lon="4.91226">
        <ele>342</ele>
        <time>2018-09-23T21:53:17Z</time>
      </trkpt>
      <trkpt lat="47.29324" lon="4.91219">
        <ele>343</ele>
        <time>2018-09-23T21:54:17Z</time>
      </trkpt>
      <trkpt lat="47.29314" lon="4.91215">
        <ele>344</ele>
        <time>2018-09-23T21:55:17Z</time>
      </trkpt>
      <trkpt lat="47.29298" lon="4.91212">
        <ele>344</ele>
        <time>2018-09-23T21:56:17Z</time>
      </trkpt>
      <trkpt lat="47.29278" lon="4.91207">
        <ele>344</ele>
        <time>2018-09-23T21:57:17Z</time>
      </trkpt>
      <trkpt lat="47.29264" lon="4.91198">
        <ele>344</ele>
        <time>2018-09-23T21:58:17Z</time>
      </trkpt>
      <trkpt lat="47.29261" lon="4.91195">
        <ele>344</ele>
        <time>2018-09-23T21:59:17Z</time>
      </trkpt>
      <trkpt lat="47.29257" lon="4.91192">
        <ele>343</ele>
        <time>2018-09-23T22:00:17Z</time>
      </trkpt>
      <trkpt lat="47.29251" lon="4.91192">
        <ele>343</ele>
        <time>2018-09-23T22:01:17Z</time>
      </trkpt>
      <trkpt lat="47.29235" lon="4.9119">
        <ele>344</ele>
        <time>2018-09-23T22:02:17Z</time>
      </trkpt>
      <trkpt lat="47.29215" lon="4.91179">
        <ele>343</ele>
        <time>2018-09-23T22:03:17Z</time>
      </trkpt>
      <trkpt lat="47.29201" lon="4.91172">
        <ele>343</ele>
        <time>2018-09-23T22:04:17Z</time>
      </trkpt>
      <trkpt lat="47.29183" lon="4.91165">
        <ele>342</ele>
        <time>2018-09-23T22:05:17Z</time>
      </trkpt>
      <trkpt lat="47.29178" lon="4.91162">
        <ele>343</ele>
        <time>2018-09-23T22:06:17Z</time>
      </trkpt>
      <trkpt lat="47.29157" lon="4.91152">
        <ele>345</ele>
        <time>2018-09-23T22:07:17Z</time>
      </trkpt>
      <trkpt lat="47.29138" lon="4.91146">
        <ele>346</ele>
        <time>2018-09-23T22:08:17Z</time>
      </trkpt>
      <trkpt lat="47.29123" lon="4.91143">
        <ele>347</ele>
        <time>2018-09-23T22:09:17Z</time>
      </trkpt>
      <trkpt lat="47.29096" lon="4.91129">
        <ele>348</ele>
        <time>2018-09-23T22:10:17Z</time>
      </trkpt>
      <trkpt lat="47.29084" lon="4.91125">
        <ele>348</ele>
        <time>2018-09-23T22:11:17Z</time>
      </trkpt>
      <trkpt lat="47.2907" lon="4.91116">
        <ele>348</ele>
        <time>2018-09-23T22:12:17Z</time>
      </trkpt>
      <trkpt lat="47.29062" lon="4.91112">
        <ele>348</ele>
        <time>2018-09-23T22:13:17Z</time>
      </trkpt>
      <trkpt lat="47.29046" lon="4.91106">
        <ele>347</ele>
        <time>2018-09-23T22:14:17Z</time>
      </trkpt>
      <trkpt lat="47.29037" lon="4.91102">
        <ele>347</ele>
        <time>2018-09-23T22:15:17Z</time>
      </trkpt>
      <trkpt lat="47.29032" lon="4.91101">
        <ele>347</ele>
        <time>2018-09-23T22:16:17Z</time>
      </trkpt>
      <trkpt lat="47.29017" lon="4.91095">
        <ele>346</ele>
        <time>2018-09-23T22:17:17Z</time>
      </trkpt>
      <trkpt lat="47.28996" lon="4.91094">
        <ele>346</ele>
        <time>2018-09-23T22:18:17Z</time>
      </trkpt>
      <trkpt lat="47.28987" lon="4.91094">
        <ele>346</ele>
        <time>2018-09-23T22:19:17Z</time>
      </trkpt>
      <trkpt lat="47.28975" lon="4.91096">
        <ele>346</ele>
        <time>2018-09-23T22:20:17Z</time>
      </trkpt>
      <trkpt lat="47.28969" lon="4.91099">
        <ele>347</ele>
        <time>2018-09-23T22:21:17Z</time>
      </trkpt>
      <trkpt lat="47.28959" lon="4.91108">
        <ele>348</ele>
        <time>2018-09-23T22:22:17Z</time>
      </trkpt>
      <trkpt lat="47.28952" lon="4.91123">
        <ele>348</ele>
        <time>2018-09-23T22:23:17Z</time>
      </trkpt>
      <trkpt lat="47.28948" lon="4.91127">
        <ele>349</ele>
        <time>2018-09-23T22:24:17Z</time>
      </trkpt>
      <trkpt lat="47.28943" lon="4.91128">
        <ele>349</ele>
        <time>2018-09-23T22:25:17Z</time>
      </trkpt>
      <trkpt lat="47.2894" lon="4.91128">
        <ele>349</ele>
        <time>2018-09-23T22:26:17Z</time>
      </trkpt>
      <trkpt lat="47.2893" lon="4.91128">
        <ele>350</ele>
        <time>2018-09-23T22:27:17Z</time>
      </trkpt>
      <trkpt lat="47.28922" lon="4.91131">
        <ele>350</ele>
        <time>2018-09-23T22:28:17Z</time>
      </trkpt>
      <trkpt lat="47.28909" lon="4.91131">
        <ele>351</ele>
        <time>2018-09-23T22:29:17Z</time>
      </trkpt>
      <trkpt lat="47.28894" lon="4.91126">
        <ele>353</ele>
        <time>2018-09-23T22:30:17Z</time>
      </trkpt>
      <trkpt lat="47.28893" lon="4.91125">
        <ele>353</ele>
        <time>2018-09-23T22:31:17Z</time>
      </trkpt>
      <trkpt lat="47.28892" lon="4.91126">
        <ele>353</ele>
        <time>2018-09-23T22:32:17Z</time>
      </trkpt>
      <trkpt lat="47.28886" lon="4.91125">
        <ele>353</ele>
        <time>2018-09-23T22:33:17Z</time>
      </trkpt>
      <trkpt lat="47.28875" lon="4.91115">
        <ele>354</ele>
        <time>2018-09-23T22:34:17Z</time>
      </trkpt>
      <trkpt lat="47.28861" lon="4.91103">
        <ele>353</ele>
        <time>2018-09-23T22:35:17Z</time>
      </trkpt>
      <trkpt lat="47.28845" lon="4.91087">
        <ele>352</ele>
        <time>2018-09-23T22:36:17Z</time>
      </trkpt>
      <trkpt lat="47.28838" lon="4.91081">
        <ele>352</ele>
        <time>2018-09-23T22:37:17Z</time>
      </trkpt>
      <trkpt lat="47.28822" lon="4.91062">
        <ele>354</ele>
        <time>2018-09-23T22:38:17Z</time>
      </trkpt>
      <trkpt lat="47.28796" lon="4.91035">
        <ele>356</ele>
        <time>2018-09-23T22:39:17Z</time>
      </trkpt>
      <trkpt lat="47.2878" lon="4.91019">
        <ele>356</ele>
        <time>2018-09-23T22:40:17Z</time>
      </trkpt>
      <trkpt lat="47.28762" lon="4.91">
        <ele>354</ele>
        <time>2018-09-23T22:41:17Z</time>
      </trkpt>
      <trkpt lat="47.28759" lon="4.90996">
        <ele>355</ele>
        <time>2018-09-23T22:42:17Z</time>
      </trkpt>
      <trkpt lat="47.28713" lon="4.90961">
        <ele>358</ele>
        <time>2018-09-23T22:43:17Z</time>
      </trkpt>
      <trkpt lat="47.28699" lon="4.90952">
        <ele>359</ele>
        <time>2018-09-23T22:44:17Z</time>
      </trkpt>
      <trkpt lat="47.28672" lon="4.90928">
        <ele>358</ele>
        <time>2018-09-23T22:45:17Z</time>
      </trkpt>
      <trkpt lat="47.28649" lon="4.90907">
        <ele>359</ele>
        <time>2018-09-23T22:46:17Z</time>
      </trkpt>
      <trkpt lat="47.28625" lon="4.90893">
        <ele>360</ele>
        <time>2018-09-23T22:47:17Z</time>
      </trkpt>
      <trkpt lat="47.28594" lon="4.90874">
        <ele>360</ele>
        <time>2018-09-23T22:48:17Z</time>
      </trkpt>
      <trkpt lat="47.28581" lon="4.90866">
        <ele>359</ele>
        <time>2018-09-23T22:49:17Z</time>
      </trkpt>
      <trkpt lat="47.28577" lon="4.90863">
        <ele>359</ele>
        <time>2018-09-23T22:50:17Z</time>
      </trkpt>
      <trkpt lat="47.28564" lon="4.90857">
        <ele>359</ele>
        <time>2018-09-23T22:51:17Z</time>
      </trkpt>
      <trkpt lat="47.28554" lon="4.90854">
        <ele>359</ele>
        <time>2018-09-23T22:52:17Z</time>
      </trkpt>
      <trkpt lat="47.28531" lon="4.9085">
        <ele>360</ele>
        <time>2018-09-23T22:53:17Z</time>
      </trkpt>
      <trkpt lat="47.28514" lon="4.90851">
        <ele>360</ele>
        <time>2018-09-23T22:54:17Z</time>
      </trkpt>
      <trkpt lat="47.2851" lon="4.90852">
        <ele>361</ele>
        <time>2018-09-23T22:55:17Z</time>
      </trkpt>
      <trkpt lat="47.28495" lon="4.90852">
        <ele>361</ele>
        <time>2018-09-23T22:56:17Z</time>
      </trkpt>
      <trkpt lat="47.28491" lon="4.90851">
        <ele>361</ele>
        <time>2018-09-23T22:57:17Z</time>
      </trkpt>
      <trkpt lat="47.28477" lon="4.90846">
        <ele>361</ele>
        <time>2018-09-23T22:58:17Z</time>
      </trkpt>
      <trkpt lat="47.28463" lon="4.90837">
        <ele>361</ele>
        <time>2018-09-23T22:59:17Z</time>
      </trkpt>
      <trkpt lat="47.28459" lon="4.90834">
        <ele>361</ele>
        <time>2018-09-23T23:00:17Z</time>
      </trkpt>
      <trkpt lat="47.2845" lon="4.9083">
        <ele>361</ele>
        <time>2018-09-23T23:01:17Z</time>
      </trkpt>
      <trkpt lat="47.28435" lon="4.90824">
        <ele>362</ele>
        <time>2018-09-23T23:02:17Z</time>
      </trkpt>
      <trkpt lat="47.2843" lon="4.90821">
        <ele>362</ele>
        <time>2018-09-23T23:03:17Z</time>
      </trkpt>
      <trkpt lat="47.28406" lon="4.90807">
        <ele>365</ele>
        <time>2018-09-23T23:04:17Z</time>
      </trkpt>
      <trkpt lat="47.28383" lon="4.90796">
        <ele>366</ele>
        <time>2018-09-23T23:05:17Z</time>
      </trkpt>
      <trkpt lat="47.28358" lon="4.90787">
        <ele>367</ele>
        <time>2018-09-23T23:06:17Z</time>
      </trkpt>
      <trkpt lat="47.28331" lon="4.90767">
        <ele>366</ele>
        <time>2018-09-23T23:07:17Z</time>
      </trkpt>
      <trkpt lat="47.28309" lon="4.90746">
        <ele>366</ele>
        <time>2018-09-23T23:08:17Z</time>
      </trkpt>
      <trkpt lat="47.28287" lon="4.90724">
        <ele>369</ele>
        <time>2018-09-23T23:09:17Z</time>
      </trkpt>
      <trkpt lat="47.28273" lon="4.9071">
        <ele>370</ele>
        <time>2018-09-23T23:10:17Z</time>
      </trkpt>
      <trkpt lat="47.28269" lon="4.90704">
        <ele>370</ele>
        <time>2018-09-23T23:11:17Z</time>
      </trkpt>
      <trkpt lat="47.28241" lon="4.90676">
        <ele>368</ele>
        <time>2018-09-23T23:12:17Z</time>
      </trkpt>
      <trkpt lat="47.28223" lon="4.90658">
        <ele>369</ele>
        <time>2018-09-23T23:13:17Z</time>
      </trkpt>
      <trkpt lat="47.28218" lon="4.90654">
        <ele>370</ele>
        <time>2018-09-23T23:14:17Z</time>
      </trkpt>
      <trkpt lat="47.28213" lon="4.9065">
        <ele>370</ele>
        <time>2018-09-23T23:15:17Z</time>
      </trkpt>
      <trkpt lat="47.28193" lon="4.90633">
        <ele>371</ele>
        <time>2018-09-23T23:16:17Z</time>
      </trkpt>
      <trkpt lat="47.28172" lon="4.90616">
        <ele>370</ele>
        <time>2018-09-23T23:17:17Z</time>
      </trkpt>
      <trkpt lat="47.28152" lon="4.90599">
        <ele>370</ele>
        <time>2018-09-23T23:18:17Z</time>
      </trkpt>
      <trkpt lat="47.28127" lon="4.90579">
        <ele>370</ele>
        <time>2018-09-23T23:19:17Z</time>
      </trkpt>
      <trkpt lat="47.28107" lon="4.90566">
        <ele>371</ele>
        <time>2018-09-23T23:20:17Z</time>
      </trkpt>
      <trkpt lat="47.28098" lon="4.90561">
        <ele>371</ele>
        <time>2018-09-23T23:21:17Z</time>
      </trkpt>
      <trkpt lat="47.28081" lon="4.90554">
        <ele>371</ele>
        <time>2018-09-23T23:22:17Z</time>
      </trkpt>
      <trkpt lat="47.28029" lon="4.90532">
        <ele>372</ele>
        <time>2018-09-23T23:23:17Z</time>
      </trkpt>
      <trkpt lat="47.28002" lon="4.90525">
        <ele>372</ele>
        <time>2018-09-23T23:24:17Z</time>
      </trkpt>
      <trkpt lat="47.27986" lon="4.90516">
        <ele>372</ele>
        <time>2018-09-23T23:25:17Z</time>
      </trkpt>
      <trkpt lat="47.27968" lon="4.90506">
        <ele>371</ele>
        <time>2018-09-23T23:26:17Z</time>
      </trkpt>
      <trkpt lat="47.27959" lon="4.905">
        <ele>370</ele>
        <time>2018-09-23T23:27:17Z</time>
      </trkpt>
      <trkpt lat="47.27938" lon="4.90495">
        <ele>372</ele>
        <time>2018-09-23T23:28:17Z</time>
      </trkpt>
      <trkpt lat="47.27907" lon="4.90493">
        <ele>373</ele>
        <time>2018-09-23T23:29:17Z</time>
      </trkpt>
      <trkpt lat="47.27902" lon="4.90493">
        <ele>374</ele>
        <time>2018-09-23T23:30:17Z</time>
      </trkpt>
      <trkpt lat="47.27881" lon="4.90488">
        <ele>375</ele>
        <time>2018-09-23T23:31:17Z</time>
      </trkpt>
      <trkpt lat="47.27877" lon="4.90487">
        <ele>375</ele>
        <time>2018-09-23T23:32:17Z</time>
      </trkpt>
      <trkpt lat="47.27862" lon="4.9048">
        <ele>376</ele>
        <time>2018-09-23T23:33:17Z</time>
      </trkpt>
      <trkpt lat="47.27858" lon="4.90477">
        <ele>376</ele>
        <time>2018-09-23T23:34:17Z</time>
      </trkpt>
      <trkpt lat="47.27828" lon="4.90453">
        <ele>377</ele>
        <time>2018-09-23T23:35:17Z</time>
      </trkpt>
      <trkpt lat="47.27813" lon="4.90447">
        <ele>377</ele>
        <time>2018-09-23T23:36:17Z</time>
      </trkpt>
      <trkpt lat="47.27796" lon="4.90447">
        <ele>378</ele>
        <time>2018-09-23T23:37:17Z</time>
      </trkpt>
      <trkpt lat="47.27791" lon="4.90449">
        <ele>378</ele>
        <time>2018-09-23T23:38:17Z</time>
      </trkpt>
      <trkpt lat="47.27766" lon="4.90461">
        <ele>380</ele>
        <time>2018-09-23T23:39:17Z</time>
      </trkpt>
      <trkpt lat="47.27751" lon="4.90468">
        <ele>381</ele>
        <time>2018-09-23T23:40:17Z</time>
      </trkpt>
      <trkpt lat="47.27742" lon="4.90474">
        <ele>381</ele>
        <time>2018-09-23T23:41:17Z</time>
      </trkpt>
      <trkpt lat="47.27733" lon="4.90478">
        <ele>381</ele>
        <time>2018-09-23T23:42:17Z</time>
      </trkpt>
      <trkpt lat="47.27711" lon="4.90487">
        <ele>382</ele>
        <time>2018-09-23T23:43:17Z</time>
      </trkpt>
      <trkpt lat="47.27706" lon="4.90489">
        <ele>381</ele>
        <time>2018-09-23T23:44:17Z</time>
      </trkpt>
      <trkpt lat="47.2769" lon="4.90498">
        <ele>381</ele>
        <time>2018-09-23T23:45:17Z</time>
      </trkpt>
      <trkpt lat="47.27674" lon="4.90504">
        <ele>382</ele>
        <time>2018-09-23T23:46:17Z</time>
      </trkpt>
      <trkpt lat="47.27669" lon="4.90506">
        <ele>382</ele>
        <time>2018-09-23T23:47:17Z</time>
      </trkpt>
      <trkpt lat="47.27616" lon="4.90534">
        <ele>388</ele>
        <time>2018-09-23T23:48:17Z</time>
      </trkpt>
      <trkpt lat="47.27595" lon="4.90548">
        <ele>388</ele>
        <time>2018-09-23T23:49:17Z</time>
      </trkpt>
      <trkpt lat="47.27573" lon="4.90564">
        <ele>389</ele>
        <time>2018-09-23T23:50:17Z</time>
      </trkpt>
      <trkpt lat="47.2757" lon="4.90568">
        <ele>389</ele>
        <time>2018-09-23T23:51:17Z</time>
      </trkpt>
      <trkpt lat="47.27553" lon="4.90584">
        <ele>389</ele>
        <time>2018-09-23T23:52:17Z</time>
      </trkpt>
      <trkpt lat="47.27541" lon="4.90593">
        <ele>390</ele>
        <time>2018-09-23T23:53:17Z</time>
      </trkpt>
      <trkpt lat="47.27526" lon="4.90607">
        <ele>391</ele>
        <time>2018-09-23T23:54:17Z</time>
      </trkpt>
      <trkpt lat="47.27523" lon="4.90612">
        <ele>391</ele>
        <time>2018-09-23T23:55:17Z</time>
      </trkpt>
      <trkpt lat="47.27511" lon="4.90631">
        <ele>390</ele>
        <time>2018-09-23T23:56:17Z</time>
      </trkpt>
      <trkpt lat="47.27507" lon="4.90637">
        <ele>390</ele>
        <time>2018-09-23T23:57:17Z</time>
      </trkpt>
      <trkpt lat="47.27501" lon="4.90649">
        <ele>389</ele>
        <time>2018-09-23T23:58:17Z</time>
      </trkpt>
      <trkpt lat="47.27495" lon="4.90661">
        <ele>389</ele>
        <time>2018-09-23T23:59:17Z</time>
      </trkpt>
      <trkpt lat="47.27493" lon="4.90666">
        <ele>389</ele>
        <time>2018-09-24T00:00:17Z</time>
      </trkpt>
      <trkpt lat="47.27472" lon="4.90697">
        <ele>392</ele>
        <time>2018-09-24T00:01:17Z</time>
      </trkpt>
      <trkpt lat="47.27467" lon="4.90701">
        <ele>393</ele>
        <time>2018-09-24T00:02:17Z</time>
      </trkpt>
      <trkpt lat="47.2743" lon="4.90729">
        <ele>393</ele>
        <time>2018-09-24T00:03:17Z</time>
      </trkpt>
      <trkpt lat="47.27426" lon="4.90731">
        <ele>393</ele>
        <time>2018-09-24T00:04:17Z</time>
      </trkpt>
      <trkpt lat="47.27409" lon="4.90746">
        <ele>392</ele>
        <time>2018-09-24T00:05:17Z</time>
      </trkpt>
      <trkpt lat="47.27402" lon="4.90753">
        <ele>393</ele>
        <time>2018-09-24T00:06:17Z</time>
      </trkpt>
      <trkpt lat="47.27391" lon="4.90761">
        <ele>394</ele>
        <time>2018-09-24T00:07:17Z</time>
      </trkpt>
      <trkpt lat="47.27387" lon="4.90764">
        <ele>394</ele>
        <time>2018-09-24T00:08:17Z</time>
      </trkpt>
      <trkpt lat="47.27379" lon="4.90769">
        <ele>395</ele>
        <time>2018-09-24T00:09:17Z</time>
      </trkpt>
      <trkpt lat="47.27367" lon="4.90773">
        <ele>395</ele>
        <time>2018-09-24T00:10:17Z</time>
      </trkpt>
      <trkpt lat="47.27362" lon="4.90773">
        <ele>395</ele>
        <time>2018-09-24T00:11:17Z</time>
      </trkpt>
      <trkpt lat="47.27357" lon="4.90773">
        <ele>395</ele>
        <time>2018-09-24T00:12:17Z</time>
      </trkpt>
      <trkpt lat="47.2735" lon="4.90777">
        <ele>395</ele>
        <time>2018-09-24T00:13:17Z</time>
      </trkpt>
      <trkpt lat="47.27341" lon="4.90785">
        <ele>395</ele>
        <time>2018-09-24T00:14:17Z</time>
      </trkpt>
      <trkpt lat="47.27341" lon="4.90786">
        <ele>395</ele>
        <time>2018-09-24T00:15:17Z</time>
      </trkpt>
      <trkpt lat="47.27335" lon="4.90785">
        <ele>394</ele>
        <time>2018-09-24T00:16:17Z</time>
      </trkpt>
      <trkpt lat="47.27333" lon="4.90783">
        <ele>394</ele>
        <time>2018-09-24T00:17:17Z</time>
      </trkpt>
      <trkpt lat="47.27328" lon="4.90776">
        <ele>395</ele>
        <time>2018-09-24T00:18:17Z</time>
      </trkpt>
      <trkpt lat="47.27302" lon="4.90763">
        <ele>396</ele>
        <time>2018-09-24T00:19:17Z</time>
      </trkpt>
      <trkpt lat="47.27288" lon="4.90754">
        <ele>397</ele>
        <time>2018-09-24T00:20:17Z</time>
      </trkpt>
      <trkpt lat="47.27254" lon="4.90727">
        <ele>399</ele>
        <time>2018-09-24T00:21:17Z</time>
      </trkpt>
      <trkpt lat="47.2725" lon="4.90724">
        <ele>399</ele>
        <time>2018-09-24T00:22:17Z</time>
      </trkpt>
      <trkpt lat="47.27228" lon="4.90708">
        <ele>401</ele>
        <time>2018-09-24T00:23:17Z</time>
      </trkpt>
      <trkpt lat="47.27204" lon="4.90694">
        <ele>401</ele>
        <time>2018-09-24T00:24:17Z</time>
      </trkpt>
      <trkpt lat="47.272" lon="4.9069">
        <ele>401</ele>
        <time>2018-09-24T00:25:17Z</time>
      </trkpt>
      <trkpt lat="47.27179" lon="4.90671">
        <ele>400</ele>
        <time>2018-09-24T00:26:17Z</time>
      </trkpt>
      <trkpt lat="47.27156" lon="4.90644">
        <ele>401</ele>
        <time>2018-09-24T00:27:17Z</time>
      </trkpt>
      <trkpt lat="47.27144" lon="4.90633">
        <ele>402</ele>
        <time>2018-09-24T00:28:17Z</time>
      </trkpt>
      <trkpt lat="47.27133" lon="4.90622">
        <ele>402</ele>
        <time>2018-09-24T00:29:17Z</time>
      </trkpt>
      <trkpt lat="47.2712" lon="4.90613">
        <ele>402</ele>
        <time>2018-09-24T00:30:17Z</time>
      </trkpt>
      <trkpt lat="47.27111" lon="4.90612">
        <ele>402</ele>
        <time>2018-09-24T00:31:17Z</time>
      </trkpt>
      <trkpt lat="47.27093" lon="4.90601">
        <ele>401</ele>
        <time>2018-09-24T00:32:17Z</time>
      </trkpt>
      <trkpt lat="47.27079" lon="4.90589">
        <ele>400</ele>
        <time>2018-09-24T00:33:17Z</time>
      </trkpt>
      <trkpt lat="47.27073" lon="4.90585">
        <ele>400</ele>
        <time>2018-09-24T00:34:17Z</time>
      </trkpt>
      <trkpt lat="47.27068" lon="4.90581">
        <ele>401</ele>
        <time>2018-09-24T00:35:17Z</time>
      </trkpt>
      <trkpt lat="47.27051" lon="4.90572">
        <ele>404</ele>
        <time>2018-09-24T00:36:17Z</time>
      </trkpt>
      <trkpt lat="47.27035" lon="4.90564">
        <ele>406</ele>
        <time>2018-09-24T00:37:17Z</time>
      </trkpt>
      <trkpt lat="47.2702" lon="4.90556">
        <ele>408</ele>
        <time>2018-09-24T00:38:17Z</time>
      </trkpt>
      <trkpt lat="47.27005" lon="4.90557">
        <ele>409</ele>
        <time>2018-09-24T00:39:17Z</time>
      </trkpt>
      <trkpt lat="47.26995" lon="4.90559">
        <ele>410</ele>
        <time>2018-09-24T00:40:17Z</time>
      </trkpt>
      <trkpt lat="47.26985" lon="4.90562">
        <ele>410</ele>
        <time>2018-09-24T00:41:17Z</time>
      </trkpt>
      <trkpt lat="47.26968" lon="4.90571">
        <ele>409</ele>
        <time>2018-09-24T00:42:17Z</time>
      </trkpt>
      <trkpt lat="47.26956" lon="4.90578">
        <ele>409</ele>
        <time>2018-09-24T00:43:17Z</time>
      </trkpt>
      <trkpt lat="47.26933" lon="4.90586">
        <ele>409</ele>
        <time>2018-09-24T00:44:17Z</time>
      </trkpt>
      <trkpt lat="47.2693" lon="4.90586">
        <ele>409</ele>
        <time>2018-09-24T00:45:17Z</time>
      </trkpt>
      <trkpt lat="47.26911" lon="4.90594">
        <ele>411</ele>
        <time>2018-09-24T00:46:17Z</time>
      </trkpt>
      <trkpt lat="47.26896" lon="4.90599">
        <ele>413</ele>
        <time>2018-09-24T00:47:17Z</time>
      </trkpt>
      <trkpt lat="47.26884" lon="4.906">
        <ele>413</ele>
        <time>2018-09-24T00:48:17Z</time>
      </trkpt>
      <trkpt lat="47.26877" lon="4.90601">
        <ele>414</ele>
        <time>2018-09-24T00:49:17Z</time>
      </trkpt>
      <trkpt lat="47.26874" lon="4.90602">
        <ele>414</ele>
        <time>2018-09-24T00:50:17Z</time>
      </trkpt>
      <trkpt lat="47.26862" lon="4.90604">
        <ele>415</ele>
        <time>2018-09-24T00:51:17Z</time>
      </trkpt>
      <trkpt lat="47.26853" lon="4.90602">
        <ele>415</ele>
        <time>2018-09-24T00:52:17Z</time>
      </trkpt>
      <trkpt lat="47.26843" lon="4.90604">
        <ele>415</ele>
        <time>2018-09-24T00:53:17Z</time>
      </trkpt>
      <trkpt lat="47.26831" lon="4.90607">
        <ele>416</ele>
        <time>2018-09-24T00:54:17Z</time>
      </trkpt>
      <trkpt lat="47.26813" lon="4.90615">
        <ele>418</ele>
        <time>2018-09-24T00:55:17Z</time>
      </trkpt>
      <trkpt lat="47.26795" lon="4.90627">
        <ele>419</ele>
        <time>2018-09-24T00:56:17Z</time>
      </trkpt>
      <trkpt lat="47.26786" lon="4.90632">
        <ele>420</ele>
        <time>2018-09-24T00:57:17Z</time>
      </trkpt>
      <trkpt lat="47.26782" lon="4.90632">
        <ele>420</ele>
        <time>2018-09-24T00:58:17Z</time>
      </trkpt>
      <trkpt lat="47.26764" lon="4.90638">
        <ele>420</ele>
        <time>2018-09-24T00:59:17Z</time>
      </trkpt>
      <trkpt lat="47.26753" lon="4.90647">
        <ele>419</ele>
        <time>2018-09-24T01:00:17Z</time>
      </trkpt>
      <trkpt lat="47.26747" lon="4.9065">
        <ele>418</ele>
        <time>2018-09-24T01:01:17Z</time>
      </trkpt>
      <trkpt lat="47.2674" lon="4.90652">
        <ele>418</ele>
        <time>2018-09-24T01:02:17Z</time>
      </trkpt>
      <trkpt lat="47.2672" lon="4.90656">
        <ele>419</ele>
        <time>2018-09-24T01:03:17Z</time>
      </trkpt>
      <trkpt lat="47.26713" lon="4.90657">
        <ele>419</ele>
        <time>2018-09-24T01:04:17Z</time>
      </trkpt>
      <trkpt lat="47.26702" lon="4.90658">
        <ele>419</ele>
        <time>2018-09-24T01:05:17Z</time>
      </trkpt>
      <trkpt lat="47.26685" lon="4.90659">
        <ele>420</ele>
        <time>2018-09-24T01:06:17Z</time>
      </trkpt>
      <trkpt lat="47.26661" lon="4.9066">
        <ele>421</ele>
        <time>2018-09-24T01:07:17Z</time>
      </trkpt>
      <trkpt lat="47.26637" lon="4.90658">
        <ele>423</ele>
        <time>2018-09-24T01:08:17Z</time>
      </trkpt>
      <trkpt lat="47.26624" lon="4.90658">
        <ele>424</ele>
        <time>2018-09-24T01:09:17Z</time>
      </trkpt>
      <trkpt lat="47.26617" lon="4.9066">
        <ele>425</ele>
        <time>2018-09-24T01:10:17Z</time>
      </trkpt>
      <trkpt lat="47.26607" lon="4.90663">
        <ele>425</ele>
        <time>2018-09-24T01:11:17Z</time>
      </trkpt>
      <trkpt lat="47.26597" lon="4.90668">
        <ele>425</ele>
        <time>2018-09-24T01:12:17Z</time>
      </trkpt>
      <trkpt lat="47.26593" lon="4.9067">
        <ele>425</ele>
        <time>2018-09-24T01:13:17Z</time>
      </trkpt>
      <trkpt lat="47.26578" lon="4.90685">
        <ele>428</ele>
        <time>2018-09-24T01:14:17Z</time>
      </trkpt>
      <trkpt lat="47.26567" lon="4.90696">
        <ele>430</ele>
        <time>2018-09-24T01:15:17Z</time>
      </trkpt>
      <trkpt lat="47.26562" lon="4.90701">
        <ele>431</ele>
        <time>2018-09-24T01:16:17Z</time>
      </trkpt>
      <trkpt lat="47.26549" lon="4.90709">
        <ele>432</ele>
        <time>2018-09-24T01:17:17Z</time>
      </trkpt>
      <trkpt lat="47.26543" lon="4.90717">
        <ele>433</ele>
        <time>2018-09-24T01:18:17Z</time>
      </trkpt>
      <trkpt lat="47.2652" lon="4.90754">
        <ele>431</ele>
        <time>2018-09-24T01:19:17Z</time>
      </trkpt>
      <trkpt lat="47.26513" lon="4.90766">
        <ele>431</ele>
        <time>2018-09-24T01:20:17Z</time>
      </trkpt>
      <trkpt lat="47.26498" lon="4.90787">
        <ele>430</ele>
        <time>2018-09-24T01:21:17Z</time>
      </trkpt>
      <trkpt lat="47.26495" lon="4.9079">
        <ele>431</ele>
        <time>2018-09-24T01:22:17Z</time>
      </trkpt>
      <trkpt lat="47.26467" lon="4.90836">
        <ele>432</ele>
        <time>2018-09-24T01:23:17Z</time>
      </trkpt>
      <trkpt lat="47.26464" lon="4.90839">
        <ele>433</ele>
        <time>2018-09-24T01:24:17Z</time>
      </trkpt>
      <trkpt lat="47.26442" lon="4.90865">
        <ele>435</ele>
        <time>2018-09-24T01:25:17Z</time>
      </trkpt>
      <trkpt lat="47.26436" lon="4.90872">
        <ele>435</ele>
        <time>2018-09-24T01:26:17Z</time>
      </trkpt>
      <trkpt lat="47.26427" lon="4.90886">
        <ele>434</ele>
        <time>2018-09-24T01:27:17Z</time>
      </trkpt>
      <trkpt lat="47.26419" lon="4.90898">
        <ele>433</ele>
        <time>2018-09-24T01:28:17Z</time>
      </trkpt>
      <trkpt lat="47.26408" lon="4.90916">
        <ele>434</ele>
        <time>2018-09-24T01:29:17Z</time>
      </trkpt>
      <trkpt lat="47.26407" lon="4.90918">
        <ele>434</ele>
        <time>2018-09-24T01:30:17Z</time>
      </trkpt>
      <trkpt lat="47.26394" lon="4.90931">
        <ele>438</ele>
        <time>2018-09-24T01:31:17Z</time>
      </trkpt>
      <trkpt lat="47.2638" lon="4.90944">
        <ele>442</ele>
        <time>2018-09-24T01:32:17Z</time>
      </trkpt>
      <trkpt lat="47.26373" lon="4.90951">
        <ele>443</ele>
        <time>2018-09-24T01:33:17Z</time>
      </trkpt>
      <trkpt lat="47.26366" lon="4.90964">
        <ele>443</ele>
        <time>2018-09-24T01:34:17Z</time>
      </trkpt>
      <trkpt lat="47.26364" lon="4.90968">
        <ele>443</ele>
        <time>2018-09-24T01:35:17Z</time>
      </trkpt>
      <trkpt lat="47.26355" lon="4.90993">
        <ele>442</ele>
        <time>2018-09-24T01:36:17Z</time>
      </trkpt>
      <trkpt lat="47.26353" lon="4.91002">
        <ele>442</ele>
        <time>2018-09-24T01:37:17Z</time>
      </trkpt>
      <trkpt lat="47.26354" lon="4.91009">
        <ele>442</ele>
        <time>2018-09-24T01:38:17Z</time>
      </trkpt>
      <trkpt lat="47.26357" lon="4.9102">
        <ele>442</ele>
        <time>2018-09-24T01:39:17Z</time>
      </trkpt>
      <trkpt lat="47.26357" lon="4.91024">
        <ele>442</ele>
        <time>2018-09-24T01:40:17Z</time>
      </trkpt>
      <trkpt lat="47.26356" lon="4.9103">
        <ele>442</ele>
        <time>2018-09-24T01:41:17Z</time>
      </trkpt>
      <trkpt lat="47.26353" lon="4.91035">
        <ele>442</ele>
        <time>2018-09-24T01:42:17Z</time>
      </trkpt>
      <trkpt lat="47.26343" lon="4.91052">
        <ele>441</ele>
        <time>2018-09-24T01:43:17Z</time>
      </trkpt>
      <trkpt lat="47.2634" lon="4.9106">
        <ele>441</ele>
        <time>2018-09-24T01:44:17Z</time>
      </trkpt>
      <trkpt lat="47.26338" lon="4.91071">
        <ele>441</ele>
        <time>2018-09-24T01:45:17Z</time>
      </trkpt>
      <trkpt lat="47.26335" lon="4.91079">
        <ele>440</ele>
        <time>2018-09-24T01:46:17Z</time>
      </trkpt>
      <trkpt lat="47.26329" lon="4.91085">
        <ele>441</ele>
        <time>2018-09-24T01:47:17Z</time>
      </trkpt>
      <trkpt lat="47.26326" lon="4.91087">
        <ele>442</ele>
        <time>2018-09-24T01:48:17Z</time>
      </trkpt>
      <trkpt lat="47.26319" lon="4.91092">
        <ele>443</ele>
        <time>2018-09-24T01:49:17Z</time>
      </trkpt>
      <trkpt lat="47.26307" lon="4.91102">
        <ele>446</ele>
        <time>2018-09-24T01:50:17Z</time>
      </trkpt>
      <trkpt lat="47.26299" lon="4.91111">
        <ele>447</ele>
        <time>2018-09-24T01:51:17Z</time>
      </trkpt>
      <trkpt lat="47.26293" lon="4.91114">
        <ele>448</ele>
        <time>2018-09-24T01:52:17Z</time>
      </trkpt>
      <trkpt lat="47.26273" lon="4.91128">
        <ele>450</ele>
        <time>2018-09-24T01:53:17Z</time>
      </trkpt>
      <trkpt lat="47.26247" lon="4.9115">
        <ele>449</ele>
        <time>2018-09-24T01:54:17Z</time>
      </trkpt>
      <trkpt lat="47.26229" lon="4.91161">
        <ele>450</ele>
        <time>2018-09-24T01:55:17Z</time>
      </trkpt>
      <trkpt lat="47.26221" lon="4.91163">
        <ele>450</ele>
        <time>2018-09-24T01:56:17Z</time>
      </trkpt>
      <trkpt lat="47.26213" lon="4.91163">
        <ele>451</ele>
        <time>2018-09-24T01:57:17Z</time>
      </trkpt>
      <trkpt lat="47.26207" lon="4.91162">
        <ele>451</ele>
        <time>2018-09-24T01:58:17Z</time>
      </trkpt>
      <trkpt lat="47.26189" lon="4.91154">
        <ele>453</ele>
        <time>2018-09-24T01:59:17Z</time>
      </trkpt>
      <trkpt lat="47.26181" lon="4.91151">
        <ele>454</ele>
        <time>2018-09-24T02:00:17Z</time>
      </trkpt>
      <trkpt lat="47.2617" lon="4.91148">
        <ele>455</ele>
        <time>2018-09-24T02:01:17Z</time>
      </trkpt>
      <trkpt lat="47.26168" lon="4.91147">
        <ele>456</ele>
        <time>2018-09-24T02:02:17Z</time>
      </trkpt>
      <trkpt lat="47.2615" lon="4.91144">
        <ele>457</ele>
        <time>2018-09-24T02:03:17Z</time>
      </trkpt>
      <trkpt lat="47.26142" lon="4.91147">
        <ele>457</ele>
        <time>2018-09-24T02:04:17Z</time>
      </trkpt>
      <trkpt lat="47.26135" lon="4.91152">
        <ele>457</ele>
        <time>2018-09-24T02:05:17Z</time>
      </trkpt>
      <trkpt lat="47.26118" lon="4.91165">
        <ele>456</ele>
        <time>2018-09-24T02:06:17Z</time>
      </trkpt>
      <trkpt lat="47.26107" lon="4.91176">
        <ele>457</ele>
        <time>2018-09-24T02:07:17Z</time>
      </trkpt>
      <trkpt lat="47.26104" lon="4.91181">
        <ele>458</ele>
        <time>2018-09-24T02:08:17Z</time>
      </trkpt>
      <trkpt lat="47.261" lon="4.9119">
        <ele>458</ele>
        <time>2018-09-24T02:09:17Z</time>
      </trkpt>
      <trkpt lat="47.26093" lon="4.91198">
        <ele>459</ele>
        <time>2018-09-24T02:10:17Z</time>
      </trkpt>
      <trkpt lat="47.26076" lon="4.91209">
        <ele>460</ele>
        <time>2018-09-24T02:11:17Z</time>
      </trkpt>
      <trkpt lat="47.26063" lon="4.91216">
        <ele>461</ele>
        <time>2018-09-24T02:12:17Z</time>
      </trkpt>
      <trkpt lat="47.26053" lon="4.91224">
        <ele>462</ele>
        <time>2018-09-24T02:13:17Z</time>
      </trkpt>
      <trkpt lat="47.26051" lon="4.91226">
        <ele>462</ele>
        <time>2018-09-24T02:14:17Z</time>
      </trkpt>
      <trkpt lat="47.26039" lon="4.91241">
        <ele>462</ele>
        <time>2018-09-24T02:15:17Z</time>
      </trkpt>
      <trkpt lat="47.26034" lon="4.91253">
        <ele>462</ele>
        <time>2018-09-24T02:16:17Z</time>
      </trkpt>
      <trkpt lat="47.26027" lon="4.91278">
        <ele>463</ele>
        <time>2018-09-24T02:17:17Z</time>
      </trkpt>
      <trkpt lat="47.26027" lon="4.91286">
        <ele>463</ele>
        <time>2018-09-24T02:18:17Z</time>
      </trkpt>
      <trkpt lat="47.26026" lon="4.91309">
        <ele>464</ele>
        <time>2018-09-24T02:19:17Z</time>
      </trkpt>
      <trkpt lat="47.26028" lon="4.91334">
        <ele>465</ele>
        <time>2018-09-24T02:20:17Z</time>
      </trkpt>
      <trkpt lat="47.26029" lon="4.91343">
        <ele>466</ele>
        <time>2018-09-24T02:21:17Z</time>
      </trkpt>
      <trkpt lat="47.26031" lon="4.91346">
        <ele>466</ele>
        <time>2018-09-24T02:22:17Z</time>
      </trkpt>
      <trkpt lat="47.26035" lon="4.91352">
        <ele>467</ele>
        <time>2018-09-24T02:23:17Z</time>
      </trkpt>
      <trkpt lat="47.26042" lon="4.91362">
        <ele>468</ele>
        <time>2018-09-24T02:24:17Z</time>
      </trkpt>
      <trkpt lat="47.2605" lon="4.91388">
        <ele>470</ele>
        <time>2018-09-24T02:25:17Z</time>
      </trkpt>
      <trkpt lat="47.26047" lon="4.91412">
        <ele>472</ele>
        <time>2018-09-24T02:26:17Z</time>
      </trkpt>
      <trkpt lat="47.26045" lon="4.91417">
        <ele>472</ele>
        <time>2018-09-24T02:27:17Z</time>
      </trkpt>
      <trkpt lat="47.26039" lon="4.91419">
        <ele>471</ele>
        <time>2018-09-24T02:28:17Z</time>
      </trkpt>
      <trkpt lat="47.2603" lon="4.91411">
        <ele>470</ele>
        <time>2018-09-24T02:29:17Z</time>
      </trkpt>
      <trkpt lat="47.26027" lon="4.91411">
        <ele>470</ele>
        <time>2018-09-24T02:30:17Z</time>
      </trkpt>
      <trkpt lat="47.26022" lon="4.91412">
        <ele>470</ele>
        <time>2018-09-24T02:31:17Z</time>
      </trkpt>
      <trkpt lat="47.26019" lon="4.91413">
        <ele>469</ele>
        <time>2018-09-24T02:32:17Z</time>
      </trkpt>
      <trkpt lat="47.26014" lon="4.91413">
        <ele>469</ele>
        <time>2018-09-24T02:33:17Z</time>
      </trkpt>
      <trkpt lat="47.26006" lon="4.91408">
        <ele>468</ele>
        <time>2018-09-24T02:34:17Z</time>
      </trkpt>
      <trkpt lat="47.25997" lon="4.91409">
        <ele>468</ele>
        <time>2018-09-24T02:35:17Z</time>
      </trkpt>
      <trkpt lat="47.25995" lon="4.91409">
        <ele>468</ele>
        <time>2018-09-24T02:36:17Z</time>
      </trkpt>
      <trkpt lat="47.2599" lon="4.91413">
        <ele>469</ele>
        <time>2018-09-24T02:37:17Z</time>
      </trkpt>
      <trkpt lat="47.25987" lon="4.91418">
        <ele>470</ele>
        <time>2018-09-24T02:38:17Z</time>
      </trkpt>
      <trkpt lat="47.25985" lon="4.91419">
        <ele>470</ele>
        <time>2018-09-24T02:39:17Z</time>
      </trkpt>
      <trkpt lat="47.25981" lon="4.91417">
        <ele>470</ele>
        <time>2018-09-24T02:40:17Z</time>
      </trkpt>
      <trkpt lat="47.25976" lon="4.91413">
        <ele>471</ele>
        <time>2018-09-24T02:41:17Z</time>
      </trkpt>
      <trkpt lat="47.25973" lon="4.91413">
        <ele>471</ele>
        <time>2018-09-24T02:42:17Z</time>
      </trkpt>
      <trkpt lat="47.25965" lon="4.91418">
        <ele>472</ele>
        <time>2018-09-24T02:43:17Z</time>
      </trkpt>
      <trkpt lat="47.25955" lon="4.91424">
        <ele>474</ele>
        <time>2018-09-24T02:44:17Z</time>
      </trkpt>
      <trkpt lat="47.25944" lon="4.91429">
        <ele>476</ele>
        <time>2018-09-24T02:45:17Z</time>
      </trkpt>
      <trkpt lat="47.25936" lon="4.91433">
        <ele>477</ele>
        <time>2018-09-24T02:46:17Z</time>
      </trkpt>
      <trkpt lat="47.25934" lon="4.91434">
        <ele>477</ele>
        <time>2018-09-24T02:47:17Z</time>
      </trkpt>
      <trkpt lat="47.25925" lon="4.91438">
        <ele>479</ele>
        <time>2018-09-24T02:48:17Z</time>
      </trkpt>
      <trkpt lat="47.25915" lon="4.91441">
        <ele>480</ele>
        <time>2018-09-24T02:49:17Z</time>
      </trkpt>
      <trkpt lat="47.25909" lon="4.91441">
        <ele>481</ele>
        <time>2018-09-24T02:50:17Z</time>
      </trkpt>
      <trkpt lat="47.25897" lon="4.91446">
        <ele>482</ele>
        <time>2018-09-24T02:51:17Z</time>
      </trkpt>
      <trkpt lat="47.25895" lon="4.91446">
        <ele>482</ele>
        <time>2018-09-24T02:52:17Z</time>
      </trkpt>
      <trkpt lat="47.25885" lon="4.91451">
        <ele>483</ele>
        <time>2018-09-24T02:53:17Z</time>
      </trkpt>
      <trkpt lat="47.25876" lon="4.91456">
        <ele>484</ele>
        <time>2018-09-24T02:54:17Z</time>
      </trkpt>
      <trkpt lat="47.25864" lon="4.91465">
        <ele>486</ele>
        <time>2018-09-24T02:55:17Z</time>
      </trkpt>
      <trkpt lat="47.2586" lon="4.91469">
        <ele>486</ele>
        <time>2018-09-24T02:56:17Z</time>
      </trkpt>
      <trkpt lat="47.25854" lon="4.91476">
        <ele>487</ele>
        <time>2018-09-24T02:57:17Z</time>
      </trkpt>
      <trkpt lat="47.25853" lon="4.91477">
        <ele>487</ele>
        <time>2018-09-24T02:58:17Z</time>
      </trkpt>
      <trkpt lat="47.25849" lon="4.91487">
        <ele>488</ele>
        <time>2018-09-24T02:59:17Z</time>
      </trkpt>
      <trkpt lat="47.25846" lon="4.91491">
        <ele>489</ele>
        <time>2018-09-24T03:00:17Z</time>
      </trkpt>
      <trkpt lat="47.25843" lon="4.91496">
        <ele>489</ele>
        <time>2018-09-24T03:01:17Z</time>
      </trkpt>
      <trkpt lat="47.2584" lon="4.91501">
        <ele>490</ele>
        <time>2018-09-24T03:02:17Z</time>
      </trkpt>
      <trkpt lat="47.25834" lon="4.91515">
        <ele>491</ele>
        <time>2018-09-24T03:03:17Z</time>
      </trkpt>
      <trkpt lat="47.25827" lon="4.91529">
        <ele>493</ele>
        <time>2018-09-24T03:04:17Z</time>
      </trkpt>
      <trkpt lat="47.25818" lon="4.91539">
        <ele>494</ele>
        <time>2018-09-24T03:05:17Z</time>
      </trkpt>
      <trkpt lat="47.25813" lon="4.91545">
        <ele>495</ele>
        <time>2018-09-24T03:06:17Z</time>
      </trkpt>
      <trkpt lat="47.25804" lon="4.91552">
        <ele>496</ele>
        <time>2018-09-24T03:07:17Z</time>
      </trkpt>
      <trkpt lat="47.25799" lon="4.91562">
        <ele>497</ele>
        <time>2018-09-24T03:08:17Z</time>
      </trkpt>
      <trkpt lat="47.25797" lon="4.91573">
        <ele>497</ele>
        <time>2018-09-24T03:09:17Z</time>
      </trkpt>
      <trkpt lat="47.25797" lon="4.91577">
        <ele>498</ele>
        <time>2018-09-24T03:10:17Z</time>
      </trkpt>
      <trkpt lat="47.25791" lon="4.91592">
        <ele>498</ele>
        <time>2018-09-24T03:11:17Z</time>
      </trkpt>
      <trkpt lat="47.25784" lon="4.91611">
        <ele>499</ele>
        <time>2018-09-24T03:12:17Z</time>
      </trkpt>
      <trkpt lat="47.25778" lon="4.91625">
        <ele>500</ele>
        <time>2018-09-24T03:13:17Z</time>
      </trkpt>
      <trkpt lat="47.25777" lon="4.91628">
        <ele>500</ele>
        <time>2018-09-24T03:14:17Z</time>
      </trkpt>
      <trkpt lat="47.25772" lon="4.91636">
        <ele>500</ele>
        <time>2018-09-24T03:15:17Z</time>
      </trkpt>
      <trkpt lat="47.25769" lon="4.91641">
        <ele>501</ele>
        <time>2018-09-24T03:16:17Z</time>
      </trkpt>
      <trkpt lat="47.25762" lon="4.91657">
        <ele>501</ele>
        <time>2018-09-24T03:17:17Z</time>
      </trkpt>
      <trkpt lat="47.2576" lon="4.91661">
        <ele>501</ele>
        <time>2018-09-24T03:18:17Z</time>
      </trkpt>
      <trkpt lat="47.25756" lon="4.91672">
        <ele>501</ele>
        <time>2018-09-24T03:19:17Z</time>
      </trkpt>
      <trkpt lat="47.25754" lon="4.91678">
        <ele>502</ele>
        <time>2018-09-24T03:20:17Z</time>
      </trkpt>
      <trkpt lat="47.2575" lon="4.91685">
        <ele>502</ele>
        <time>2018-09-24T03:21:17Z</time>
      </trkpt>
      <trkpt lat="47.25747" lon="4.91691">
        <ele>502</ele>
        <time>2018-09-24T03:22:17Z</time>
      </trkpt>
      <trkpt lat="47.25742" lon="4.91706">
        <ele>503</ele>
        <time>2018-09-24T03:23:17Z</time>
      </trkpt>
      <trkpt lat="47.25736" lon="4.91722">
        <ele>504</ele>
        <time>2018-09-24T03:24:17Z</time>
      </trkpt>
      <trkpt lat="47.25727" lon="4.91745">
        <ele>504</ele>
        <time>2018-09-24T03:25:17Z</time>
      </trkpt>
      <trkpt lat="47.25723" lon="4.91755">
        <ele>505</ele>
        <time>2018-09-24T03:26:17Z</time>
      </trkpt>
      <trkpt lat="47.25716" lon="4.91769">
        <ele>505</ele>
        <time>2018-09-24T03:27:17Z</time>
      </trkpt>
      <trkpt lat="47.25712" lon="4.91776">
        <ele>506</ele>
        <time>2018-09-24T03:28:17Z</time>
      </trkpt>
      <trkpt lat="47.25707" lon="4.91782">
        <ele>506</ele>
        <time>2018-09-24T03:29:17Z</time>
      </trkpt>
      <trkpt lat="47.257" lon="4.91796">
        <ele>506</ele>
        <time>2018-09-24T03:30:17Z</time>
      </trkpt>
      <trkpt lat="47.25684" lon="4.91836">
        <ele>508</ele>
        <time>2018-09-24T03:31:17Z</time>
      </trkpt>
      <trkpt lat="47.2568" lon="4.91844">
        <ele>508</ele>
        <time>2018-09-24T03:32:17Z</time>
      </trkpt>
      <trkpt lat="47.25666" lon="4.91876">
        <ele>510</ele>
        <time>2018-09-24T03:33:17Z</time>
      </trkpt>
      <trkpt lat="47.2566" lon="4.91898">
        <ele>511</ele>
        <time>2018-09-24T03:34:17Z</time>
      </trkpt>
      <trkpt lat="47.25663" lon="4.91911">
        <ele>511</ele>
        <time>2018-09-24T03:35:17Z</time>
      </trkpt>
      <trkpt lat="47.25686" lon="4.91927">
        <ele>511</ele>
        <time>2018-09-24T03:36:17Z</time>
      </trkpt>
      <trkpt lat="47.25691" lon="4.9193">
        <ele>512</ele>
        <time>2018-09-24T03:37:17Z</time>
      </trkpt>
      <trkpt lat="47.25702" lon="4.91935">
        <ele>512</ele>
        <time>2018-09-24T03:38:17Z</time>
      </trkpt>
      <trkpt lat="47.25731" lon="4.91953">
        <ele>513</ele>
        <time>2018-09-24T03:39:17Z</time>
      </trkpt>
      <trkpt lat="47.25737" lon="4.91957">
        <ele>513</ele>
        <time>2018-09-24T03:40:17Z</time>
      </trkpt>
      <trkpt lat="47.25746" lon="4.91965">
        <ele>514</ele>
        <time>2018-09-24T03:41:17Z</time>
      </trkpt>
      <trkpt lat="47.2575" lon="4.9197">
        <ele>514</ele>
        <time>2018-09-24T03:42:17Z</time>
      </trkpt>
      <trkpt lat="47.25761" lon="4.91985">
        <ele>515</ele>
        <time>2018-09-24T03:43:17Z</time>
      </trkpt>
      <trkpt lat="47.25775" lon="4.91998">
        <ele>515</ele>
        <time>2018-09-24T03:44:17Z</time>
      </trkpt>
      <trkpt lat="47.25788" lon="4.9201">
        <ele>515</ele>
        <time>2018-09-24T03:45:17Z</time>
      </trkpt>
      <trkpt lat="47.25802" lon="4.92021">
        <ele>515</ele>
        <time>2018-09-24T03:46:17Z</time>
      </trkpt>
      <trkpt lat="47.25819" lon="4.92036">
        <ele>515</ele>
        <time>2018-09-24T03:47:17Z</time>
      </trkpt>
      <trkpt lat="47.25835" lon="4.92056">
        <ele>515</ele>
        <time>2018-09-24T03:48:17Z</time>
      </trkpt>
      <trkpt lat="47.25839" lon="4.92061">
        <ele>514</ele>
        <time>2018-09-24T03:49:17Z</time>
      </trkpt>
      <trkpt lat="47.25847" lon="4.92067">
        <ele>514</ele>
        <time>2018-09-24T03:50:17Z</time>
      </trkpt>
      <trkpt lat="47.25863" lon="4.92079">
        <ele>514</ele>
        <time>2018-09-24T03:51:17Z</time>
      </trkpt>
      <trkpt lat="47.25877" lon="4.92086">
        <ele>513</ele>
        <time>2018-09-24T03:52:17Z</time>
      </trkpt>
      <trkpt lat="47.25884" lon="4.92092">
        <ele>513</ele>
        <time>2018-09-24T03:53:17Z</time>
      </trkpt>
      <trkpt lat="47.25886" lon="4.92103">
        <ele>512</ele>
        <time>2018-09-24T03:54:17Z</time>
      </trkpt>
      <trkpt lat="47.25887" lon="4.92116">
        <ele>512</ele>
        <time>2018-09-24T03:55:17Z</time>
      </trkpt>
      <trkpt lat="47.25891" lon="4.92142">
        <ele>512</ele>
        <time>2018-09-24T03:56:17Z</time>
      </trkpt>
      <trkpt lat="47.25891" lon="4.92148">
        <ele>512</ele>
        <time>2018-09-24T03:57:17Z</time>
      </trkpt>
      <trkpt lat="47.2589" lon="4.92172">
        <ele>512</ele>
        <time>2018-09-24T03:58:17Z</time>
      </trkpt>
      <trkpt lat="47.2589" lon="4.92178">
        <ele>512</ele>
        <time>2018-09-24T03:59:17Z</time>
      </trkpt>
      <trkpt lat="47.25888" lon="4.92201">
        <ele>513</ele>
        <time>2018-09-24T04:00:17Z</time>
      </trkpt>
      <trkpt lat="47.25887" lon="4.92227">
        <ele>513</ele>
        <time>2018-09-24T04:01:17Z</time>
      </trkpt>
      <trkpt lat="47.25886" lon="4.92238">
        <ele>513</ele>
        <time>2018-09-24T04:02:17Z</time>
      </trkpt>
      <trkpt lat="47.25886" lon="4.92294">
        <ele>514</ele>
        <time>2018-09-24T04:03:17Z</time>
      </trkpt>
      <trkpt lat="47.25885" lon="4.9233">
        <ele>514</ele>
        <time>2018-09-24T04:04:17Z</time>
      </trkpt>
      <trkpt lat="47.25884" lon="4.92337">
        <ele>515</ele>
        <time>2018-09-24T04:05:17Z</time>
      </trkpt>
      <trkpt lat="47.25883" lon="4.92351">
        <ele>515</ele>
        <time>2018-09-24T04:06:17Z</time>
      </trkpt>
      <trkpt lat="47.25882" lon="4.92386">
        <ele>517</ele>
        <time>2018-09-24T04:07:17Z</time>
      </trkpt>
      <trkpt lat="47.25882" lon="4.92399">
        <ele>517</ele>
        <time>2018-09-24T04:08:17Z</time>
      </trkpt>
      <trkpt lat="47.25878" lon="4.92446">
        <ele>519</ele>
        <time>2018-09-24T04:09:17Z</time>
      </trkpt>
      <trkpt lat="47.25876" lon="4.92464">
        <ele>520</ele>
        <time>2018-09-24T04:10:17Z</time>
      </trkpt>
      <trkpt lat="47.25876" lon="4.92471">
        <ele>520</ele>
        <time>2018-09-24T04:11:17Z</time>
      </trkpt>
      <trkpt lat="47.25875" lon="4.92502">
        <ele>521</ele>
        <time>2018-09-24T04:12:17Z</time>
      </trkpt>
      <trkpt lat="47.25868" lon="4.92559">
        <ele>526</ele>
        <time>2018-09-24T04:13:17Z</time>
      </trkpt>
      <trkpt lat="47.25865" lon="4.92572">
        <ele>527</ele>
        <time>2018-09-24T04:14:17Z</time>
      </trkpt>
      <trkpt lat="47.25866" lon="4.92576">
        <ele>527</ele>
        <time>2018-09-24T04:15:17Z</time>
      </trkpt>
      <trkpt lat="47.25873" lon="4.92595">
        <ele>528</ele>
        <time>2018-09-24T04:16:17Z</time>
      </trkpt>
      <trkpt lat="47.25879" lon="4.92604">
        <ele>528</ele>
        <time>2018-09-24T04:17:17Z</time>
      </trkpt>
      <trkpt lat="47.25881" lon="4.92606">
        <ele>528</ele>
        <time>2018-09-24T04:18:17Z</time>
      </trkpt>
      <trkpt lat="47.25886" lon="4.92608">
        <ele>528</ele>
        <time>2018-09-24T04:19:17Z</time>
      </trkpt>
      <trkpt lat="47.25893" lon="4.92607">
        <ele>527</ele>
        <time>2018-09-24T04:20:17Z</time>
      </trkpt>
      <trkpt lat="47.25896" lon="4.92603">
        <ele>527</ele>
        <time>2018-09-24T04:21:17Z</time>
      </trkpt>
      <trkpt lat="47.25899" lon="4.92591">
        <ele>526</ele>
        <time>2018-09-24T04:22:17Z</time>
      </trkpt>
      <trkpt lat="47.259" lon="4.92584">
        <ele>526</ele>
        <time>2018-09-24T04:23:17Z</time>
      </trkpt>
      <trkpt lat="47.25907" lon="4.92565">
        <ele>524</ele>
        <time>2018-09-24T04:24:17Z</time>
      </trkpt>
      <trkpt lat="47.25917" lon="4.92567">
        <ele>524</ele>
        <time>2018-09-24T04:25:17Z</time>
      </trkpt>
      <trkpt lat="47.25928" lon="4.92568">
        <ele>524</ele>
        <time>2018-09-24T04:26:17Z</time>
      </trkpt>
      <trkpt lat="47.25961" lon="4.92569">
        <ele>525</ele>
        <time>2018-09-24T04:27:17Z</time>
      </trkpt>
      <trkpt lat="47.25965" lon="4.92568">
        <ele>525</ele>
        <time>2018-09-24T04:28:17Z</time>
      </trkpt>
      <trkpt lat="47.25974" lon="4.92569">
        <ele>526</ele>
        <time>2018-09-24T04:29:17Z</time>
      </trkpt>
      <trkpt lat="47.25978" lon="4.9257">
        <ele>526</ele>
        <time>2018-09-24T04:30:17Z</time>
      </trkpt>
      <trkpt lat="47.25982" lon="4.92569">
        <ele>526</ele>
        <time>2018-09-24T04:31:17Z</time>
      </trkpt>
      <trkpt lat="47.25995" lon="4.92568">
        <ele>526</ele>
        <time>2018-09-24T04:32:17Z</time>
      </trkpt>
      <trkpt lat="47.2601" lon="4.92572">
        <ele>527</ele>
        <time>2018-09-24T04:33:17Z</time>
      </trkpt>
      <trkpt lat="47.26018" lon="4.92573">
        <ele>527</ele>
        <time>2018-09-24T04:34:17Z</time>
      </trkpt>
      <trkpt lat="47.26035" lon="4.92571">
        <ele>527</ele>
        <time>2018-09-24T04:35:17Z</time>
      </trkpt>
      <trkpt lat="47.26085" lon="4.92573">
        <ele>528</ele>
        <time>2018-09-24T04:36:17Z</time>
      </trkpt>
      <trkpt lat="47.26108" lon="4.92573">
        <ele>528</ele>
        <time>2018-09-24T04:37:17Z</time>
      </trkpt>
      <trkpt lat="47.26137" lon="4.92573">
        <ele>528</ele>
        <time>2018-09-24T04:38:17Z</time>
      </trkpt>
      <trkpt lat="47.26164" lon="4.92571">
        <ele>527</ele>
        <time>2018-09-24T04:39:17Z</time>
      </trkpt>
      <trkpt lat="47.26169" lon="4.92569">
        <ele>527</ele>
        <time>2018-09-24T04:40:17Z</time>
      </trkpt>
      <trkpt lat="47.26174" lon="4.92558">
        <ele>526</ele>
        <time>2018-09-24T04:41:17Z</time>
      </trkpt>
      <trkpt lat="47.26177" lon="4.92518">
        <ele>524</ele>
        <time>2018-09-24T04:42:17Z</time>
      </trkpt>
      <trkpt lat="47.26186" lon="4.92512">
        <ele>523</ele>
        <time>2018-09-24T04:43:17Z</time>
      </trkpt>
      <trkpt lat="47.26194" lon="4.92513">
        <ele>523</ele>
        <time>2018-09-24T04:44:17Z</time>
      </trkpt>
      <trkpt lat="47.2628" lon="4.92516">
        <ele>522</ele>
        <time>2018-09-24T04:45:17Z</time>
      </trkpt>
      <trkpt lat="47.26309" lon="4.92517">
        <ele>521</ele>
        <time>2018-09-24T04:46:17Z</time>
      </trkpt>
      <trkpt lat="47.26387" lon="4.92516">
        <ele>518</ele>
        <time>2018-09-24T04:47:17Z</time>
      </trkpt>
      <trkpt lat="47.26394" lon="4.92515">
        <ele>517</ele>
        <time>2018-09-24T04:48:17Z</time>
      </trkpt>
      <trkpt lat="47.26401" lon="4.92516">
        <ele>517</ele>
        <time>2018-09-24T04:49:17Z</time>
      </trkpt>
      <trkpt lat="47.26464" lon="4.92517">
        <ele>516</ele>
        <time>2018-09-24T04:50:17Z</time>
      </trkpt>
      <trkpt lat="47.26482" lon="4.92518">
        <ele>516</ele>
        <time>2018-09-24T04:51:17Z</time>
      </trkpt>
      <trkpt lat="47.26487" lon="4.92523">
        <ele>516</ele>
        <time>2018-09-24T04:52:17Z</time>
      </trkpt>
      <trkpt lat="47.26488" lon="4.92526">
        <ele>516</ele>
        <time>2018-09-24T04:53:17Z</time>
      </trkpt>
      <trkpt lat="47.26492" lon="4.92533">
        <ele>517</ele>
        <time>2018-09-24T04:54:17Z</time>
      </trkpt>
      <trkpt lat="47.26495" lon="4.92556">
        <ele>518</ele>
        <time>2018-09-24T04:55:17Z</time>
      </trkpt>
      <trkpt lat="47.26497" lon="4.92585">
        <ele>519</ele>
        <time>2018-09-24T04:56:17Z</time>
      </trkpt>
      <trkpt lat="47.26494" lon="4.92606">
        <ele>520</ele>
        <time>2018-09-24T04:57:17Z</time>
      </trkpt>
      <trkpt lat="47.26486" lon="4.92656">
        <ele>521</ele>
        <time>2018-09-24T04:58:17Z</time>
      </trkpt>
      <trkpt lat="47.26484" lon="4.92667">
        <ele>521</ele>
        <time>2018-09-24T04:59:17Z</time>
      </trkpt>
      <trkpt lat="47.2648" lon="4.92709">
        <ele>522</ele>
        <time>2018-09-24T05:00:17Z</time>
      </trkpt>
      <trkpt lat="47.26478" lon="4.92727">
        <ele>523</ele>
        <time>2018-09-24T05:01:17Z</time>
      </trkpt>
      <trkpt lat="47.26463" lon="4.92828">
        <ele>525</ele>
        <time>2018-09-24T05:02:17Z</time>
      </trkpt>
      <trkpt lat="47.26462" lon="4.92861">
        <ele>525</ele>
        <time>2018-09-24T05:03:17Z</time>
      </trkpt>
      <trkpt lat="47.26464" lon="4.92864">
        <ele>525</ele>
        <time>2018-09-24T05:04:17Z</time>
      </trkpt>
      <trkpt lat="47.26468" lon="4.92866">
        <ele>525</ele>
        <time>2018-09-24T05:05:17Z</time>
      </trkpt>
      <trkpt lat="47.26469" lon="4.92868">
        <ele>525</ele>
        <time>2018-09-24T05:06:17Z</time>
      </trkpt>
      <trkpt lat="47.26473" lon="4.92875">
        <ele>526</ele>
        <time>2018-09-24T05:07:17Z</time>
      </trkpt>
      <trkpt lat="47.26478" lon="4.92887">
        <ele>526</ele>
        <time>2018-09-24T05:08:17Z</time>
      </trkpt>
      <trkpt lat="47.26479" lon="4.92891">
        <ele>526</ele>
        <time>2018-09-24T05:09:17Z</time>
      </trkpt>
      <trkpt lat="47.26481" lon="4.92895">
        <ele>526</ele>
        <time>2018-09-24T05:10:17Z</time>
      </trkpt>
      <trkpt lat="47.26486" lon="4.92899">
        <ele>527</ele>
        <time>2018-09-24T05:11:17Z</time>
      </trkpt>
      <trkpt lat="47.265" lon="4.92905">
        <ele>528</ele>
        <time>2018-09-24T05:12:17Z</time>
      </trkpt>
      <trkpt lat="47.26506" lon="4.92911">
        <ele>529</ele>
        <time>2018-09-24T05:13:17Z</time>
      </trkpt>
      <trkpt lat="47.2651" lon="4.92921">
        <ele>529</ele>
        <time>2018-09-24T05:14:17Z</time>
      </trkpt>
      <trkpt lat="47.26512" lon="4.92925">
        <ele>529</ele>
        <time>2018-09-24T05:15:17Z</time>
      </trkpt>
      <trkpt lat="47.2652" lon="4.92932">
        <ele>530</ele>
        <time>2018-09-24T05:16:17Z</time>
      </trkpt>
      <trkpt lat="47.26522" lon="4.92932">
        <ele>530</ele>
        <time>2018-09-24T05:17:17Z</time>
      </trkpt>
      <trkpt lat="47.2653" lon="4.92936">
        <ele>531</ele>
        <time>2018-09-24T05:18:17Z</time>
      </trkpt>
      <trkpt lat="47.26532" lon="4.92938">
        <ele>531</ele>
        <time>2018-09-24T05:19:17Z</time>
      </trkpt>
      <trkpt lat="47.26534" lon="4.92939">
        <ele>532</ele>
        <time>2018-09-24T05:20:17Z</time>
      </trkpt>
      <trkpt lat="47.26536" lon="4.92939">
        <ele>532</ele>
        <time>2018-09-24T05:21:17Z</time>
      </trkpt>
      <trkpt lat="47.26541" lon="4.9294">
        <ele>532</ele>
        <time>2018-09-24T05:22:17Z</time>
      </trkpt>
      <trkpt lat="47.26548" lon="4.92951">
        <ele>533</ele>
        <time>2018-09-24T05:23:17Z</time>
      </trkpt>
      <trkpt lat="47.26551" lon="4.92955">
        <ele>533</ele>
        <time>2018-09-24T05:24:17Z</time>
      </trkpt>
      <trkpt lat="47.26555" lon="4.92966">
        <ele>533</ele>
        <time>2018-09-24T05:25:17Z</time>
      </trkpt>
      <trkpt lat="47.26556" lon="4.92968">
        <ele>533</ele>
        <time>2018-09-24T05:26:17Z</time>
      </trkpt>
      <trkpt lat="47.26562" lon="4.92972">
        <ele>534</ele>
        <time>2018-09-24T05:27:17Z</time>
      </trkpt>
      <trkpt lat="47.26566" lon="4.92978">
        <ele>534</ele>
        <time>2018-09-24T05:28:17Z</time>
      </trkpt>
      <trkpt lat="47.26567" lon="4.9298">
        <ele>534</ele>
        <time>2018-09-24T05:29:17Z</time>
      </trkpt>
      <trkpt lat="47.26577" lon="4.92989">
        <ele>535</ele>
        <time>2018-09-24T05:30:17Z</time>
      </trkpt>
      <trkpt lat="47.26583" lon="4.92995">
        <ele>535</ele>
        <time>2018-09-24T05:31:17Z</time>
      </trkpt>
      <trkpt lat="47.26586" lon="4.93001">
        <ele>535</ele>
        <time>2018-09-24T05:32:17Z</time>
      </trkpt>
      <trkpt lat="47.2659" lon="4.93005">
        <ele>536</ele>
        <time>2018-09-24T05:33:17Z</time>
      </trkpt>
      <trkpt lat="47.26594" lon="4.93006">
        <ele>536</ele>
        <time>2018-09-24T05:34:17Z</time>
      </trkpt>
      <trkpt lat="47.26603" lon="4.93005">
        <ele>537</ele>
        <time>2018-09-24T05:35:17Z</time>
      </trkpt>
      <trkpt lat="47.26604" lon="4.93004">
        <ele>537</ele>
        <time>2018-09-24T05:36:17Z</time>
      </trkpt>
      <trkpt lat="47.26607" lon="4.92998">
        <ele>537</ele>
        <time>2018-09-24T05:37:17Z</time>
      </trkpt>
      <trkpt lat="47.26611" lon="4.92994">
        <ele>538</ele>
        <time>2018-09-24T05:38:17Z</time>
      </trkpt>
      <trkpt lat="47.26615" lon="4.92991">
        <ele>539</ele>
        <time>2018-09-24T05:39:17Z</time>
      </trkpt>
      <trkpt lat="47.26615" lon="4.9299">
        <ele>539</ele>
        <time>2018-09-24T05:40:17Z</time>
      </trkpt>
      <trkpt lat="47.26616" lon="4.92986">
        <ele>539</ele>
        <time>2018-09-24T05:41:17Z</time>
      </trkpt>
      <trkpt lat="47.26614" lon="4.92981">
        <ele>539</ele>
        <time>2018-09-24T05:42:17Z</time>
      </trkpt>
      <trkpt lat="47.26611" lon="4.92974">
        <ele>539</ele>
        <time>2018-09-24T05:43:17Z</time>
      </trkpt>
      <trkpt lat="47.26609" lon="4.92961">
        <ele>540</ele>
        <time>2018-09-24T05:44:17Z</time>
      </trkpt>
      <trkpt lat="47.26609" lon="4.92961">
        <ele>540</ele>
        <time>2018-09-24T05:45:17Z</time>
      </trkpt>
      <trkpt lat="47.26597" lon="4.92945">
        <ele>539</ele>
        <time>2018-09-24T05:46:17Z</time>
      </trkpt>
      <trkpt lat="47.26589" lon="4.92923">
        <ele>539</ele>
        <time>2018-09-24T05:47:17Z</time>
      </trkpt>
      <trkpt lat="47.26589" lon="4.92907">
        <ele>539</ele>
        <time>2018-09-24T05:48:17Z</time>
      </trkpt>
      <trkpt lat="47.2659" lon="4.92892">
        <ele>539</ele>
        <time>2018-09-24T05:49:17Z</time>
      </trkpt>
      <trkpt lat="47.26591" lon="4.92867">
        <ele>540</ele>
        <time>2018-09-24T05:50:17Z</time>
      </trkpt>
      <trkpt lat="47.2659" lon="4.92861">
        <ele>539</ele>
        <time>2018-09-24T05:51:17Z</time>
      </trkpt>
      <trkpt lat="47.2659" lon="4.92838">
        <ele>540</ele>
        <time>2018-09-24T05:52:17Z</time>
      </trkpt>
      <trkpt lat="47.26589" lon="4.92829">
        <ele>539</ele>
        <time>2018-09-24T05:53:17Z</time>
      </trkpt>
      <trkpt lat="47.26588" lon="4.92802">
        <ele>538</ele>
        <time>2018-09-24T05:54:17Z</time>
      </trkpt>
      <trkpt lat="47.26594" lon="4.92779">
        <ele>539</ele>
        <time>2018-09-24T05:55:17Z</time>
      </trkpt>
      <trkpt lat="47.26593" lon="4.92762">
        <ele>538</ele>
        <time>2018-09-24T05:56:17Z</time>
      </trkpt>
      <trkpt lat="47.26595" lon="4.92737">
        <ele>538</ele>
        <time>2018-09-24T05:57:17Z</time>
      </trkpt>
      <trkpt lat="47.26596" lon="4.92731">
        <ele>538</ele>
        <time>2018-09-24T05:58:17Z</time>
      </trkpt>
      <trkpt lat="47.26603" lon="4.9271">
        <ele>539</ele>
        <time>2018-09-24T05:59:17Z</time>
      </trkpt>
      <trkpt lat="47.26606" lon="4.92704">
        <ele>539</ele>
        <time>2018-09-24T06:00:17Z</time>
      </trkpt>
      <trkpt lat="47.26608" lon="4.92698">
        <ele>539</ele>
        <time>2018-09-24T06:01:17Z</time>
      </trkpt>
      <trkpt lat="47.26611" lon="4.92687">
        <ele>539</ele>
        <time>2018-09-24T06:02:17Z</time>
      </trkpt>
      <trkpt lat="47.26623" lon="4.92657">
        <ele>540</ele>
        <time>2018-09-24T06:03:17Z</time>
      </trkpt>
      <trkpt lat="47.26626" lon="4.92652">
        <ele>540</ele>
        <time>2018-09-24T06:04:17Z</time>
      </trkpt>
      <trkpt lat="47.26632" lon="4.92632">
        <ele>541</ele>
        <time>2018-09-24T06:05:17Z</time>
      </trkpt>
      <trkpt lat="47.2664" lon="4.92611">
        <ele>541</ele>
        <time>2018-09-24T06:06:17Z</time>
      </trkpt>
      <trkpt lat="47.26642" lon="4.92606">
        <ele>541</ele>
        <time>2018-09-24T06:07:17Z</time>
      </trkpt>
      <trkpt lat="47.26644" lon="4.92593">
        <ele>541</ele>
        <time>2018-09-24T06:08:17Z</time>
      </trkpt>
      <trkpt lat="47.26646" lon="4.92586">
        <ele>541</ele>
        <time>2018-09-24T06:09:17Z</time>
      </trkpt>
      <trkpt lat="47.26649" lon="4.92581">
        <ele>541</ele>
        <time>2018-09-24T06:10:17Z</time>
      </trkpt>
      <trkpt lat="47.26654" lon="4.9257">
        <ele>542</ele>
        <time>2018-09-24T06:11:17Z</time>
      </trkpt>
      <trkpt lat="47.26653" lon="4.92565">
        <ele>541</ele>
        <time>2018-09-24T06:12:17Z</time>
      </trkpt>
      <trkpt lat="47.26654" lon="4.92528">
        <ele>541</ele>
        <time>2018-09-24T06:13:17Z</time>
      </trkpt>
      <trkpt lat="47.26656" lon="4.9252">
        <ele>542</ele>
        <time>2018-09-24T06:14:17Z</time>
      </trkpt>
      <trkpt lat="47.26655" lon="4.92503">
        <ele>541</ele>
        <time>2018-09-24T06:15:17Z</time>
      </trkpt>
      <trkpt lat="47.26651" lon="4.92488">
        <ele>541</ele>
        <time>2018-09-24T06:16:17Z</time>
      </trkpt>
      <trkpt lat="47.2665" lon="4.9248">
        <ele>541</ele>
        <time>2018-09-24T06:17:17Z</time>
      </trkpt>
      <trkpt lat="47.26652" lon="4.92431">
        <ele>543</ele>
        <time>2018-09-24T06:18:17Z</time>
      </trkpt>
      <trkpt lat="47.26652" lon="4.92424">
        <ele>543</ele>
        <time>2018-09-24T06:19:17Z</time>
      </trkpt>
      <trkpt lat="47.26641" lon="4.9238">
        <ele>544</ele>
        <time>2018-09-24T06:20:17Z</time>
      </trkpt>
      <trkpt lat="47.26635" lon="4.92363">
        <ele>543</ele>
        <time>2018-09-24T06:21:17Z</time>
      </trkpt>
      <trkpt lat="47.26632" lon="4.92343">
        <ele>544</ele>
        <time>2018-09-24T06:22:17Z</time>
      </trkpt>
      <trkpt lat="47.26629" lon="4.9233">
        <ele>544</ele>
        <time>2018-09-24T06:23:17Z</time>
      </trkpt>
      <trkpt lat="47.26625" lon="4.92295">
        <ele>545</ele>
        <time>2018-09-24T06:24:17Z</time>
      </trkpt>
      <trkpt lat="47.26621" lon="4.92274">
        <ele>546</ele>
        <time>2018-09-24T06:25:17Z</time>
      </trkpt>
      <trkpt lat="47.26618" lon="4.9226">
        <ele>546</ele>
        <time>2018-09-24T06:26:17Z</time>
      </trkpt>
      <trkpt lat="47.26609" lon="4.92233">
        <ele>546</ele>
        <time>2018-09-24T06:27:17Z</time>
      </trkpt>
      <trkpt lat="47.26602" lon="4.9222">
        <ele>546</ele>
        <time>2018-09-24T06:28:17Z</time>
      </trkpt>
      <trkpt lat="47.26599" lon="4.92213">
        <ele>546</ele>
        <time>2018-09-24T06:29:17Z</time>
      </trkpt>
      <trkpt lat="47.26585" lon="4.9219">
        <ele>544</ele>
        <time>2018-09-24T06:30:17Z</time>
      </trkpt>
      <trkpt lat="47.26576" lon="4.92173">
        <ele>545</ele>
        <time>2018-09-24T06:31:17Z</time>
      </trkpt>
      <trkpt lat="47.26569" lon="4.92158">
        <ele>545</ele>
        <time>2018-09-24T06:32:17Z</time>
      </trkpt>
      <trkpt lat="47.26561" lon="4.92142">
        <ele>545</ele>
        <time>2018-09-24T06:33:17Z</time>
      </trkpt>
      <trkpt lat="47.26556" lon="4.92133">
        <ele>545</ele>
        <time>2018-09-24T06:34:17Z</time>
      </trkpt>
      <trkpt lat="47.26553" lon="4.92124">
        <ele>545</ele>
        <time>2018-09-24T06:35:17Z</time>
      </trkpt>
      <trkpt lat="47.26539" lon="4.92096">
        <ele>545</ele>
        <time>2018-09-24T06:36:17Z</time>
      </trkpt>
      <trkpt lat="47.26536" lon="4.92086">
        <ele>546</ele>
        <time>2018-09-24T06:37:17Z</time>
      </trkpt>
      <trkpt lat="47.26534" lon="4.92078">
        <ele>546</ele>
        <time>2018-09-24T06:38:17Z</time>
      </trkpt>
      <trkpt lat="47.26525" lon="4.92043">
        <ele>547</ele>
        <time>2018-09-24T06:39:17Z</time>
      </trkpt>
      <trkpt lat="47.26517" lon="4.92015">
        <ele>548</ele>
        <time>2018-09-24T06:40:17Z</time>
      </trkpt>
      <trkpt lat="47.26512" lon="4.92007">
        <ele>547</ele>
        <time>2018-09-24T06:41:17Z</time>
      </trkpt>
      <trkpt lat="47.26497" lon="4.91983">
        <ele>545</ele>
        <time>2018-09-24T06:42:17Z</time>
      </trkpt>
      <trkpt lat="47.26492" lon="4.91966">
        <ele>545</ele>
        <time>2018-09-24T06:43:17Z</time>
      </trkpt>
      <trkpt lat="47.2649" lon="4.91958">
        <ele>545</ele>
        <time>2018-09-24T06:44:17Z</time>
      </trkpt>
      <trkpt lat="47.26486" lon="4.91935">
        <ele>545</ele>
        <time>2018-09-24T06:45:17Z</time>
      </trkpt>
      <trkpt lat="47.26481" lon="4.91899">
        <ele>545</ele>
        <time>2018-09-24T06:46:17Z</time>
      </trkpt>
      <trkpt lat="47.26477" lon="4.91865">
        <ele>545</ele>
        <time>2018-09-24T06:47:17Z</time>
      </trkpt>
      <trkpt lat="47.26476" lon="4.91848">
        <ele>544</ele>
        <time>2018-09-24T06:48:17Z</time>
      </trkpt>
      <trkpt lat="47.26477" lon="4.91816">
        <ele>544</ele>
        <time>2018-09-24T06:49:17Z</time>
      </trkpt>
      <trkpt lat="47.26477" lon="4.91809">
        <ele>543</ele>
        <time>2018-09-24T06:50:17Z</time>
      </trkpt>
      <trkpt lat="47.26477" lon="4.91808">
        <ele>543</ele>
        <time>2018-09-24T06:51:17Z</time>
      </trkpt>
      <trkpt lat="47.26476" lon="4.91801">
        <ele>543</ele>
        <time>2018-09-24T06:52:17Z</time>
      </trkpt>
      <trkpt lat="47.26478" lon="4.91793">
        <ele>543</ele>
        <time>2018-09-24T06:53:17Z</time>
      </trkpt>
      <trkpt lat="47.26482" lon="4.9178">
        <ele>543</ele>
        <time>2018-09-24T06:54:17Z</time>
      </trkpt>
      <trkpt lat="47.26486" lon="4.91764">
        <ele>543</ele>
        <time>2018-09-24T06:55:17Z</time>
      </trkpt>
      <trkpt lat="47.26496" lon="4.9173">
        <ele>541</ele>
        <time>2018-09-24T06:56:17Z</time>
      </trkpt>
      <trkpt lat="47.265" lon="4.91722">
        <ele>541</ele>
        <time>2018-09-24T06:57:17Z</time>
      </trkpt>
      <trkpt lat="47.26508" lon="4.91706">
        <ele>540</ele>
        <time>2018-09-24T06:58:17Z</time>
      </trkpt>
      <trkpt lat="47.26518" lon="4.91693">
        <ele>540</ele>
        <time>2018-09-24T06:59:17Z</time>
      </trkpt>
      <trkpt lat="47.26531" lon="4.91668">
        <ele>538</ele>
        <time>2018-09-24T07:00:17Z</time>
      </trkpt>
      <trkpt lat="47.26555" lon="4.91642">
        <ele>538</ele>
        <time>2018-09-24T07:01:17Z</time>
      </trkpt>
      <trkpt lat="47.26562" lon="4.91637">
        <ele>538</ele>
        <time>2018-09-24T07:02:17Z</time>
      </trkpt>
      <trkpt lat="47.26574" lon="4.9163">
        <ele>538</ele>
        <time>2018-09-24T07:03:17Z</time>
      </trkpt>
      <trkpt lat="47.26586" lon="4.91627">
        <ele>539</ele>
        <time>2018-09-24T07:04:17Z</time>
      </trkpt>
      <trkpt lat="47.26616" lon="4.91619">
        <ele>540</ele>
        <time>2018-09-24T07:05:17Z</time>
      </trkpt>
      <trkpt lat="47.26634" lon="4.9161">
        <ele>540</ele>
        <time>2018-09-24T07:06:17Z</time>
      </trkpt>
      <trkpt lat="47.26646" lon="4.91605">
        <ele>540</ele>
        <time>2018-09-24T07:07:17Z</time>
      </trkpt>
      <trkpt lat="47.26658" lon="4.91599">
        <ele>539</ele>
        <time>2018-09-24T07:08:17Z</time>
      </trkpt>
      <trkpt lat="47.26682" lon="4.91588">
        <ele>538</ele>
        <time>2018-09-24T07:09:17Z</time>
      </trkpt>
      <trkpt lat="47.26732" lon="4.91577">
        <ele>535</ele>
        <time>2018-09-24T07:10:17Z</time>
      </trkpt>
      <trkpt lat="47.26737" lon="4.91568">
        <ele>533</ele>
        <time>2018-09-24T07:11:17Z</time>
      </trkpt>
      <trkpt lat="47.26738" lon="4.91551">
        <ele>530</ele>
        <time>2018-09-24T07:12:17Z</time>
      </trkpt>
      <trkpt lat="47.26735" lon="4.91487">
        <ele>518</ele>
        <time>2018-09-24T07:13:17Z</time>
      </trkpt>
      <trkpt lat="47.26734" lon="4.91473">
        <ele>516</ele>
        <time>2018-09-24T07:14:17Z</time>
      </trkpt>
      <trkpt lat="47.26733" lon="4.91459">
        <ele>514</ele>
        <time>2018-09-24T07:15:17Z</time>
      </trkpt>
      <trkpt lat="47.26733" lon="4.91444">
        <ele>513</ele>
        <time>2018-09-24T07:16:17Z</time>
      </trkpt>
      <trkpt lat="47.26731" lon="4.91398">
        <ele>508</ele>
        <time>2018-09-24T07:17:17Z</time>
      </trkpt>
      <trkpt lat="47.2673" lon="4.91366">
        <ele>505</ele>
        <time>2018-09-24T07:18:17Z</time>
      </trkpt>
      <trkpt lat="47.26731" lon="4.9135">
        <ele>504</ele>
        <time>2018-09-24T07:19:17Z</time>
      </trkpt>
      <trkpt lat="47.26731" lon="4.91335">
        <ele>503</ele>
        <time>2018-09-24T07:20:17Z</time>
      </trkpt>
      <trkpt lat="47.26731" lon="4.91321">
        <ele>502</ele>
        <time>2018-09-24T07:21:17Z</time>
      </trkpt>
      <trkpt lat="47.26732" lon="4.91276">
        <ele>501</ele>
        <time>2018-09-24T07:22:17Z</time>
      </trkpt>
      <trkpt lat="47.26733" lon="4.91262">
        <ele>500</ele>
        <time>2018-09-24T07:23:17Z</time>
      </trkpt>
      <trkpt lat="47.26734" lon="4.91236">
        <ele>499</ele>
        <time>2018-09-24T07:24:17Z</time>
      </trkpt>
      <trkpt lat="47.26734" lon="4.91225">
        <ele>498</ele>
        <time>2018-09-24T07:25:17Z</time>
      </trkpt>
      <trkpt lat="47.26736" lon="4.91169">
        <ele>493</ele>
        <time>2018-09-24T07:26:17Z</time>
      </trkpt>
      <trkpt lat="47.26736" lon="4.91161">
        <ele>492</ele>
        <time>2018-09-24T07:27:17Z</time>
      </trkpt>
      <trkpt lat="47.26737" lon="4.91155">
        <ele>492</ele>
        <time>2018-09-24T07:28:17Z</time>
      </trkpt>
      <trkpt lat="47.26739" lon="4.91149">
        <ele>491</ele>
        <time>2018-09-24T07:29:17Z</time>
      </trkpt>
      <trkpt lat="47.26738" lon="4.9111">
        <ele>489</ele>
        <time>2018-09-24T07:30:17Z</time>
      </trkpt>
      <trkpt lat="47.26738" lon="4.91097">
        <ele>488</ele>
        <time>2018-09-24T07:31:17Z</time>
      </trkpt>
      <trkpt lat="47.26741" lon="4.91055">
        <ele>483</ele>
        <time>2018-09-24T07:32:17Z</time>
      </trkpt>
      <trkpt lat="47.26742" lon="4.91043">
        <ele>482</ele>
        <time>2018-09-24T07:33:17Z</time>
      </trkpt>
      <trkpt lat="47.26753" lon="4.90964">
        <ele>471</ele>
        <time>2018-09-24T07:34:17Z</time>
      </trkpt>
      <trkpt lat="47.26754" lon="4.90954">
        <ele>470</ele>
        <time>2018-09-24T07:35:17Z</time>
      </trkpt>
      <trkpt lat="47.26758" lon="4.90922">
        <ele>467</ele>
        <time>2018-09-24T07:36:17Z</time>
      </trkpt>
      <trkpt lat="47.26759" lon="4.90912">
        <ele>465</ele>
        <time>2018-09-24T07:37:17Z</time>
      </trkpt>
      <trkpt lat="47.26764" lon="4.9089">
        <ele>462</ele>
        <time>2018-09-24T07:38:17Z</time>
      </trkpt>
      <trkpt lat="47.26766" lon="4.90885">
        <ele>461</ele>
        <time>2018-09-24T07:39:17Z</time>
      </trkpt>
      <trkpt lat="47.26769" lon="4.90882">
        <ele>461</ele>
        <time>2018-09-24T07:40:17Z</time>
      </trkpt>
      <trkpt lat="47.26774" lon="4.90881">
        <ele>461</ele>
        <time>2018-09-24T07:41:17Z</time>
      </trkpt>
      <trkpt lat="47.26777" lon="4.9088">
        <ele>461</ele>
        <time>2018-09-24T07:42:17Z</time>
      </trkpt>
      <trkpt lat="47.26791" lon="4.90878">
        <ele>461</ele>
        <time>2018-09-24T07:43:17Z</time>
      </trkpt>
      <trkpt lat="47.26793" lon="4.90877">
        <ele>461</ele>
        <time>2018-09-24T07:44:17Z</time>
      </trkpt>
      <trkpt lat="47.26802" lon="4.90877">
        <ele>461</ele>
        <time>2018-09-24T07:45:17Z</time>
      </trkpt>
      <trkpt lat="47.26804" lon="4.90877">
        <ele>461</ele>
        <time>2018-09-24T07:46:17Z</time>
      </trkpt>
      <trkpt lat="47.26812" lon="4.90875">
        <ele>461</ele>
        <time>2018-09-24T07:47:17Z</time>
      </trkpt>
      <trkpt lat="47.2682" lon="4.90872">
        <ele>461</ele>
        <time>2018-09-24T07:48:17Z</time>
      </trkpt>
      <trkpt lat="47.26826" lon="4.9087">
        <ele>461</ele>
        <time>2018-09-24T07:49:17Z</time>
      </trkpt>
      <trkpt lat="47.26859" lon="4.90867">
        <ele>460</ele>
        <time>2018-09-24T07:50:17Z</time>
      </trkpt>
      <trkpt lat="47.26888" lon="4.90865">
        <ele>460</ele>
        <time>2018-09-24T07:51:17Z</time>
      </trkpt>
      <trkpt lat="47.2692" lon="4.9086">
        <ele>459</ele>
        <time>2018-09-24T07:52:17Z</time>
      </trkpt>
      <trkpt lat="47.26931" lon="4.90857">
        <ele>457</ele>
        <time>2018-09-24T07:53:17Z</time>
      </trkpt>
      <trkpt lat="47.26948" lon="4.90855">
        <ele>455</ele>
        <time>2018-09-24T07:54:17Z</time>
      </trkpt>
      <trkpt lat="47.26957" lon="4.90855">
        <ele>454</ele>
        <time>2018-09-24T07:55:17Z</time>
      </trkpt>
      <trkpt lat="47.26964" lon="4.90854">
        <ele>453</ele>
        <time>2018-09-24T07:56:17Z</time>
      </trkpt>
      <trkpt lat="47.26967" lon="4.90853">
        <ele>453</ele>
        <time>2018-09-24T07:57:17Z</time>
      </trkpt>
      <trkpt lat="47.26972" lon="4.90851">
        <ele>452</ele>
        <time>2018-09-24T07:58:17Z</time>
      </trkpt>
      <trkpt lat="47.26976" lon="4.90849">
        <ele>451</ele>
        <time>2018-09-24T07:59:17Z</time>
      </trkpt>
      <trkpt lat="47.26993" lon="4.90849">
        <ele>449</ele>
        <time>2018-09-24T08:00:17Z</time>
      </trkpt>
      <trkpt lat="47.26999" lon="4.90848">
        <ele>448</ele>
        <time>2018-09-24T08:01:17Z</time>
      </trkpt>
      <trkpt lat="47.2701" lon="4.90846">
        <ele>446</ele>
        <time>2018-09-24T08:02:17Z</time>
      </trkpt>
      <trkpt lat="47.27014" lon="4.90846">
        <ele>446</ele>
        <time>2018-09-24T08:03:17Z</time>
      </trkpt>
      <trkpt lat="47.27025" lon="4.90841">
        <ele>444</ele>
        <time>2018-09-24T08:04:17Z</time>
      </trkpt>
      <trkpt lat="47.27031" lon="4.90839">
        <ele>443</ele>
        <time>2018-09-24T08:05:17Z</time>
      </trkpt>
      <trkpt lat="47.27047" lon="4.90836">
        <ele>440</ele>
        <time>2018-09-24T08:06:17Z</time>
      </trkpt>
      <trkpt lat="47.27051" lon="4.90834">
        <ele>439</ele>
        <time>2018-09-24T08:07:17Z</time>
      </trkpt>
      <trkpt lat="47.27065" lon="4.90833">
        <ele>437</ele>
        <time>2018-09-24T08:08:17Z</time>
      </trkpt>
      <trkpt lat="47.27068" lon="4.90832">
        <ele>437</ele>
        <time>2018-09-24T08:09:17Z</time>
      </trkpt>
      <trkpt lat="47.27072" lon="4.90831">
        <ele>436</ele>
        <time>2018-09-24T08:10:17Z</time>
      </trkpt>
      <trkpt lat="47.27077" lon="4.9083">
        <ele>435</ele>
        <time>2018-09-24T08:11:17Z</time>
      </trkpt>
      <trkpt lat="47.2709" lon="4.90828">
        <ele>433</ele>
        <time>2018-09-24T08:12:17Z</time>
      </trkpt>
      <trkpt lat="47.27104" lon="4.90827">
        <ele>432</ele>
        <time>2018-09-24T08:13:17Z</time>
      </trkpt>
      <trkpt lat="47.27109" lon="4.90828">
        <ele>432</ele>
        <time>2018-09-24T08:14:17Z</time>
      </trkpt>
      <trkpt lat="47.27119" lon="4.90829">
        <ele>431</ele>
        <time>2018-09-24T08:15:17Z</time>
      </trkpt>
      <trkpt lat="47.27125" lon="4.90827">
        <ele>430</ele>
        <time>2018-09-24T08:16:17Z</time>
      </trkpt>
      <trkpt lat="47.27136" lon="4.90826">
        <ele>429</ele>
        <time>2018-09-24T08:17:17Z</time>
      </trkpt>
      <trkpt lat="47.2715" lon="4.90826">
        <ele>427</ele>
        <time>2018-09-24T08:18:17Z</time>
      </trkpt>
      <trkpt lat="47.27161" lon="4.90827">
        <ele>426</ele>
        <time>2018-09-24T08:19:17Z</time>
      </trkpt>
      <trkpt lat="47.27175" lon="4.90825">
        <ele>424</ele>
        <time>2018-09-24T08:20:17Z</time>
      </trkpt>
      <trkpt lat="47.27187" lon="4.90824">
        <ele>421</ele>
        <time>2018-09-24T08:21:17Z</time>
      </trkpt>
      <trkpt lat="47.272" lon="4.90824">
        <ele>419</ele>
        <time>2018-09-24T08:22:17Z</time>
      </trkpt>
      <trkpt lat="47.27206" lon="4.90824">
        <ele>417</ele>
        <time>2018-09-24T08:23:17Z</time>
      </trkpt>
      <trkpt lat="47.27225" lon="4.90823">
        <ele>413</ele>
        <time>2018-09-24T08:24:17Z</time>
      </trkpt>
      <trkpt lat="47.27231" lon="4.90822">
        <ele>412</ele>
        <time>2018-09-24T08:25:17Z</time>
      </trkpt>
      <trkpt lat="47.27235" lon="4.90821">
        <ele>411</ele>
        <time>2018-09-24T08:26:17Z</time>
      </trkpt>
      <trkpt lat="47.27238" lon="4.90817">
        <ele>410</ele>
        <time>2018-09-24T08:27:17Z</time>
      </trkpt>
      <trkpt lat="47.27243" lon="4.90811">
        <ele>408</ele>
        <time>2018-09-24T08:28:17Z</time>
      </trkpt>
      <trkpt lat="47.27248" lon="4.90806">
        <ele>406</ele>
        <time>2018-09-24T08:29:17Z</time>
      </trkpt>
      <trkpt lat="47.27259" lon="4.90798">
        <ele>404</ele>
        <time>2018-09-24T08:30:17Z</time>
      </trkpt>
      <trkpt lat="47.27265" lon="4.90796">
        <ele>403</ele>
        <time>2018-09-24T08:31:17Z</time>
      </trkpt>
      <trkpt lat="47.27275" lon="4.90796">
        <ele>402</ele>
        <time>2018-09-24T08:32:17Z</time>
      </trkpt>
      <trkpt lat="47.27279" lon="4.90796">
        <ele>401</ele>
        <time>2018-09-24T08:33:17Z</time>
      </trkpt>
      <trkpt lat="47.27287" lon="4.90797">
        <ele>400</ele>
        <time>2018-09-24T08:34:17Z</time>
      </trkpt>
      <trkpt lat="47.2729" lon="4.90799">
        <ele>400</ele>
        <time>2018-09-24T08:35:17Z</time>
      </trkpt>
      <trkpt lat="47.273" lon="4.9082">
        <ele>400</ele>
        <time>2018-09-24T08:36:17Z</time>
      </trkpt>
      <trkpt lat="47.27301" lon="4.90821">
        <ele>400</ele>
        <time>2018-09-24T08:37:17Z</time>
      </trkpt>
      <trkpt lat="47.27305" lon="4.90817">
        <ele>399</ele>
        <time>2018-09-24T08:38:17Z</time>
      </trkpt>
      <trkpt lat="47.27307" lon="4.90814">
        <ele>399</ele>
        <time>2018-09-24T08:39:17Z</time>
      </trkpt>
      <trkpt lat="47.27309" lon="4.90812">
        <ele>398</ele>
        <time>2018-09-24T08:40:17Z</time>
      </trkpt>
      <trkpt lat="47.27321" lon="4.90806">
        <ele>396</ele>
        <time>2018-09-24T08:41:17Z</time>
      </trkpt>
      <trkpt lat="47.27324" lon="4.90813">
        <ele>396</ele>
        <time>2018-09-24T08:42:17Z</time>
      </trkpt>
      <trkpt lat="47.27332" lon="4.90823">
        <ele>395</ele>
        <time>2018-09-24T08:43:17Z</time>
      </trkpt>
      <trkpt lat="47.2733" lon="4.90846">
        <ele>396</ele>
        <time>2018-09-24T08:44:17Z</time>
      </trkpt>
      <trkpt lat="47.27331" lon="4.9087">
        <ele>397</ele>
        <time>2018-09-24T08:45:17Z</time>
      </trkpt>
      <trkpt lat="47.27339" lon="4.90894">
        <ele>399</ele>
        <time>2018-09-24T08:46:17Z</time>
      </trkpt>
      <trkpt lat="47.27344" lon="4.90913">
        <ele>401</ele>
        <time>2018-09-24T08:47:17Z</time>
      </trkpt>
      <trkpt lat="47.27346" lon="4.90924">
        <ele>402</ele>
        <time>2018-09-24T08:48:17Z</time>
      </trkpt>
      <trkpt lat="47.27347" lon="4.90935">
        <ele>403</ele>
        <time>2018-09-24T08:49:17Z</time>
      </trkpt>
      <trkpt lat="47.27347" lon="4.90947">
        <ele>404</ele>
        <time>2018-09-24T08:50:17Z</time>
      </trkpt>
      <trkpt lat="47.27347" lon="4.90955">
        <ele>404</ele>
        <time>2018-09-24T08:51:17Z</time>
      </trkpt>
      <trkpt lat="47.27344" lon="4.90974">
        <ele>404</ele>
        <time>2018-09-24T08:52:17Z</time>
      </trkpt>
      <trkpt lat="47.27342" lon="4.90999">
        <ele>405</ele>
        <time>2018-09-24T08:53:17Z</time>
      </trkpt>
      <trkpt lat="47.27341" lon="4.91025">
        <ele>407</ele>
        <time>2018-09-24T08:54:17Z</time>
      </trkpt>
      <trkpt lat="47.27341" lon="4.91029">
        <ele>407</ele>
        <time>2018-09-24T08:55:17Z</time>
      </trkpt>
      <trkpt lat="47.27341" lon="4.91043">
        <ele>408</ele>
        <time>2018-09-24T08:56:17Z</time>
      </trkpt>
      <trkpt lat="47.27343" lon="4.91056">
        <ele>410</ele>
        <time>2018-09-24T08:57:17Z</time>
      </trkpt>
      <trkpt lat="47.27343" lon="4.91067">
        <ele>411</ele>
        <time>2018-09-24T08:58:17Z</time>
      </trkpt>
      <trkpt lat="47.27354" lon="4.91118">
        <ele>416</ele>
        <time>2018-09-24T08:59:17Z</time>
      </trkpt>
      <trkpt lat="47.27357" lon="4.91134">
        <ele>418</ele>
        <time>2018-09-24T09:00:17Z</time>
      </trkpt>
      <trkpt lat="47.27357" lon="4.9116">
        <ele>420</ele>
        <time>2018-09-24T09:01:17Z</time>
      </trkpt>
      <trkpt lat="47.27361" lon="4.91178">
        <ele>421</ele>
        <time>2018-09-24T09:02:17Z</time>
      </trkpt>
      <trkpt lat="47.27361" lon="4.91183">
        <ele>422</ele>
        <time>2018-09-24T09:03:17Z</time>
      </trkpt>
      <trkpt lat="47.27362" lon="4.912">
        <ele>423</ele>
        <time>2018-09-24T09:04:17Z</time>
      </trkpt>
      <trkpt lat="47.27364" lon="4.9122">
        <ele>424</ele>
        <time>2018-09-24T09:05:17Z</time>
      </trkpt>
      <trkpt lat="47.27365" lon="4.91234">
        <ele>425</ele>
        <time>2018-09-24T09:06:17Z</time>
      </trkpt>
      <trkpt lat="47.27367" lon="4.91248">
        <ele>426</ele>
        <time>2018-09-24T09:07:17Z</time>
      </trkpt>
      <trkpt lat="47.27367" lon="4.91252">
        <ele>426</ele>
        <time>2018-09-24T09:08:17Z</time>
      </trkpt>
      <trkpt lat="47.27373" lon="4.91272">
        <ele>427</ele>
        <time>2018-09-24T09:09:17Z</time>
      </trkpt>
      <trkpt lat="47.27376" lon="4.91291">
        <ele>428</ele>
        <time>2018-09-24T09:10:17Z</time>
      </trkpt>
      <trkpt lat="47.27377" lon="4.91301">
        <ele>428</ele>
        <time>2018-09-24T09:11:17Z</time>
      </trkpt>
      <trkpt lat="47.27379" lon="4.9131">
        <ele>428</ele>
        <time>2018-09-24T09:12:17Z</time>
      </trkpt>
      <trkpt lat="47.2738" lon="4.9133">
        <ele>429</ele>
        <time>2018-09-24T09:13:17Z</time>
      </trkpt>
      <trkpt lat="47.27382" lon="4.91344">
        <ele>429</ele>
        <time>2018-09-24T09:14:17Z</time>
      </trkpt>
      <trkpt lat="47.27385" lon="4.91361">
        <ele>430</ele>
        <time>2018-09-24T09:15:17Z</time>
      </trkpt>
      <trkpt lat="47.27386" lon="4.91371">
        <ele>431</ele>
        <time>2018-09-24T09:16:17Z</time>
      </trkpt>
      <trkpt lat="47.27388" lon="4.91397">
        <ele>432</ele>
        <time>2018-09-24T09:17:17Z</time>
      </trkpt>
      <trkpt lat="47.27391" lon="4.91411">
        <ele>432</ele>
        <time>2018-09-24T09:18:17Z</time>
      </trkpt>
      <trkpt lat="47.27393" lon="4.91426">
        <ele>433</ele>
        <time>2018-09-24T09:19:17Z</time>
      </trkpt>
      <trkpt lat="47.27396" lon="4.91437">
        <ele>434</ele>
        <time>2018-09-24T09:20:17Z</time>
      </trkpt>
      <trkpt lat="47.27398" lon="4.91444">
        <ele>434</ele>
        <time>2018-09-24T09:21:17Z</time>
      </trkpt>
      <trkpt lat="47.27409" lon="4.9146">
        <ele>432</ele>
        <time>2018-09-24T09:22:17Z</time>
      </trkpt>
      <trkpt lat="47.27415" lon="4.91473">
        <ele>432</ele>
        <time>2018-09-24T09:23:17Z</time>
      </trkpt>
      <trkpt lat="47.27426" lon="4.91484">
        <ele>433</ele>
        <time>2018-09-24T09:24:17Z</time>
      </trkpt>
      <trkpt lat="47.27431" lon="4.91493">
        <ele>434</ele>
        <time>2018-09-24T09:25:17Z</time>
      </trkpt>
      <trkpt lat="47.27432" lon="4.91495">
        <ele>434</ele>
        <time>2018-09-24T09:26:17Z</time>
      </trkpt>
      <trkpt lat="47.27438" lon="4.91505">
        <ele>435</ele>
        <time>2018-09-24T09:27:17Z</time>
      </trkpt>
      <trkpt lat="47.27443" lon="4.91516">
        <ele>437</ele>
        <time>2018-09-24T09:28:17Z</time>
      </trkpt>
      <trkpt lat="47.27454" lon="4.9156">
        <ele>440</ele>
        <time>2018-09-24T09:29:17Z</time>
      </trkpt>
      <trkpt lat="47.27457" lon="4.91575">
        <ele>441</ele>
        <time>2018-09-24T09:30:17Z</time>
      </trkpt>
      <trkpt lat="47.27467" lon="4.91601">
        <ele>441</ele>
        <time>2018-09-24T09:31:17Z</time>
      </trkpt>
      <trkpt lat="47.27469" lon="4.91608">
        <ele>442</ele>
        <time>2018-09-24T09:32:17Z</time>
      </trkpt>
      <trkpt lat="47.2747" lon="4.91618">
        <ele>442</ele>
        <time>2018-09-24T09:33:17Z</time>
      </trkpt>
      <trkpt lat="47.2747" lon="4.91622">
        <ele>443</ele>
        <time>2018-09-24T09:34:17Z</time>
      </trkpt>
      <trkpt lat="47.27471" lon="4.91626">
        <ele>443</ele>
        <time>2018-09-24T09:35:17Z</time>
      </trkpt>
      <trkpt lat="47.27473" lon="4.91635">
        <ele>443</ele>
        <time>2018-09-24T09:36:17Z</time>
      </trkpt>
      <trkpt lat="47.27478" lon="4.91668">
        <ele>445</ele>
        <time>2018-09-24T09:37:17Z</time>
      </trkpt>
      <trkpt lat="47.27479" lon="4.9167">
        <ele>445</ele>
        <time>2018-09-24T09:38:17Z</time>
      </trkpt>
      <trkpt lat="47.27483" lon="4.91669">
        <ele>444</ele>
        <time>2018-09-24T09:39:17Z</time>
      </trkpt>
      <trkpt lat="47.27484" lon="4.91666">
        <ele>444</ele>
        <time>2018-09-24T09:40:17Z</time>
      </trkpt>
      <trkpt lat="47.27484" lon="4.91664">
        <ele>444</ele>
        <time>2018-09-24T09:41:17Z</time>
      </trkpt>
      <trkpt lat="47.27487" lon="4.91656">
        <ele>443</ele>
        <time>2018-09-24T09:42:17Z</time>
      </trkpt>
      <trkpt lat="47.27489" lon="4.91653">
        <ele>442</ele>
        <time>2018-09-24T09:43:17Z</time>
      </trkpt>
      <trkpt lat="47.2749" lon="4.91646">
        <ele>441</ele>
        <time>2018-09-24T09:44:17Z</time>
      </trkpt>
      <trkpt lat="47.27491" lon="4.91641">
        <ele>441</ele>
        <time>2018-09-24T09:45:17Z</time>
      </trkpt>
      <trkpt lat="47.27496" lon="4.91621">
        <ele>439</ele>
        <time>2018-09-24T09:46:17Z</time>
      </trkpt>
      <trkpt lat="47.275" lon="4.91613">
        <ele>438</ele>
        <time>2018-09-24T09:47:17Z</time>
      </trkpt>
      <trkpt lat="47.27504" lon="4.91607">
        <ele>438</ele>
        <time>2018-09-24T09:48:17Z</time>
      </trkpt>
      <trkpt lat="47.2751" lon="4.91603">
        <ele>439</ele>
        <time>2018-09-24T09:49:17Z</time>
      </trkpt>
      <trkpt lat="47.27516" lon="4.91603">
        <ele>440</ele>
        <time>2018-09-24T09:50:17Z</time>
      </trkpt>
      <trkpt lat="47.27521" lon="4.91605">
        <ele>441</ele>
        <time>2018-09-24T09:51:17Z</time>
      </trkpt>
      <trkpt lat="47.27524" lon="4.91605">
        <ele>442</ele>
        <time>2018-09-24T09:52:17Z</time>
      </trkpt>
      <trkpt lat="47.27525" lon="4.91606">
        <ele>442</ele>
        <time>2018-09-24T09:53:17Z</time>
      </trkpt>
      <trkpt lat="47.27529" lon="4.91608">
        <ele>443</ele>
        <time>2018-09-24T09:54:17Z</time>
      </trkpt>
      <trkpt lat="47.27534" lon="4.91608">
        <ele>443</ele>
        <time>2018-09-24T09:55:17Z</time>
      </trkpt>
      <trkpt lat="47.27537" lon="4.91608">
        <ele>444</ele>
        <time>2018-09-24T09:56:17Z</time>
      </trkpt>
      <trkpt lat="47.27542" lon="4.91609">
        <ele>445</ele>
        <time>2018-09-24T09:57:17Z</time>
      </trkpt>
      <trkpt lat="47.27546" lon="4.9161">
        <ele>446</ele>
        <time>2018-09-24T09:58:17Z</time>
      </trkpt>
      <trkpt lat="47.27554" lon="4.91613">
        <ele>447</ele>
        <time>2018-09-24T09:59:17Z</time>
      </trkpt>
      <trkpt lat="47.27555" lon="4.91614">
        <ele>447</ele>
        <time>2018-09-24T10:00:17Z</time>
      </trkpt>
      <trkpt lat="47.27581" lon="4.9162">
        <ele>452</ele>
        <time>2018-09-24T10:01:17Z</time>
      </trkpt>
      <trkpt lat="47.27584" lon="4.91621">
        <ele>453</ele>
        <time>2018-09-24T10:02:17Z</time>
      </trkpt>
      <trkpt lat="47.276" lon="4.91628">
        <ele>456</ele>
        <time>2018-09-24T10:03:17Z</time>
      </trkpt>
      <trkpt lat="47.27605" lon="4.9163">
        <ele>457</ele>
        <time>2018-09-24T10:04:17Z</time>
      </trkpt>
      <trkpt lat="47.27628" lon="4.91637">
        <ele>460</ele>
        <time>2018-09-24T10:05:17Z</time>
      </trkpt>
      <trkpt lat="47.27629" lon="4.91637">
        <ele>461</ele>
        <time>2018-09-24T10:06:17Z</time>
      </trkpt>
      <trkpt lat="47.27633" lon="4.9164">
        <ele>461</ele>
        <time>2018-09-24T10:07:17Z</time>
      </trkpt>
      <trkpt lat="47.2764" lon="4.91647">
        <ele>462</ele>
        <time>2018-09-24T10:08:17Z</time>
      </trkpt>
      <trkpt lat="47.2765" lon="4.91653">
        <ele>463</ele>
        <time>2018-09-24T10:09:17Z</time>
      </trkpt>
      <trkpt lat="47.27651" lon="4.91653">
        <ele>464</ele>
        <time>2018-09-24T10:10:17Z</time>
      </trkpt>
      <trkpt lat="47.27655" lon="4.91658">
        <ele>464</ele>
        <time>2018-09-24T10:11:17Z</time>
      </trkpt>
      <trkpt lat="47.27663" lon="4.91669">
        <ele>465</ele>
        <time>2018-09-24T10:12:17Z</time>
      </trkpt>
      <trkpt lat="47.27664" lon="4.91671">
        <ele>465</ele>
        <time>2018-09-24T10:13:17Z</time>
      </trkpt>
      <trkpt lat="47.27665" lon="4.91672">
        <ele>465</ele>
        <time>2018-09-24T10:14:17Z</time>
      </trkpt>
      <trkpt lat="47.27692" lon="4.91668">
        <ele>470</ele>
        <time>2018-09-24T10:15:17Z</time>
      </trkpt>
      <trkpt lat="47.27694" lon="4.91669">
        <ele>471</ele>
        <time>2018-09-24T10:16:17Z</time>
      </trkpt>
      <trkpt lat="47.27698" lon="4.91672">
        <ele>471</ele>
        <time>2018-09-24T10:17:17Z</time>
      </trkpt>
      <trkpt lat="47.27715" lon="4.91689">
        <ele>474</ele>
        <time>2018-09-24T10:18:17Z</time>
      </trkpt>
      <trkpt lat="47.27718" lon="4.91692">
        <ele>474</ele>
        <time>2018-09-24T10:19:17Z</time>
      </trkpt>
      <trkpt lat="47.27722" lon="4.91695">
        <ele>475</ele>
        <time>2018-09-24T10:20:17Z</time>
      </trkpt>
      <trkpt lat="47.27725" lon="4.91697">
        <ele>475</ele>
        <time>2018-09-24T10:21:17Z</time>
      </trkpt>
      <trkpt lat="47.27734" lon="4.91701">
        <ele>477</ele>
        <time>2018-09-24T10:22:17Z</time>
      </trkpt>
      <trkpt lat="47.27739" lon="4.91701">
        <ele>478</ele>
        <time>2018-09-24T10:23:17Z</time>
      </trkpt>
      <trkpt lat="47.27742" lon="4.91703">
        <ele>478</ele>
        <time>2018-09-24T10:24:17Z</time>
      </trkpt>
      <trkpt lat="47.27746" lon="4.91705">
        <ele>479</ele>
        <time>2018-09-24T10:25:17Z</time>
      </trkpt>
      <trkpt lat="47.27754" lon="4.9171">
        <ele>480</ele>
        <time>2018-09-24T10:26:17Z</time>
      </trkpt>
      <trkpt lat="47.27754" lon="4.9171">
        <ele>480</ele>
        <time>2018-09-24T10:27:17Z</time>
      </trkpt>
      <trkpt lat="47.27806" lon="4.91669">
        <ele>492</ele>
        <time>2018-09-24T10:28:17Z</time>
      </trkpt>
      <trkpt lat="47.27814" lon="4.91663">
        <ele>494</ele>
        <time>2018-09-24T10:29:17Z</time>
      </trkpt>
      <trkpt lat="47.27816" lon="4.91663">
        <ele>494</ele>
        <time>2018-09-24T10:30:17Z</time>
      </trkpt>
      <trkpt lat="47.27828" lon="4.91668">
        <ele>496</ele>
        <time>2018-09-24T10:31:17Z</time>
      </trkpt>
      <trkpt lat="47.27834" lon="4.91668">
        <ele>497</ele>
        <time>2018-09-24T10:32:17Z</time>
      </trkpt>
      <trkpt lat="47.27834" lon="4.91668">
        <ele>497</ele>
        <time>2018-09-24T10:33:17Z</time>
      </trkpt>
      <trkpt lat="47.27838" lon="4.91663">
        <ele>497</ele>
        <time>2018-09-24T10:34:17Z</time>
      </trkpt>
      <trkpt lat="47.27841" lon="4.91655">
        <ele>497</ele>
        <time>2018-09-24T10:35:17Z</time>
      </trkpt>
      <trkpt lat="47.27847" lon="4.91653">
        <ele>498</ele>
        <time>2018-09-24T10:36:17Z</time>
      </trkpt>
      <trkpt lat="47.27861" lon="4.91668">
        <ele>499</ele>
        <time>2018-09-24T10:37:17Z</time>
      </trkpt>
      <trkpt lat="47.27864" lon="4.9167">
        <ele>499</ele>
        <time>2018-09-24T10:38:17Z</time>
      </trkpt>
      <trkpt lat="47.2787" lon="4.91667">
        <ele>499</ele>
        <time>2018-09-24T10:39:17Z</time>
      </trkpt>
      <trkpt lat="47.27885" lon="4.9166">
        <ele>500</ele>
        <time>2018-09-24T10:40:17Z</time>
      </trkpt>
      <trkpt lat="47.27903" lon="4.91658">
        <ele>501</ele>
        <time>2018-09-24T10:41:17Z</time>
      </trkpt>
      <trkpt lat="47.27918" lon="4.91655">
        <ele>502</ele>
        <time>2018-09-24T10:42:17Z</time>
      </trkpt>
      <trkpt lat="47.27941" lon="4.91644">
        <ele>502</ele>
        <time>2018-09-24T10:43:17Z</time>
      </trkpt>
      <trkpt lat="47.27952" lon="4.91642">
        <ele>502</ele>
        <time>2018-09-24T10:44:17Z</time>
      </trkpt>
      <trkpt lat="47.2796" lon="4.91641">
        <ele>502</ele>
        <time>2018-09-24T10:45:17Z</time>
      </trkpt>
      <trkpt lat="47.27968" lon="4.91643">
        <ele>502</ele>
        <time>2018-09-24T10:46:17Z</time>
      </trkpt>
      <trkpt lat="47.27982" lon="4.91656">
        <ele>503</ele>
        <time>2018-09-24T10:47:17Z</time>
      </trkpt>
      <trkpt lat="47.27988" lon="4.91662">
        <ele>503</ele>
        <time>2018-09-24T10:48:17Z</time>
      </trkpt>
      <trkpt lat="47.28005" lon="4.91684">
        <ele>507</ele>
        <time>2018-09-24T10:49:17Z</time>
      </trkpt>
      <trkpt lat="47.28014" lon="4.91696">
        <ele>509</ele>
        <time>2018-09-24T10:50:17Z</time>
      </trkpt>
      <trkpt lat="47.28016" lon="4.91702">
        <ele>510</ele>
        <time>2018-09-24T10:51:17Z</time>
      </trkpt>
      <trkpt lat="47.28016" lon="4.91708">
        <ele>511</ele>
        <time>2018-09-24T10:52:17Z</time>
      </trkpt>
      <trkpt lat="47.28014" lon="4.91714">
        <ele>513</ele>
        <time>2018-09-24T10:53:17Z</time>
      </trkpt>
      <trkpt lat="47.28013" lon="4.91717">
        <ele>513</ele>
        <time>2018-09-24T10:54:17Z</time>
      </trkpt>
      <trkpt lat="47.28011" lon="4.91718">
        <ele>513</ele>
        <time>2018-09-24T10:55:17Z</time>
      </trkpt>
      <trkpt lat="47.28002" lon="4.91725">
        <ele>515</ele>
        <time>2018-09-24T10:56:17Z</time>
      </trkpt>
      <trkpt lat="47.27994" lon="4.91734">
        <ele>516</ele>
        <time>2018-09-24T10:57:17Z</time>
      </trkpt>
      <trkpt lat="47.27985" lon="4.91743">
        <ele>516</ele>
        <time>2018-09-24T10:58:17Z</time>
      </trkpt>
      <trkpt lat="47.27972" lon="4.91763">
        <ele>517</ele>
        <time>2018-09-24T10:59:17Z</time>
      </trkpt>
      <trkpt lat="47.2797" lon="4.91766">
        <ele>517</ele>
        <time>2018-09-24T11:00:17Z</time>
      </trkpt>
      <trkpt lat="47.27961" lon="4.91787">
        <ele>518</ele>
        <time>2018-09-24T11:01:17Z</time>
      </trkpt>
      <trkpt lat="47.27953" lon="4.91808">
        <ele>519</ele>
        <time>2018-09-24T11:02:17Z</time>
      </trkpt>
      <trkpt lat="47.27944" lon="4.91836">
        <ele>519</ele>
        <time>2018-09-24T11:03:17Z</time>
      </trkpt>
      <trkpt lat="47.27938" lon="4.91865">
        <ele>519</ele>
        <time>2018-09-24T11:04:17Z</time>
      </trkpt>
      <trkpt lat="47.27933" lon="4.91907">
        <ele>520</ele>
        <time>2018-09-24T11:05:17Z</time>
      </trkpt>
      <trkpt lat="47.27935" lon="4.91936">
        <ele>520</ele>
        <time>2018-09-24T11:06:17Z</time>
      </trkpt>
      <trkpt lat="47.2794" lon="4.91956">
        <ele>520</ele>
        <time>2018-09-24T11:07:17Z</time>
      </trkpt>
      <trkpt lat="47.27944" lon="4.91969">
        <ele>521</ele>
        <time>2018-09-24T11:08:17Z</time>
      </trkpt>
      <trkpt lat="47.27946" lon="4.9198">
        <ele>521</ele>
        <time>2018-09-24T11:09:17Z</time>
      </trkpt>
      <trkpt lat="47.27956" lon="4.92016">
        <ele>522</ele>
        <time>2018-09-24T11:10:17Z</time>
      </trkpt>
      <trkpt lat="47.27962" lon="4.92034">
        <ele>522</ele>
        <time>2018-09-24T11:11:17Z</time>
      </trkpt>
      <trkpt lat="47.27978" lon="4.92073">
        <ele>523</ele>
        <time>2018-09-24T11:12:17Z</time>
      </trkpt>
      <trkpt lat="47.27996" lon="4.92096">
        <ele>526</ele>
        <time>2018-09-24T11:13:17Z</time>
      </trkpt>
      <trkpt lat="47.28008" lon="4.92108">
        <ele>528</ele>
        <time>2018-09-24T11:14:17Z</time>
      </trkpt>
      <trkpt lat="47.2801" lon="4.9211">
        <ele>528</ele>
        <time>2018-09-24T11:15:17Z</time>
      </trkpt>
      <trkpt lat="47.28019" lon="4.92121">
        <ele>530</ele>
        <time>2018-09-24T11:16:17Z</time>
      </trkpt>
      <trkpt lat="47.28025" lon="4.92129">
        <ele>530</ele>
        <time>2018-09-24T11:17:17Z</time>
      </trkpt>
      <trkpt lat="47.28034" lon="4.92146">
        <ele>531</ele>
        <time>2018-09-24T11:18:17Z</time>
      </trkpt>
      <trkpt lat="47.28049" lon="4.92171">
        <ele>531</ele>
        <time>2018-09-24T11:19:17Z</time>
      </trkpt>
      <trkpt lat="47.28064" lon="4.92194">
        <ele>532</ele>
        <time>2018-09-24T11:20:17Z</time>
      </trkpt>
      <trkpt lat="47.2807" lon="4.92205">
        <ele>532</ele>
        <time>2018-09-24T11:21:17Z</time>
      </trkpt>
      <trkpt lat="47.28078" lon="4.9222">
        <ele>531</ele>
        <time>2018-09-24T11:22:17Z</time>
      </trkpt>
      <trkpt lat="47.2809" lon="4.9224">
        <ele>530</ele>
        <time>2018-09-24T11:23:17Z</time>
      </trkpt>
      <trkpt lat="47.28107" lon="4.92272">
        <ele>531</ele>
        <time>2018-09-24T11:24:17Z</time>
      </trkpt>
      <trkpt lat="47.2811" lon="4.92277">
        <ele>531</ele>
        <time>2018-09-24T11:25:17Z</time>
      </trkpt>
      <trkpt lat="47.28126" lon="4.92304">
        <ele>532</ele>
        <time>2018-09-24T11:26:17Z</time>
      </trkpt>
      <trkpt lat="47.28134" lon="4.92315">
        <ele>533</ele>
        <time>2018-09-24T11:27:17Z</time>
      </trkpt>
      <trkpt lat="47.28145" lon="4.92333">
        <ele>533</ele>
        <time>2018-09-24T11:28:17Z</time>
      </trkpt>
      <trkpt lat="47.28152" lon="4.92345">
        <ele>533</ele>
        <time>2018-09-24T11:29:17Z</time>
      </trkpt>
      <trkpt lat="47.2817" lon="4.92383">
        <ele>532</ele>
        <time>2018-09-24T11:30:17Z</time>
      </trkpt>
      <trkpt lat="47.28186" lon="4.92409">
        <ele>532</ele>
        <time>2018-09-24T11:31:17Z</time>
      </trkpt>
      <trkpt lat="47.28196" lon="4.92423">
        <ele>533</ele>
        <time>2018-09-24T11:32:17Z</time>
      </trkpt>
      <trkpt lat="47.28199" lon="4.92428">
        <ele>533</ele>
        <time>2018-09-24T11:33:17Z</time>
      </trkpt>
      <trkpt lat="47.28212" lon="4.9244">
        <ele>535</ele>
        <time>2018-09-24T11:34:17Z</time>
      </trkpt>
      <trkpt lat="47.28224" lon="4.92451">
        <ele>536</ele>
        <time>2018-09-24T11:35:17Z</time>
      </trkpt>
      <trkpt lat="47.28231" lon="4.92459">
        <ele>537</ele>
        <time>2018-09-24T11:36:17Z</time>
      </trkpt>
      <trkpt lat="47.28238" lon="4.92467">
        <ele>537</ele>
        <time>2018-09-24T11:37:17Z</time>
      </trkpt>
      <trkpt lat="47.28248" lon="4.92481">
        <ele>537</ele>
        <time>2018-09-24T11:38:17Z</time>
      </trkpt>
      <trkpt lat="47.2826" lon="4.92496">
        <ele>537</ele>
        <time>2018-09-24T11:39:17Z</time>
      </trkpt>
      <trkpt lat="47.28265" lon="4.92501">
        <ele>538</ele>
        <time>2018-09-24T11:40:17Z</time>
      </trkpt>
      <trkpt lat="47.2828" lon="4.9252">
        <ele>538</ele>
        <time>2018-09-24T11:41:17Z</time>
      </trkpt>
      <trkpt lat="47.28292" lon="4.92534">
        <ele>539</ele>
        <time>2018-09-24T11:42:17Z</time>
      </trkpt>
      <trkpt lat="47.28303" lon="4.92545">
        <ele>541</ele>
        <time>2018-09-24T11:43:17Z</time>
      </trkpt>
      <trkpt lat="47.28314" lon="4.92558">
        <ele>542</ele>
        <time>2018-09-24T11:44:17Z</time>
      </trkpt>
      <trkpt lat="47.28316" lon="4.92563">
        <ele>542</ele>
        <time>2018-09-24T11:45:17Z</time>
      </trkpt>
      <trkpt lat="47.28324" lon="4.92576">
        <ele>542</ele>
        <time>2018-09-24T11:46:17Z</time>
      </trkpt>
      <trkpt lat="47.28326" lon="4.92579">
        <ele>542</ele>
        <time>2018-09-24T11:47:17Z</time>
      </trkpt>
      <trkpt lat="47.28332" lon="4.92587">
        <ele>544</ele>
        <time>2018-09-24T11:48:17Z</time>
      </trkpt>
      <trkpt lat="47.28336" lon="4.92589">
        <ele>545</ele>
        <time>2018-09-24T11:49:17Z</time>
      </trkpt>
      <trkpt lat="47.28339" lon="4.9259">
        <ele>546</ele>
        <time>2018-09-24T11:50:17Z</time>
      </trkpt>
      <trkpt lat="47.28344" lon="4.92599">
        <ele>548</ele>
        <time>2018-09-24T11:51:17Z</time>
      </trkpt>
      <trkpt lat="47.28349" lon="4.92609">
        <ele>549</ele>
        <time>2018-09-24T11:52:17Z</time>
      </trkpt>
      <trkpt lat="47.28353" lon="4.92615">
        <ele>551</ele>
        <time>2018-09-24T11:53:17Z</time>
      </trkpt>
      <trkpt lat="47.28356" lon="4.92625">
        <ele>552</ele>
        <time>2018-09-24T11:54:17Z</time>
      </trkpt>
      <trkpt lat="47.28355" lon="4.92643">
        <ele>552</ele>
        <time>2018-09-24T11:55:17Z</time>
      </trkpt>
      <trkpt lat="47.28356" lon="4.92646">
        <ele>552</ele>
        <time>2018-09-24T11:56:17Z</time>
      </trkpt>
      <trkpt lat="47.28353" lon="4.92666">
        <ele>552</ele>
        <time>2018-09-24T11:57:17Z</time>
      </trkpt>
      <trkpt lat="47.28353" lon="4.92675">
        <ele>553</ele>
        <time>2018-09-24T11:58:17Z</time>
      </trkpt>
      <trkpt lat="47.28348" lon="4.92703">
        <ele>556</ele>
        <time>2018-09-24T11:59:17Z</time>
      </trkpt>
      <trkpt lat="47.28348" lon="4.92705">
        <ele>557</ele>
        <time>2018-09-24T12:00:17Z</time>
      </trkpt>
      <trkpt lat="47.28341" lon="4.92731">
        <ele>560</ele>
        <time>2018-09-24T12:01:17Z</time>
      </trkpt>
      <trkpt lat="47.28339" lon="4.92743">
        <ele>562</ele>
        <time>2018-09-24T12:02:17Z</time>
      </trkpt>
      <trkpt lat="47.28338" lon="4.92754">
        <ele>563</ele>
        <time>2018-09-24T12:03:17Z</time>
      </trkpt>
      <trkpt lat="47.28338" lon="4.92756">
        <ele>564</ele>
        <time>2018-09-24T12:04:17Z</time>
      </trkpt>
      <trkpt lat="47.28333" lon="4.92771">
        <ele>565</ele>
        <time>2018-09-24T12:05:17Z</time>
      </trkpt>
      <trkpt lat="47.28332" lon="4.92773">
        <ele>565</ele>
        <time>2018-09-24T12:06:17Z</time>
      </trkpt>
      <trkpt lat="47.28314" lon="4.92801">
        <ele>568</ele>
        <time>2018-09-24T12:07:17Z</time>
      </trkpt>
      <trkpt lat="47.28312" lon="4.92804">
        <ele>568</ele>
        <time>2018-09-24T12:08:17Z</time>
      </trkpt>
      <trkpt lat="47.28303" lon="4.92847">
        <ele>574</ele>
        <time>2018-09-24T12:09:17Z</time>
      </trkpt>
      <trkpt lat="47.28303" lon="4.92849">
        <ele>574</ele>
        <time>2018-09-24T12:10:17Z</time>
      </trkpt>
      <trkpt lat="47.28301" lon="4.92857">
        <ele>574</ele>
        <time>2018-09-24T12:11:17Z</time>
      </trkpt>
      <trkpt lat="47.283" lon="4.92862">
        <ele>574</ele>
        <time>2018-09-24T12:12:17Z</time>
      </trkpt>
      <trkpt lat="47.28297" lon="4.92868">
        <ele>574</ele>
        <time>2018-09-24T12:13:17Z</time>
      </trkpt>
      <trkpt lat="47.28296" lon="4.92869">
        <ele>575</ele>
        <time>2018-09-24T12:14:17Z</time>
      </trkpt>
      <trkpt lat="47.28294" lon="4.9287">
        <ele>575</ele>
        <time>2018-09-24T12:15:17Z</time>
      </trkpt>
      <trkpt lat="47.28289" lon="4.92867">
        <ele>574</ele>
        <time>2018-09-24T12:16:17Z</time>
      </trkpt>
      <trkpt lat="47.28287" lon="4.92869">
        <ele>574</ele>
        <time>2018-09-24T12:17:17Z</time>
      </trkpt>
      <trkpt lat="47.28279" lon="4.92892">
        <ele>575</ele>
        <time>2018-09-24T12:18:17Z</time>
      </trkpt>
      <trkpt lat="47.28276" lon="4.92899">
        <ele>576</ele>
        <time>2018-09-24T12:19:17Z</time>
      </trkpt>
      <trkpt lat="47.28263" lon="4.92938">
        <ele>577</ele>
        <time>2018-09-24T12:20:17Z</time>
      </trkpt>
      <trkpt lat="47.2826" lon="4.92945">
        <ele>577</ele>
        <time>2018-09-24T12:21:17Z</time>
      </trkpt>
      <trkpt lat="47.2825" lon="4.9298">
        <ele>578</ele>
        <time>2018-09-24T12:22:17Z</time>
      </trkpt>
      <trkpt lat="47.28248" lon="4.92986">
        <ele>579</ele>
        <time>2018-09-24T12:23:17Z</time>
      </trkpt>
      <trkpt lat="47.28239" lon="4.93049">
        <ele>579</ele>
        <time>2018-09-24T12:24:17Z</time>
      </trkpt>
      <trkpt lat="47.28238" lon="4.93061">
        <ele>579</ele>
        <time>2018-09-24T12:25:17Z</time>
      </trkpt>
      <trkpt lat="47.28242" lon="4.93067">
        <ele>579</ele>
        <time>2018-09-24T12:26:17Z</time>
      </trkpt>
      <trkpt lat="47.28247" lon="4.93075">
        <ele>579</ele>
        <time>2018-09-24T12:27:17Z</time>
      </trkpt>
      <trkpt lat="47.28258" lon="4.93079">
        <ele>579</ele>
        <time>2018-09-24T12:28:17Z</time>
      </trkpt>
      <trkpt lat="47.28261" lon="4.9308">
        <ele>579</ele>
        <time>2018-09-24T12:29:17Z</time>
      </trkpt>
      <trkpt lat="47.28276" lon="4.93083">
        <ele>579</ele>
        <time>2018-09-24T12:30:17Z</time>
      </trkpt>
      <trkpt lat="47.28299" lon="4.93088">
        <ele>578</ele>
        <time>2018-09-24T12:31:17Z</time>
      </trkpt>
      <trkpt lat="47.28306" lon="4.93089">
        <ele>578</ele>
        <time>2018-09-24T12:32:17Z</time>
      </trkpt>
      <trkpt lat="47.28311" lon="4.93086">
        <ele>578</ele>
        <time>2018-09-24T12:33:17Z</time>
      </trkpt>
      <trkpt lat="47.28317" lon="4.93083">
        <ele>578</ele>
        <time>2018-09-24T12:34:17Z</time>
      </trkpt>
      <trkpt lat="47.2832" lon="4.93094">
        <ele>578</ele>
        <time>2018-09-24T12:35:17Z</time>
      </trkpt>
      <trkpt lat="47.28322" lon="4.93102">
        <ele>578</ele>
        <time>2018-09-24T12:36:17Z</time>
      </trkpt>
      <trkpt lat="47.28328" lon="4.9311">
        <ele>578</ele>
        <time>2018-09-24T12:37:17Z</time>
      </trkpt>
      <trkpt lat="47.28337" lon="4.93126">
        <ele>578</ele>
        <time>2018-09-24T12:38:17Z</time>
      </trkpt>
      <trkpt lat="47.28346" lon="4.93133">
        <ele>578</ele>
        <time>2018-09-24T12:39:17Z</time>
      </trkpt>
      <trkpt lat="47.28363" lon="4.93152">
        <ele>578</ele>
        <time>2018-09-24T12:40:17Z</time>
      </trkpt>
      <trkpt lat="47.28366" lon="4.93156">
        <ele>578</ele>
        <time>2018-09-24T12:41:17Z</time>
      </trkpt>
      <trkpt lat="47.28374" lon="4.93162">
        <ele>578</ele>
        <time>2018-09-24T12:42:17Z</time>
      </trkpt>
      <trkpt lat="47.28384" lon="4.93169">
        <ele>578</ele>
        <time>2018-09-24T12:43:17Z</time>
      </trkpt>
      <trkpt lat="47.28402" lon="4.93184">
        <ele>578</ele>
        <time>2018-09-24T12:44:17Z</time>
      </trkpt>
      <trkpt lat="47.28418" lon="4.93195">
        <ele>577</ele>
        <time>2018-09-24T12:45:17Z</time>
      </trkpt>
      <trkpt lat="47.28424" lon="4.932">
        <ele>577</ele>
        <time>2018-09-24T12:46:17Z</time>
      </trkpt>
      <trkpt lat="47.28441" lon="4.93224">
        <ele>577</ele>
        <time>2018-09-24T12:47:17Z</time>
      </trkpt>
      <trkpt lat="47.28446" lon="4.9323">
        <ele>577</ele>
        <time>2018-09-24T12:48:17Z</time>
      </trkpt>
      <trkpt lat="47.28455" lon="4.93239">
        <ele>577</ele>
        <time>2018-09-24T12:49:17Z</time>
      </trkpt>
      <trkpt lat="47.28457" lon="4.9324">
        <ele>577</ele>
        <time>2018-09-24T12:50:17Z</time>
      </trkpt>
      <trkpt lat="47.28467" lon="4.93249">
        <ele>577</ele>
        <time>2018-09-24T12:51:17Z</time>
      </trkpt>
      <trkpt lat="47.28469" lon="4.93254">
        <ele>576</ele>
        <time>2018-09-24T12:52:17Z</time>
      </trkpt>
      <trkpt lat="47.28475" lon="4.93263">
        <ele>576</ele>
        <time>2018-09-24T12:53:17Z</time>
      </trkpt>
      <trkpt lat="47.28487" lon="4.93278">
        <ele>575</ele>
        <time>2018-09-24T12:54:17Z</time>
      </trkpt>
      <trkpt lat="47.2849" lon="4.93283">
        <ele>574</ele>
        <time>2018-09-24T12:55:17Z</time>
      </trkpt>
      <trkpt lat="47.28495" lon="4.93292">
        <ele>573</ele>
        <time>2018-09-24T12:56:17Z</time>
      </trkpt>
      <trkpt lat="47.28503" lon="4.93333">
        <ele>570</ele>
        <time>2018-09-24T12:57:17Z</time>
      </trkpt>
      <trkpt lat="47.28508" lon="4.93359">
        <ele>568</ele>
        <time>2018-09-24T12:58:17Z</time>
      </trkpt>
      <trkpt lat="47.28513" lon="4.93371">
        <ele>567</ele>
        <time>2018-09-24T12:59:17Z</time>
      </trkpt>
      <trkpt lat="47.2852" lon="4.93378">
        <ele>567</ele>
        <time>2018-09-24T13:00:17Z</time>
      </trkpt>
      <trkpt lat="47.28524" lon="4.9338">
        <ele>567</ele>
        <time>2018-09-24T13:01:17Z</time>
      </trkpt>
      <trkpt lat="47.28527" lon="4.93381">
        <ele>567</ele>
        <time>2018-09-24T13:02:17Z</time>
      </trkpt>
      <trkpt lat="47.28572" lon="4.93383">
        <ele>569</ele>
        <time>2018-09-24T13:03:17Z</time>
      </trkpt>
      <trkpt lat="47.28577" lon="4.93383">
        <ele>569</ele>
        <time>2018-09-24T13:04:17Z</time>
      </trkpt>
      <trkpt lat="47.28613" lon="4.93389">
        <ele>570</ele>
        <time>2018-09-24T13:05:17Z</time>
      </trkpt>
      <trkpt lat="47.28626" lon="4.93392">
        <ele>570</ele>
        <time>2018-09-24T13:06:17Z</time>
      </trkpt>
      <trkpt lat="47.2864" lon="4.93396">
        <ele>571</ele>
        <time>2018-09-24T13:07:17Z</time>
      </trkpt>
      <trkpt lat="47.28649" lon="4.93398">
        <ele>571</ele>
        <time>2018-09-24T13:08:17Z</time>
      </trkpt>
      <trkpt lat="47.28675" lon="4.93406">
        <ele>571</ele>
        <time>2018-09-24T13:09:17Z</time>
      </trkpt>
      <trkpt lat="47.28695" lon="4.93413">
        <ele>571</ele>
        <time>2018-09-24T13:10:17Z</time>
      </trkpt>
      <trkpt lat="47.28738" lon="4.93437">
        <ele>569</ele>
        <time>2018-09-24T13:11:17Z</time>
      </trkpt>
      <trkpt lat="47.28758" lon="4.93444">
        <ele>569</ele>
        <time>2018-09-24T13:12:17Z</time>
      </trkpt>
      <trkpt lat="47.28765" lon="4.93445">
        <ele>568</ele>
        <time>2018-09-24T13:13:17Z</time>
      </trkpt>
      <trkpt lat="47.28786" lon="4.93447">
        <ele>567</ele>
        <time>2018-09-24T13:14:17Z</time>
      </trkpt>
      <trkpt lat="47.28794" lon="4.93447">
        <ele>566</ele>
        <time>2018-09-24T13:15:17Z</time>
      </trkpt>
      <trkpt lat="47.28802" lon="4.93445">
        <ele>566</ele>
        <time>2018-09-24T13:16:17Z</time>
      </trkpt>
      <trkpt lat="47.28823" lon="4.93429">
        <ele>566</ele>
        <time>2018-09-24T13:17:17Z</time>
      </trkpt>
      <trkpt lat="47.28828" lon="4.93413">
        <ele>566</ele>
        <time>2018-09-24T13:18:17Z</time>
      </trkpt>
      <trkpt lat="47.2883" lon="4.93398">
        <ele>567</ele>
        <time>2018-09-24T13:19:17Z</time>
      </trkpt>
      <trkpt lat="47.28831" lon="4.93391">
        <ele>567</ele>
        <time>2018-09-24T13:20:17Z</time>
      </trkpt>
      <trkpt lat="47.2883" lon="4.93352">
        <ele>569</ele>
        <time>2018-09-24T13:21:17Z</time>
      </trkpt>
      <trkpt lat="47.2883" lon="4.93341">
        <ele>570</ele>
        <time>2018-09-24T13:22:17Z</time>
      </trkpt>
      <trkpt lat="47.28835" lon="4.93296">
        <ele>571</ele>
        <time>2018-09-24T13:23:17Z</time>
      </trkpt>
      <trkpt lat="47.28838" lon="4.9327">
        <ele>571</ele>
        <time>2018-09-24T13:24:17Z</time>
      </trkpt>
      <trkpt lat="47.28838" lon="4.93258">
        <ele>572</ele>
        <time>2018-09-24T13:25:17Z</time>
      </trkpt>
      <trkpt lat="47.2884" lon="4.93237">
        <ele>572</ele>
        <time>2018-09-24T13:26:17Z</time>
      </trkpt>
      <trkpt lat="47.28841" lon="4.93211">
        <ele>572</ele>
        <time>2018-09-24T13:27:17Z</time>
      </trkpt>
      <trkpt lat="47.28843" lon="4.93186">
        <ele>572</ele>
        <time>2018-09-24T13:28:17Z</time>
      </trkpt>
      <trkpt lat="47.28844" lon="4.93131">
        <ele>572</ele>
        <time>2018-09-24T13:29:17Z</time>
      </trkpt>
      <trkpt lat="47.28844" lon="4.93099">
        <ele>571</ele>
        <time>2018-09-24T13:30:17Z</time>
      </trkpt>
      <trkpt lat="47.28842" lon="4.93073">
        <ele>572</ele>
        <time>2018-09-24T13:31:17Z</time>
      </trkpt>
      <trkpt lat="47.2884" lon="4.93046">
        <ele>572</ele>
        <time>2018-09-24T13:32:17Z</time>
      </trkpt>
      <trkpt lat="47.28835" lon="4.92989">
        <ele>572</ele>
        <time>2018-09-24T13:33:17Z</time>
      </trkpt>
      <trkpt lat="47.28834" lon="4.92982">
        <ele>573</ele>
        <time>2018-09-24T13:34:17Z</time>
      </trkpt>
      <trkpt lat="47.28834" lon="4.92966">
        <ele>572</ele>
        <time>2018-09-24T13:35:17Z</time>
      </trkpt>
      <trkpt lat="47.28834" lon="4.92961">
        <ele>572</ele>
        <time>2018-09-24T13:36:17Z</time>
      </trkpt>
      <trkpt lat="47.28831" lon="4.92942">
        <ele>573</ele>
        <time>2018-09-24T13:37:17Z</time>
      </trkpt>
      <trkpt lat="47.2883" lon="4.92934">
        <ele>573</ele>
        <time>2018-09-24T13:38:17Z</time>
      </trkpt>
      <trkpt lat="47.2882" lon="4.92902">
        <ele>573</ele>
        <time>2018-09-24T13:39:17Z</time>
      </trkpt>
      <trkpt lat="47.28815" lon="4.92891">
        <ele>574</ele>
        <time>2018-09-24T13:40:17Z</time>
      </trkpt>
      <trkpt lat="47.28803" lon="4.92875">
        <ele>575</ele>
        <time>2018-09-24T13:41:17Z</time>
      </trkpt>
      <trkpt lat="47.288" lon="4.92872">
        <ele>576</ele>
        <time>2018-09-24T13:42:17Z</time>
      </trkpt>
      <trkpt lat="47.28792" lon="4.92858">
        <ele>577</ele>
        <time>2018-09-24T13:43:17Z</time>
      </trkpt>
      <trkpt lat="47.28775" lon="4.92834">
        <ele>579</ele>
        <time>2018-09-24T13:44:17Z</time>
      </trkpt>
      <trkpt lat="47.28768" lon="4.92818">
        <ele>580</ele>
        <time>2018-09-24T13:45:17Z</time>
      </trkpt>
      <trkpt lat="47.2877" lon="4.92804">
        <ele>580</ele>
        <time>2018-09-24T13:46:17Z</time>
      </trkpt>
      <trkpt lat="47.28772" lon="4.928">
        <ele>579</ele>
        <time>2018-09-24T13:47:17Z</time>
      </trkpt>
      <trkpt lat="47.28783" lon="4.92781">
        <ele>578</ele>
        <time>2018-09-24T13:48:17Z</time>
      </trkpt>
      <trkpt lat="47.28788" lon="4.92778">
        <ele>578</ele>
        <time>2018-09-24T13:49:17Z</time>
      </trkpt>
      <trkpt lat="47.28794" lon="4.9278">
        <ele>577</ele>
        <time>2018-09-24T13:50:17Z</time>
      </trkpt>
      <trkpt lat="47.28798" lon="4.92782">
        <ele>577</ele>
        <time>2018-09-24T13:51:17Z</time>
      </trkpt>
      <trkpt lat="47.28807" lon="4.92793">
        <ele>575</ele>
        <time>2018-09-24T13:52:17Z</time>
      </trkpt>
      <trkpt lat="47.2881" lon="4.92796">
        <ele>575</ele>
        <time>2018-09-24T13:53:17Z</time>
      </trkpt>
      <trkpt lat="47.28823" lon="4.92812">
        <ele>573</ele>
        <time>2018-09-24T13:54:17Z</time>
      </trkpt>
      <trkpt lat="47.28826" lon="4.92815">
        <ele>573</ele>
        <time>2018-09-24T13:55:17Z</time>
      </trkpt>
      <trkpt lat="47.28833" lon="4.92823">
        <ele>571</ele>
        <time>2018-09-24T13:56:17Z</time>
      </trkpt>
      <trkpt lat="47.28839" lon="4.92828">
        <ele>570</ele>
        <time>2018-09-24T13:57:17Z</time>
      </trkpt>
      <trkpt lat="47.28853" lon="4.92835">
        <ele>566</ele>
        <time>2018-09-24T13:58:17Z</time>
      </trkpt>
      <trkpt lat="47.28857" lon="4.92837">
        <ele>565</ele>
        <time>2018-09-24T13:59:17Z</time>
      </trkpt>
      <trkpt lat="47.2887" lon="4.92845">
        <ele>562</ele>
        <time>2018-09-24T14:00:17Z</time>
      </trkpt>
      <trkpt lat="47.28874" lon="4.92848">
        <ele>561</ele>
        <time>2018-09-24T14:01:17Z</time>
      </trkpt>
      <trkpt lat="47.28881" lon="4.92851">
        <ele>559</ele>
        <time>2018-09-24T14:02:17Z</time>
      </trkpt>
      <trkpt lat="47.28884" lon="4.92852">
        <ele>558</ele>
        <time>2018-09-24T14:03:17Z</time>
      </trkpt>
      <trkpt lat="47.28885" lon="4.92852">
        <ele>558</ele>
        <time>2018-09-24T14:04:17Z</time>
      </trkpt>
      <trkpt lat="47.28886" lon="4.92852">
        <ele>557</ele>
        <time>2018-09-24T14:05:17Z</time>
      </trkpt>
      <trkpt lat="47.28887" lon="4.92859">
        <ele>557</ele>
        <time>2018-09-24T14:06:17Z</time>
      </trkpt>
      <trkpt lat="47.28887" lon="4.92865">
        <ele>556</ele>
        <time>2018-09-24T14:07:17Z</time>
      </trkpt>
      <trkpt lat="47.28889" lon="4.92878">
        <ele>555</ele>
        <time>2018-09-24T14:08:17Z</time>
      </trkpt>
      <trkpt lat="47.2889" lon="4.92879">
        <ele>555</ele>
        <time>2018-09-24T14:09:17Z</time>
      </trkpt>
      <trkpt lat="47.28899" lon="4.9288">
        <ele>552</ele>
        <time>2018-09-24T14:10:17Z</time>
      </trkpt>
      <trkpt lat="47.28905" lon="4.9288">
        <ele>550</ele>
        <time>2018-09-24T14:11:17Z</time>
      </trkpt>
      <trkpt lat="47.2891" lon="4.92879">
        <ele>549</ele>
        <time>2018-09-24T14:12:17Z</time>
      </trkpt>
      <trkpt lat="47.28915" lon="4.92886">
        <ele>546</ele>
        <time>2018-09-24T14:13:17Z</time>
      </trkpt>
      <trkpt lat="47.2892" lon="4.929">
        <ele>544</ele>
        <time>2018-09-24T14:14:17Z</time>
      </trkpt>
      <trkpt lat="47.28923" lon="4.92907">
        <ele>543</ele>
        <time>2018-09-24T14:15:17Z</time>
      </trkpt>
      <trkpt lat="47.28935" lon="4.92927">
        <ele>541</ele>
        <time>2018-09-24T14:16:17Z</time>
      </trkpt>
      <trkpt lat="47.28938" lon="4.92933">
        <ele>540</ele>
        <time>2018-09-24T14:17:17Z</time>
      </trkpt>
      <trkpt lat="47.28941" lon="4.92941">
        <ele>539</ele>
        <time>2018-09-24T14:18:17Z</time>
      </trkpt>
      <trkpt lat="47.28944" lon="4.92954">
        <ele>537</ele>
        <time>2018-09-24T14:19:17Z</time>
      </trkpt>
      <trkpt lat="47.28949" lon="4.92963">
        <ele>535</ele>
        <time>2018-09-24T14:20:17Z</time>
      </trkpt>
      <trkpt lat="47.28951" lon="4.92976">
        <ele>533</ele>
        <time>2018-09-24T14:21:17Z</time>
      </trkpt>
      <trkpt lat="47.28958" lon="4.92999">
        <ele>529</ele>
        <time>2018-09-24T14:22:17Z</time>
      </trkpt>
      <trkpt lat="47.28959" lon="4.93009">
        <ele>528</ele>
        <time>2018-09-24T14:23:17Z</time>
      </trkpt>
      <trkpt lat="47.28963" lon="4.93027">
        <ele>526</ele>
        <time>2018-09-24T14:24:17Z</time>
      </trkpt>
      <trkpt lat="47.28971" lon="4.93046">
        <ele>522</ele>
        <time>2018-09-24T14:25:17Z</time>
      </trkpt>
      <trkpt lat="47.28975" lon="4.93054">
        <ele>520</ele>
        <time>2018-09-24T14:26:17Z</time>
      </trkpt>
      <trkpt lat="47.2898" lon="4.93062">
        <ele>518</ele>
        <time>2018-09-24T14:27:17Z</time>
      </trkpt>
      <trkpt lat="47.28985" lon="4.93067">
        <ele>515</ele>
        <time>2018-09-24T14:28:17Z</time>
      </trkpt>
      <trkpt lat="47.28998" lon="4.93072">
        <ele>510</ele>
        <time>2018-09-24T14:29:17Z</time>
      </trkpt>
      <trkpt lat="47.29012" lon="4.93077">
        <ele>510</ele>
        <time>2018-09-24T14:30:17Z</time>
      </trkpt>
      <trkpt lat="47.29018" lon="4.9308">
        <ele>511</ele>
        <time>2018-09-24T14:31:17Z</time>
      </trkpt>
      <trkpt lat="47.29029" lon="4.93094">
        <ele>510</ele>
        <time>2018-09-24T14:32:17Z</time>
      </trkpt>
      <trkpt lat="47.2905" lon="4.9314">
        <ele>507</ele>
        <time>2018-09-24T14:33:17Z</time>
      </trkpt>
      <trkpt lat="47.29053" lon="4.93149">
        <ele>506</ele>
        <time>2018-09-24T14:34:17Z</time>
      </trkpt>
      <trkpt lat="47.29077" lon="4.93193">
        <ele>500</ele>
        <time>2018-09-24T14:35:17Z</time>
      </trkpt>
      <trkpt lat="47.29084" lon="4.93206">
        <ele>499</ele>
        <time>2018-09-24T14:36:17Z</time>
      </trkpt>
      <trkpt lat="47.29104" lon="4.93274">
        <ele>495</ele>
        <time>2018-09-24T14:37:17Z</time>
      </trkpt>
      <trkpt lat="47.29107" lon="4.93287">
        <ele>494</ele>
        <time>2018-09-24T14:38:17Z</time>
      </trkpt>
      <trkpt lat="47.29109" lon="4.933">
        <ele>493</ele>
        <time>2018-09-24T14:39:17Z</time>
      </trkpt>
      <trkpt lat="47.29112" lon="4.93342">
        <ele>490</ele>
        <time>2018-09-24T14:40:17Z</time>
      </trkpt>
      <trkpt lat="47.29118" lon="4.93371">
        <ele>489</ele>
        <time>2018-09-24T14:41:17Z</time>
      </trkpt>
      <trkpt lat="47.29132" lon="4.93413">
        <ele>487</ele>
        <time>2018-09-24T14:42:17Z</time>
      </trkpt>
      <trkpt lat="47.2914" lon="4.9344">
        <ele>486</ele>
        <time>2018-09-24T14:43:17Z</time>
      </trkpt>
      <trkpt lat="47.29151" lon="4.93482">
        <ele>484</ele>
        <time>2018-09-24T14:44:17Z</time>
      </trkpt>
      <trkpt lat="47.29159" lon="4.93509">
        <ele>481</ele>
        <time>2018-09-24T14:45:17Z</time>
      </trkpt>
      <trkpt lat="47.29167" lon="4.93535">
        <ele>479</ele>
        <time>2018-09-24T14:46:17Z</time>
      </trkpt>
      <trkpt lat="47.29173" lon="4.93545">
        <ele>479</ele>
        <time>2018-09-24T14:47:17Z</time>
      </trkpt>
      <trkpt lat="47.29184" lon="4.93559">
        <ele>479</ele>
        <time>2018-09-24T14:48:17Z</time>
      </trkpt>
      <trkpt lat="47.29188" lon="4.93564">
        <ele>479</ele>
        <time>2018-09-24T14:49:17Z</time>
      </trkpt>
      <trkpt lat="47.29211" lon="4.93632">
        <ele>477</ele>
        <time>2018-09-24T14:50:17Z</time>
      </trkpt>
      <trkpt lat="47.29215" lon="4.93642">
        <ele>477</ele>
        <time>2018-09-24T14:51:17Z</time>
      </trkpt>
      <trkpt lat="47.29246" lon="4.93711">
        <ele>474</ele>
        <time>2018-09-24T14:52:17Z</time>
      </trkpt>
      <trkpt lat="47.29254" lon="4.93731">
        <ele>473</ele>
        <time>2018-09-24T14:53:17Z</time>
      </trkpt>
      <trkpt lat="47.29268" lon="4.93771">
        <ele>472</ele>
        <time>2018-09-24T14:54:17Z</time>
      </trkpt>
      <trkpt lat="47.29271" lon="4.93781">
        <ele>471</ele>
        <time>2018-09-24T14:55:17Z</time>
      </trkpt>
      <trkpt lat="47.29289" lon="4.93851">
        <ele>468</ele>
        <time>2018-09-24T14:56:17Z</time>
      </trkpt>
      <trkpt lat="47.29295" lon="4.93871">
        <ele>468</ele>
        <time>2018-09-24T14:57:17Z</time>
      </trkpt>
      <trkpt lat="47.29303" lon="4.93895">
        <ele>467</ele>
        <time>2018-09-24T14:58:17Z</time>
      </trkpt>
      <trkpt lat="47.29312" lon="4.93921">
        <ele>466</ele>
        <time>2018-09-24T14:59:17Z</time>
      </trkpt>
      <trkpt lat="47.29313" lon="4.93925">
        <ele>466</ele>
        <time>2018-09-24T15:00:17Z</time>
      </trkpt>
      <trkpt lat="47.29316" lon="4.93927">
        <ele>466</ele>
        <time>2018-09-24T15:01:17Z</time>
      </trkpt>
      <trkpt lat="47.29321" lon="4.93926">
        <ele>466</ele>
        <time>2018-09-24T15:02:17Z</time>
      </trkpt>
      <trkpt lat="47.29322" lon="4.93925">
        <ele>467</ele>
        <time>2018-09-24T15:03:17Z</time>
      </trkpt>
      <trkpt lat="47.29326" lon="4.93921">
        <ele>467</ele>
        <time>2018-09-24T15:04:17Z</time>
      </trkpt>
      <trkpt lat="47.29327" lon="4.93918">
        <ele>467</ele>
        <time>2018-09-24T15:05:17Z</time>
      </trkpt>
      <trkpt lat="47.29334" lon="4.93919">
        <ele>468</ele>
        <time>2018-09-24T15:06:17Z</time>
      </trkpt>
      <trkpt lat="47.2935" lon="4.93928">
        <ele>468</ele>
        <time>2018-09-24T15:07:17Z</time>
      </trkpt>
      <trkpt lat="47.29389" lon="4.93946">
        <ele>468</ele>
        <time>2018-09-24T15:08:17Z</time>
      </trkpt>
      <trkpt lat="47.29393" lon="4.93946">
        <ele>468</ele>
        <time>2018-09-24T15:09:17Z</time>
      </trkpt>
      <trkpt lat="47.29395" lon="4.93943">
        <ele>468</ele>
        <time>2018-09-24T15:10:17Z</time>
      </trkpt>
    </trkseg>
  </trk>
</gpx>